<?xml version="1.0" encoding="UTF-8" standalone="no" ?>
<gpx xmlns="http://www.topografix.com/GPX/1/1" xmlns:xsi="http://www.w3.org/2001/XMLSchema-instance" xsi:schemaLocation="http://www.topografix.com/GPX/1/1 http://www.topografix.com/GPX/1/1/gpx.xsd" version="1.1" creator="VisuGPX - https://www.visugpx.com">
  <metadata>
    <name>VTT XC / AM Grabels</name>
    <desc><![CDATA[Sortie classique autour de Grabels par une météo idéale pour rouler  C'est un des parcours habituels du coin avec quelques petites variantes pour changer un peu des habitudes. Peut se faire pour la pause déjeuner.]]></desc>
  </metadata>
  <trk>
    <name><![CDATA[VTT XC / AM Grabels_1]]></name>
    <trkseg>
      <trkpt lat="43.63772" lon="3.8286">
        <ele>139.2</ele>
        <time>2017-10-04T10:26:41Z</time>
      </trkpt>
      <trkpt lat="43.63772" lon="3.8286">
        <ele>139.2</ele>
        <time>2017-10-04T10:26:54Z</time>
      </trkpt>
      <trkpt lat="43.63772" lon="3.82855">
        <ele>130.8</ele>
        <time>2017-10-04T10:28:29Z</time>
      </trkpt>
      <trkpt lat="43.63776" lon="3.82849">
        <ele>130.9</ele>
        <time>2017-10-04T10:28:36Z</time>
      </trkpt>
      <trkpt lat="43.63773" lon="3.82839">
        <ele>130.8</ele>
        <time>2017-10-04T10:28:39Z</time>
      </trkpt>
      <trkpt lat="43.63775" lon="3.82828">
        <ele>130.7</ele>
        <time>2017-10-04T10:28:42Z</time>
      </trkpt>
      <trkpt lat="43.63783" lon="3.82819">
        <ele>130.5</ele>
        <time>2017-10-04T10:28:45Z</time>
      </trkpt>
      <trkpt lat="43.63792" lon="3.82814">
        <ele>130.4</ele>
        <time>2017-10-04T10:28:48Z</time>
      </trkpt>
      <trkpt lat="43.638" lon="3.82809">
        <ele>130.1</ele>
        <time>2017-10-04T10:28:51Z</time>
      </trkpt>
      <trkpt lat="43.63809" lon="3.82804">
        <ele>130</ele>
        <time>2017-10-04T10:28:54Z</time>
      </trkpt>
      <trkpt lat="43.63818" lon="3.82801">
        <ele>129.7</ele>
        <time>2017-10-04T10:28:57Z</time>
      </trkpt>
      <trkpt lat="43.63827" lon="3.82798">
        <ele>129.4</ele>
        <time>2017-10-04T10:29:00Z</time>
      </trkpt>
      <trkpt lat="43.63837" lon="3.82799">
        <ele>127.8</ele>
        <time>2017-10-04T10:29:03Z</time>
      </trkpt>
      <trkpt lat="43.63845" lon="3.82797">
        <ele>127.7</ele>
        <time>2017-10-04T10:29:05Z</time>
      </trkpt>
      <trkpt lat="43.63854" lon="3.82791">
        <ele>127.6</ele>
        <time>2017-10-04T10:29:07Z</time>
      </trkpt>
      <trkpt lat="43.63864" lon="3.82785">
        <ele>127.4</ele>
        <time>2017-10-04T10:29:09Z</time>
      </trkpt>
      <trkpt lat="43.63871" lon="3.8278">
        <ele>127.2</ele>
        <time>2017-10-04T10:29:11Z</time>
      </trkpt>
      <trkpt lat="43.63879" lon="3.82774">
        <ele>126.8</ele>
        <time>2017-10-04T10:29:14Z</time>
      </trkpt>
      <trkpt lat="43.63885" lon="3.8278">
        <ele>126.6</ele>
        <time>2017-10-04T10:29:21Z</time>
      </trkpt>
      <trkpt lat="43.6389" lon="3.82791">
        <ele>126.9</ele>
        <time>2017-10-04T10:29:25Z</time>
      </trkpt>
      <trkpt lat="43.63897" lon="3.82794">
        <ele>127.3</ele>
        <time>2017-10-04T10:29:28Z</time>
      </trkpt>
      <trkpt lat="43.63906" lon="3.82798">
        <ele>127.7</ele>
        <time>2017-10-04T10:29:31Z</time>
      </trkpt>
      <trkpt lat="43.63913" lon="3.82804">
        <ele>128.3</ele>
        <time>2017-10-04T10:29:35Z</time>
      </trkpt>
      <trkpt lat="43.63921" lon="3.82805">
        <ele>128.6</ele>
        <time>2017-10-04T10:29:37Z</time>
      </trkpt>
      <trkpt lat="43.6393" lon="3.82803">
        <ele>129</ele>
        <time>2017-10-04T10:29:40Z</time>
      </trkpt>
      <trkpt lat="43.63939" lon="3.82803">
        <ele>129.7</ele>
        <time>2017-10-04T10:29:43Z</time>
      </trkpt>
      <trkpt lat="43.63946" lon="3.82803">
        <ele>130.1</ele>
        <time>2017-10-04T10:29:45Z</time>
      </trkpt>
      <trkpt lat="43.63954" lon="3.82804">
        <ele>130.4</ele>
        <time>2017-10-04T10:29:48Z</time>
      </trkpt>
      <trkpt lat="43.63962" lon="3.828">
        <ele>130.8</ele>
        <time>2017-10-04T10:29:52Z</time>
      </trkpt>
      <trkpt lat="43.63971" lon="3.82799">
        <ele>131.4</ele>
        <time>2017-10-04T10:29:56Z</time>
      </trkpt>
      <trkpt lat="43.63979" lon="3.82799">
        <ele>131.7</ele>
        <time>2017-10-04T10:29:58Z</time>
      </trkpt>
      <trkpt lat="43.63988" lon="3.82797">
        <ele>132</ele>
        <time>2017-10-04T10:30:00Z</time>
      </trkpt>
      <trkpt lat="43.63997" lon="3.82795">
        <ele>132.2</ele>
        <time>2017-10-04T10:30:02Z</time>
      </trkpt>
      <trkpt lat="43.64004" lon="3.82792">
        <ele>132.3</ele>
        <time>2017-10-04T10:30:04Z</time>
      </trkpt>
      <trkpt lat="43.64013" lon="3.82783">
        <ele>132.3</ele>
        <time>2017-10-04T10:30:06Z</time>
      </trkpt>
      <trkpt lat="43.64019" lon="3.82772">
        <ele>132.5</ele>
        <time>2017-10-04T10:30:09Z</time>
      </trkpt>
      <trkpt lat="43.64025" lon="3.82766">
        <ele>132.7</ele>
        <time>2017-10-04T10:30:11Z</time>
      </trkpt>
      <trkpt lat="43.64034" lon="3.8276">
        <ele>132.9</ele>
        <time>2017-10-04T10:30:14Z</time>
      </trkpt>
      <trkpt lat="43.64042" lon="3.82756">
        <ele>133</ele>
        <time>2017-10-04T10:30:17Z</time>
      </trkpt>
      <trkpt lat="43.6405" lon="3.82748">
        <ele>133.1</ele>
        <time>2017-10-04T10:30:20Z</time>
      </trkpt>
      <trkpt lat="43.64058" lon="3.82739">
        <ele>133.1</ele>
        <time>2017-10-04T10:30:23Z</time>
      </trkpt>
      <trkpt lat="43.64065" lon="3.82732">
        <ele>133</ele>
        <time>2017-10-04T10:30:25Z</time>
      </trkpt>
      <trkpt lat="43.6407" lon="3.82726">
        <ele>133.1</ele>
        <time>2017-10-04T10:30:27Z</time>
      </trkpt>
      <trkpt lat="43.64077" lon="3.82721">
        <ele>133</ele>
        <time>2017-10-04T10:30:29Z</time>
      </trkpt>
      <trkpt lat="43.64084" lon="3.82715">
        <ele>133</ele>
        <time>2017-10-04T10:30:31Z</time>
      </trkpt>
      <trkpt lat="43.6409" lon="3.82711">
        <ele>132.9</ele>
        <time>2017-10-04T10:30:33Z</time>
      </trkpt>
      <trkpt lat="43.64098" lon="3.82705">
        <ele>132.8</ele>
        <time>2017-10-04T10:30:36Z</time>
      </trkpt>
      <trkpt lat="43.64106" lon="3.82697">
        <ele>132.7</ele>
        <time>2017-10-04T10:30:39Z</time>
      </trkpt>
      <trkpt lat="43.64114" lon="3.82688">
        <ele>132.7</ele>
        <time>2017-10-04T10:30:42Z</time>
      </trkpt>
      <trkpt lat="43.64121" lon="3.8268">
        <ele>132.7</ele>
        <time>2017-10-04T10:30:45Z</time>
      </trkpt>
      <trkpt lat="43.64128" lon="3.82673">
        <ele>132.8</ele>
        <time>2017-10-04T10:30:48Z</time>
      </trkpt>
      <trkpt lat="43.64136" lon="3.82665">
        <ele>133</ele>
        <time>2017-10-04T10:30:51Z</time>
      </trkpt>
      <trkpt lat="43.64143" lon="3.82657">
        <ele>133.2</ele>
        <time>2017-10-04T10:30:54Z</time>
      </trkpt>
      <trkpt lat="43.6415" lon="3.82648">
        <ele>133.6</ele>
        <time>2017-10-04T10:30:57Z</time>
      </trkpt>
      <trkpt lat="43.64157" lon="3.82639">
        <ele>133.9</ele>
        <time>2017-10-04T10:31:00Z</time>
      </trkpt>
      <trkpt lat="43.64162" lon="3.82632">
        <ele>134.1</ele>
        <time>2017-10-04T10:31:02Z</time>
      </trkpt>
      <trkpt lat="43.64169" lon="3.82623">
        <ele>134.5</ele>
        <time>2017-10-04T10:31:05Z</time>
      </trkpt>
      <trkpt lat="43.64176" lon="3.82613">
        <ele>134.8</ele>
        <time>2017-10-04T10:31:08Z</time>
      </trkpt>
      <trkpt lat="43.64183" lon="3.82605">
        <ele>135.1</ele>
        <time>2017-10-04T10:31:11Z</time>
      </trkpt>
      <trkpt lat="43.6419" lon="3.82595">
        <ele>135.5</ele>
        <time>2017-10-04T10:31:14Z</time>
      </trkpt>
      <trkpt lat="43.64197" lon="3.82586">
        <ele>136</ele>
        <time>2017-10-04T10:31:17Z</time>
      </trkpt>
      <trkpt lat="43.64204" lon="3.82576">
        <ele>136.4</ele>
        <time>2017-10-04T10:31:20Z</time>
      </trkpt>
      <trkpt lat="43.64209" lon="3.82569">
        <ele>136.6</ele>
        <time>2017-10-04T10:31:22Z</time>
      </trkpt>
      <trkpt lat="43.64216" lon="3.82561">
        <ele>136.9</ele>
        <time>2017-10-04T10:31:25Z</time>
      </trkpt>
      <trkpt lat="43.64222" lon="3.82549">
        <ele>137.3</ele>
        <time>2017-10-04T10:31:28Z</time>
      </trkpt>
      <trkpt lat="43.64228" lon="3.82537">
        <ele>137.8</ele>
        <time>2017-10-04T10:31:31Z</time>
      </trkpt>
      <trkpt lat="43.64232" lon="3.82529">
        <ele>138</ele>
        <time>2017-10-04T10:31:33Z</time>
      </trkpt>
      <trkpt lat="43.64237" lon="3.8252">
        <ele>138.3</ele>
        <time>2017-10-04T10:31:35Z</time>
      </trkpt>
      <trkpt lat="43.6424" lon="3.82509">
        <ele>138.5</ele>
        <time>2017-10-04T10:31:37Z</time>
      </trkpt>
      <trkpt lat="43.64244" lon="3.82501">
        <ele>138.7</ele>
        <time>2017-10-04T10:31:39Z</time>
      </trkpt>
      <trkpt lat="43.64248" lon="3.82491">
        <ele>139.7</ele>
        <time>2017-10-04T10:31:41Z</time>
      </trkpt>
      <trkpt lat="43.64252" lon="3.82481">
        <ele>139.8</ele>
        <time>2017-10-04T10:31:43Z</time>
      </trkpt>
      <trkpt lat="43.64256" lon="3.8247">
        <ele>139.9</ele>
        <time>2017-10-04T10:31:46Z</time>
      </trkpt>
      <trkpt lat="43.6426" lon="3.82461">
        <ele>140</ele>
        <time>2017-10-04T10:31:48Z</time>
      </trkpt>
      <trkpt lat="43.64264" lon="3.8245">
        <ele>140</ele>
        <time>2017-10-04T10:31:51Z</time>
      </trkpt>
      <trkpt lat="43.64269" lon="3.82439">
        <ele>139.9</ele>
        <time>2017-10-04T10:31:54Z</time>
      </trkpt>
      <trkpt lat="43.64273" lon="3.82429">
        <ele>139.9</ele>
        <time>2017-10-04T10:31:56Z</time>
      </trkpt>
      <trkpt lat="43.64277" lon="3.82419">
        <ele>139.9</ele>
        <time>2017-10-04T10:31:59Z</time>
      </trkpt>
      <trkpt lat="43.64282" lon="3.82409">
        <ele>140</ele>
        <time>2017-10-04T10:32:01Z</time>
      </trkpt>
      <trkpt lat="43.64287" lon="3.82399">
        <ele>140</ele>
        <time>2017-10-04T10:32:03Z</time>
      </trkpt>
      <trkpt lat="43.64293" lon="3.82391">
        <ele>140.1</ele>
        <time>2017-10-04T10:32:05Z</time>
      </trkpt>
      <trkpt lat="43.64303" lon="3.82382">
        <ele>140</ele>
        <time>2017-10-04T10:32:08Z</time>
      </trkpt>
      <trkpt lat="43.64309" lon="3.82375">
        <ele>139.9</ele>
        <time>2017-10-04T10:32:11Z</time>
      </trkpt>
      <trkpt lat="43.64313" lon="3.82362">
        <ele>139.8</ele>
        <time>2017-10-04T10:32:14Z</time>
      </trkpt>
      <trkpt lat="43.64317" lon="3.82352">
        <ele>139.7</ele>
        <time>2017-10-04T10:32:16Z</time>
      </trkpt>
      <trkpt lat="43.64322" lon="3.82343">
        <ele>139.7</ele>
        <time>2017-10-04T10:32:18Z</time>
      </trkpt>
      <trkpt lat="43.64327" lon="3.82329">
        <ele>139.5</ele>
        <time>2017-10-04T10:32:21Z</time>
      </trkpt>
      <trkpt lat="43.64332" lon="3.82318">
        <ele>139.4</ele>
        <time>2017-10-04T10:32:24Z</time>
      </trkpt>
      <trkpt lat="43.64337" lon="3.82307">
        <ele>139.3</ele>
        <time>2017-10-04T10:32:27Z</time>
      </trkpt>
      <trkpt lat="43.64341" lon="3.82298">
        <ele>139.4</ele>
        <time>2017-10-04T10:32:29Z</time>
      </trkpt>
      <trkpt lat="43.64347" lon="3.82285">
        <ele>139.5</ele>
        <time>2017-10-04T10:32:32Z</time>
      </trkpt>
      <trkpt lat="43.64354" lon="3.82272">
        <ele>139.7</ele>
        <time>2017-10-04T10:32:35Z</time>
      </trkpt>
      <trkpt lat="43.64361" lon="3.8226">
        <ele>142.7</ele>
        <time>2017-10-04T10:32:37Z</time>
      </trkpt>
      <trkpt lat="43.64368" lon="3.82255">
        <ele>143.1</ele>
        <time>2017-10-04T10:32:39Z</time>
      </trkpt>
      <trkpt lat="43.64371" lon="3.82245">
        <ele>144.1</ele>
        <time>2017-10-04T10:32:44Z</time>
      </trkpt>
      <trkpt lat="43.64368" lon="3.82232">
        <ele>145</ele>
        <time>2017-10-04T10:32:48Z</time>
      </trkpt>
      <trkpt lat="43.64366" lon="3.8222">
        <ele>145.7</ele>
        <time>2017-10-04T10:32:51Z</time>
      </trkpt>
      <trkpt lat="43.64362" lon="3.82209">
        <ele>146.4</ele>
        <time>2017-10-04T10:32:54Z</time>
      </trkpt>
      <trkpt lat="43.64358" lon="3.822">
        <ele>147.1</ele>
        <time>2017-10-04T10:32:57Z</time>
      </trkpt>
      <trkpt lat="43.64354" lon="3.82192">
        <ele>147.7</ele>
        <time>2017-10-04T10:33:00Z</time>
      </trkpt>
      <trkpt lat="43.64352" lon="3.82182">
        <ele>148.4</ele>
        <time>2017-10-04T10:33:04Z</time>
      </trkpt>
      <trkpt lat="43.64349" lon="3.82172">
        <ele>148.8</ele>
        <time>2017-10-04T10:33:07Z</time>
      </trkpt>
      <trkpt lat="43.64345" lon="3.82161">
        <ele>149.1</ele>
        <time>2017-10-04T10:33:10Z</time>
      </trkpt>
      <trkpt lat="43.64343" lon="3.82151">
        <ele>149.6</ele>
        <time>2017-10-04T10:33:14Z</time>
      </trkpt>
      <trkpt lat="43.64339" lon="3.82138">
        <ele>150</ele>
        <time>2017-10-04T10:33:18Z</time>
      </trkpt>
      <trkpt lat="43.64337" lon="3.82128">
        <ele>150.6</ele>
        <time>2017-10-04T10:33:22Z</time>
      </trkpt>
      <trkpt lat="43.64336" lon="3.82115">
        <ele>151</ele>
        <time>2017-10-04T10:33:25Z</time>
      </trkpt>
      <trkpt lat="43.64336" lon="3.82093">
        <ele>151.2</ele>
        <time>2017-10-04T10:33:27Z</time>
      </trkpt>
      <trkpt lat="43.64337" lon="3.82082">
        <ele>151.1</ele>
        <time>2017-10-04T10:33:30Z</time>
      </trkpt>
      <trkpt lat="43.64341" lon="3.82072">
        <ele>151</ele>
        <time>2017-10-04T10:33:33Z</time>
      </trkpt>
      <trkpt lat="43.64345" lon="3.8206">
        <ele>150.9</ele>
        <time>2017-10-04T10:33:35Z</time>
      </trkpt>
      <trkpt lat="43.64351" lon="3.82047">
        <ele>150.6</ele>
        <time>2017-10-04T10:33:37Z</time>
      </trkpt>
      <trkpt lat="43.64354" lon="3.82038">
        <ele>150.3</ele>
        <time>2017-10-04T10:33:39Z</time>
      </trkpt>
      <trkpt lat="43.64359" lon="3.82026">
        <ele>149.8</ele>
        <time>2017-10-04T10:33:42Z</time>
      </trkpt>
      <trkpt lat="43.64362" lon="3.82017">
        <ele>149.5</ele>
        <time>2017-10-04T10:33:44Z</time>
      </trkpt>
      <trkpt lat="43.64368" lon="3.82009">
        <ele>149.7</ele>
        <time>2017-10-04T10:33:46Z</time>
      </trkpt>
      <trkpt lat="43.64373" lon="3.81997">
        <ele>150</ele>
        <time>2017-10-04T10:33:49Z</time>
      </trkpt>
      <trkpt lat="43.64378" lon="3.81986">
        <ele>150.3</ele>
        <time>2017-10-04T10:33:52Z</time>
      </trkpt>
      <trkpt lat="43.64383" lon="3.81975">
        <ele>150.7</ele>
        <time>2017-10-04T10:33:55Z</time>
      </trkpt>
      <trkpt lat="43.64387" lon="3.81963">
        <ele>151.1</ele>
        <time>2017-10-04T10:33:58Z</time>
      </trkpt>
      <trkpt lat="43.64391" lon="3.81954">
        <ele>152.5</ele>
        <time>2017-10-04T10:34:00Z</time>
      </trkpt>
      <trkpt lat="43.64394" lon="3.81945">
        <ele>152.7</ele>
        <time>2017-10-04T10:34:02Z</time>
      </trkpt>
      <trkpt lat="43.64398" lon="3.81936">
        <ele>153.4</ele>
        <time>2017-10-04T10:34:07Z</time>
      </trkpt>
      <trkpt lat="43.644" lon="3.81925">
        <ele>153.9</ele>
        <time>2017-10-04T10:34:11Z</time>
      </trkpt>
      <trkpt lat="43.64403" lon="3.81913">
        <ele>154.4</ele>
        <time>2017-10-04T10:34:15Z</time>
      </trkpt>
      <trkpt lat="43.64405" lon="3.81901">
        <ele>154.7</ele>
        <time>2017-10-04T10:34:18Z</time>
      </trkpt>
      <trkpt lat="43.64406" lon="3.8189">
        <ele>155.1</ele>
        <time>2017-10-04T10:34:21Z</time>
      </trkpt>
      <trkpt lat="43.64406" lon="3.81877">
        <ele>155.6</ele>
        <time>2017-10-04T10:34:25Z</time>
      </trkpt>
      <trkpt lat="43.64406" lon="3.81867">
        <ele>155.9</ele>
        <time>2017-10-04T10:34:28Z</time>
      </trkpt>
      <trkpt lat="43.64407" lon="3.81855">
        <ele>156.1</ele>
        <time>2017-10-04T10:34:31Z</time>
      </trkpt>
      <trkpt lat="43.64405" lon="3.81845">
        <ele>156.2</ele>
        <time>2017-10-04T10:34:34Z</time>
      </trkpt>
      <trkpt lat="43.64406" lon="3.81831">
        <ele>156.4</ele>
        <time>2017-10-04T10:34:37Z</time>
      </trkpt>
      <trkpt lat="43.64411" lon="3.81817">
        <ele>156.6</ele>
        <time>2017-10-04T10:34:39Z</time>
      </trkpt>
      <trkpt lat="43.64414" lon="3.81805">
        <ele>156.9</ele>
        <time>2017-10-04T10:34:43Z</time>
      </trkpt>
      <trkpt lat="43.64411" lon="3.81794">
        <ele>157.2</ele>
        <time>2017-10-04T10:34:46Z</time>
      </trkpt>
      <trkpt lat="43.64406" lon="3.81786">
        <ele>157.3</ele>
        <time>2017-10-04T10:34:48Z</time>
      </trkpt>
      <trkpt lat="43.64399" lon="3.81775">
        <ele>157.5</ele>
        <time>2017-10-04T10:34:51Z</time>
      </trkpt>
      <trkpt lat="43.64392" lon="3.81763">
        <ele>157.6</ele>
        <time>2017-10-04T10:34:54Z</time>
      </trkpt>
      <trkpt lat="43.64387" lon="3.81756">
        <ele>157.6</ele>
        <time>2017-10-04T10:34:56Z</time>
      </trkpt>
      <trkpt lat="43.64382" lon="3.81748">
        <ele>157.4</ele>
        <time>2017-10-04T10:34:58Z</time>
      </trkpt>
      <trkpt lat="43.64378" lon="3.81739">
        <ele>157.2</ele>
        <time>2017-10-04T10:35:00Z</time>
      </trkpt>
      <trkpt lat="43.64374" lon="3.8173">
        <ele>157.2</ele>
        <time>2017-10-04T10:35:02Z</time>
      </trkpt>
      <trkpt lat="43.64368" lon="3.81718">
        <ele>157</ele>
        <time>2017-10-04T10:35:05Z</time>
      </trkpt>
      <trkpt lat="43.64365" lon="3.81709">
        <ele>156.8</ele>
        <time>2017-10-04T10:35:08Z</time>
      </trkpt>
      <trkpt lat="43.6436" lon="3.81695">
        <ele>156.7</ele>
        <time>2017-10-04T10:35:11Z</time>
      </trkpt>
      <trkpt lat="43.64356" lon="3.81686">
        <ele>156.7</ele>
        <time>2017-10-04T10:35:13Z</time>
      </trkpt>
      <trkpt lat="43.64352" lon="3.81673">
        <ele>156.9</ele>
        <time>2017-10-04T10:35:16Z</time>
      </trkpt>
      <trkpt lat="43.64348" lon="3.81661">
        <ele>157.1</ele>
        <time>2017-10-04T10:35:19Z</time>
      </trkpt>
      <trkpt lat="43.64343" lon="3.81649">
        <ele>157.3</ele>
        <time>2017-10-04T10:35:22Z</time>
      </trkpt>
      <trkpt lat="43.6434" lon="3.81637">
        <ele>157.5</ele>
        <time>2017-10-04T10:35:25Z</time>
      </trkpt>
      <trkpt lat="43.64336" lon="3.81629">
        <ele>157.6</ele>
        <time>2017-10-04T10:35:27Z</time>
      </trkpt>
      <trkpt lat="43.64333" lon="3.81619">
        <ele>157.7</ele>
        <time>2017-10-04T10:35:29Z</time>
      </trkpt>
      <trkpt lat="43.64328" lon="3.81607">
        <ele>157.9</ele>
        <time>2017-10-04T10:35:32Z</time>
      </trkpt>
      <trkpt lat="43.64325" lon="3.81598">
        <ele>157.9</ele>
        <time>2017-10-04T10:35:35Z</time>
      </trkpt>
      <trkpt lat="43.64321" lon="3.81586">
        <ele>157.9</ele>
        <time>2017-10-04T10:35:38Z</time>
      </trkpt>
      <trkpt lat="43.64319" lon="3.81576">
        <ele>157.9</ele>
        <time>2017-10-04T10:35:40Z</time>
      </trkpt>
      <trkpt lat="43.64317" lon="3.81565">
        <ele>158.4</ele>
        <time>2017-10-04T10:35:42Z</time>
      </trkpt>
      <trkpt lat="43.64315" lon="3.81553">
        <ele>159.1</ele>
        <time>2017-10-04T10:35:44Z</time>
      </trkpt>
      <trkpt lat="43.64312" lon="3.81541">
        <ele>159.9</ele>
        <time>2017-10-04T10:35:46Z</time>
      </trkpt>
      <trkpt lat="43.6431" lon="3.81528">
        <ele>160.8</ele>
        <time>2017-10-04T10:35:48Z</time>
      </trkpt>
      <trkpt lat="43.64307" lon="3.81513">
        <ele>162.1</ele>
        <time>2017-10-04T10:35:50Z</time>
      </trkpt>
      <trkpt lat="43.64304" lon="3.81502">
        <ele>162.9</ele>
        <time>2017-10-04T10:35:52Z</time>
      </trkpt>
      <trkpt lat="43.643" lon="3.81489">
        <ele>163.3</ele>
        <time>2017-10-04T10:35:54Z</time>
      </trkpt>
      <trkpt lat="43.64297" lon="3.81475">
        <ele>163.5</ele>
        <time>2017-10-04T10:35:56Z</time>
      </trkpt>
      <trkpt lat="43.64292" lon="3.81461">
        <ele>163.6</ele>
        <time>2017-10-04T10:35:58Z</time>
      </trkpt>
      <trkpt lat="43.64289" lon="3.81447">
        <ele>163.6</ele>
        <time>2017-10-04T10:36:00Z</time>
      </trkpt>
      <trkpt lat="43.64284" lon="3.81431">
        <ele>163.5</ele>
        <time>2017-10-04T10:36:02Z</time>
      </trkpt>
      <trkpt lat="43.64279" lon="3.8141">
        <ele>164.4</ele>
        <time>2017-10-04T10:36:04Z</time>
      </trkpt>
      <trkpt lat="43.64273" lon="3.81397">
        <ele>165.3</ele>
        <time>2017-10-04T10:36:06Z</time>
      </trkpt>
      <trkpt lat="43.64268" lon="3.81382">
        <ele>165.7</ele>
        <time>2017-10-04T10:36:08Z</time>
      </trkpt>
      <trkpt lat="43.64265" lon="3.81371">
        <ele>165.8</ele>
        <time>2017-10-04T10:36:09Z</time>
      </trkpt>
      <trkpt lat="43.64262" lon="3.81362">
        <ele>165.8</ele>
        <time>2017-10-04T10:36:10Z</time>
      </trkpt>
      <trkpt lat="43.64258" lon="3.81351">
        <ele>166.4</ele>
        <time>2017-10-04T10:36:11Z</time>
      </trkpt>
      <trkpt lat="43.64252" lon="3.81335">
        <ele>167.6</ele>
        <time>2017-10-04T10:36:13Z</time>
      </trkpt>
      <trkpt lat="43.64245" lon="3.81321">
        <ele>168.6</ele>
        <time>2017-10-04T10:36:15Z</time>
      </trkpt>
      <trkpt lat="43.64237" lon="3.81309">
        <ele>169.1</ele>
        <time>2017-10-04T10:36:17Z</time>
      </trkpt>
      <trkpt lat="43.64229" lon="3.81296">
        <ele>169.4</ele>
        <time>2017-10-04T10:36:19Z</time>
      </trkpt>
      <trkpt lat="43.64222" lon="3.81283">
        <ele>169.8</ele>
        <time>2017-10-04T10:36:21Z</time>
      </trkpt>
      <trkpt lat="43.64216" lon="3.81272">
        <ele>169.8</ele>
        <time>2017-10-04T10:36:23Z</time>
      </trkpt>
      <trkpt lat="43.6421" lon="3.8126">
        <ele>169.1</ele>
        <time>2017-10-04T10:36:25Z</time>
      </trkpt>
      <trkpt lat="43.64205" lon="3.81249">
        <ele>168.7</ele>
        <time>2017-10-04T10:36:27Z</time>
      </trkpt>
      <trkpt lat="43.64198" lon="3.81238">
        <ele>168</ele>
        <time>2017-10-04T10:36:29Z</time>
      </trkpt>
      <trkpt lat="43.64191" lon="3.81227">
        <ele>167.5</ele>
        <time>2017-10-04T10:36:31Z</time>
      </trkpt>
      <trkpt lat="43.64185" lon="3.81215">
        <ele>167.1</ele>
        <time>2017-10-04T10:36:33Z</time>
      </trkpt>
      <trkpt lat="43.64178" lon="3.81206">
        <ele>166.9</ele>
        <time>2017-10-04T10:36:35Z</time>
      </trkpt>
      <trkpt lat="43.64171" lon="3.81196">
        <ele>166.7</ele>
        <time>2017-10-04T10:36:37Z</time>
      </trkpt>
      <trkpt lat="43.64164" lon="3.81187">
        <ele>166.3</ele>
        <time>2017-10-04T10:36:39Z</time>
      </trkpt>
      <trkpt lat="43.64155" lon="3.81177">
        <ele>166</ele>
        <time>2017-10-04T10:36:41Z</time>
      </trkpt>
      <trkpt lat="43.64147" lon="3.81167">
        <ele>165.8</ele>
        <time>2017-10-04T10:36:43Z</time>
      </trkpt>
      <trkpt lat="43.64138" lon="3.8116">
        <ele>166</ele>
        <time>2017-10-04T10:36:45Z</time>
      </trkpt>
      <trkpt lat="43.64129" lon="3.81151">
        <ele>166</ele>
        <time>2017-10-04T10:36:47Z</time>
      </trkpt>
      <trkpt lat="43.64121" lon="3.8114">
        <ele>166</ele>
        <time>2017-10-04T10:36:49Z</time>
      </trkpt>
      <trkpt lat="43.64113" lon="3.81131">
        <ele>166</ele>
        <time>2017-10-04T10:36:51Z</time>
      </trkpt>
      <trkpt lat="43.64106" lon="3.8112">
        <ele>166.2</ele>
        <time>2017-10-04T10:36:53Z</time>
      </trkpt>
      <trkpt lat="43.64098" lon="3.81112">
        <ele>166.2</ele>
        <time>2017-10-04T10:36:55Z</time>
      </trkpt>
      <trkpt lat="43.64092" lon="3.81105">
        <ele>166.3</ele>
        <time>2017-10-04T10:36:57Z</time>
      </trkpt>
      <trkpt lat="43.64087" lon="3.81097">
        <ele>166.3</ele>
        <time>2017-10-04T10:36:59Z</time>
      </trkpt>
      <trkpt lat="43.64087" lon="3.81081">
        <ele>166.1</ele>
        <time>2017-10-04T10:37:02Z</time>
      </trkpt>
      <trkpt lat="43.64095" lon="3.81069">
        <ele>165.4</ele>
        <time>2017-10-04T10:37:04Z</time>
      </trkpt>
      <trkpt lat="43.641" lon="3.81061">
        <ele>164.7</ele>
        <time>2017-10-04T10:37:05Z</time>
      </trkpt>
      <trkpt lat="43.64105" lon="3.81051">
        <ele>164</ele>
        <time>2017-10-04T10:37:06Z</time>
      </trkpt>
      <trkpt lat="43.64108" lon="3.81042">
        <ele>164.1</ele>
        <time>2017-10-04T10:37:07Z</time>
      </trkpt>
      <trkpt lat="43.64112" lon="3.81031">
        <ele>164.2</ele>
        <time>2017-10-04T10:37:08Z</time>
      </trkpt>
      <trkpt lat="43.64112" lon="3.8102">
        <ele>164.3</ele>
        <time>2017-10-04T10:37:09Z</time>
      </trkpt>
      <trkpt lat="43.64115" lon="3.81009">
        <ele>164.1</ele>
        <time>2017-10-04T10:37:10Z</time>
      </trkpt>
      <trkpt lat="43.6412" lon="3.81002">
        <ele>163.9</ele>
        <time>2017-10-04T10:37:11Z</time>
      </trkpt>
      <trkpt lat="43.64126" lon="3.80992">
        <ele>163.3</ele>
        <time>2017-10-04T10:37:12Z</time>
      </trkpt>
      <trkpt lat="43.64132" lon="3.80983">
        <ele>162.8</ele>
        <time>2017-10-04T10:37:13Z</time>
      </trkpt>
      <trkpt lat="43.64137" lon="3.80972">
        <ele>162.5</ele>
        <time>2017-10-04T10:37:14Z</time>
      </trkpt>
      <trkpt lat="43.64142" lon="3.80962">
        <ele>162.2</ele>
        <time>2017-10-04T10:37:15Z</time>
      </trkpt>
      <trkpt lat="43.64148" lon="3.80951">
        <ele>161.8</ele>
        <time>2017-10-04T10:37:17Z</time>
      </trkpt>
      <trkpt lat="43.64154" lon="3.80942">
        <ele>161.8</ele>
        <time>2017-10-04T10:37:19Z</time>
      </trkpt>
      <trkpt lat="43.6416" lon="3.80934">
        <ele>161.8</ele>
        <time>2017-10-04T10:37:22Z</time>
      </trkpt>
      <trkpt lat="43.64168" lon="3.80926">
        <ele>161.7</ele>
        <time>2017-10-04T10:37:25Z</time>
      </trkpt>
      <trkpt lat="43.64176" lon="3.80917">
        <ele>161.5</ele>
        <time>2017-10-04T10:37:28Z</time>
      </trkpt>
      <trkpt lat="43.6418" lon="3.80907">
        <ele>161.3</ele>
        <time>2017-10-04T10:37:30Z</time>
      </trkpt>
      <trkpt lat="43.64185" lon="3.80894">
        <ele>161</ele>
        <time>2017-10-04T10:37:33Z</time>
      </trkpt>
      <trkpt lat="43.64181" lon="3.80885">
        <ele>159.1</ele>
        <time>2017-10-04T10:37:35Z</time>
      </trkpt>
      <trkpt lat="43.64173" lon="3.80873">
        <ele>156.9</ele>
        <time>2017-10-04T10:37:37Z</time>
      </trkpt>
      <trkpt lat="43.64168" lon="3.80853">
        <ele>154.4</ele>
        <time>2017-10-04T10:37:39Z</time>
      </trkpt>
      <trkpt lat="43.64167" lon="3.80841">
        <ele>153.5</ele>
        <time>2017-10-04T10:37:40Z</time>
      </trkpt>
      <trkpt lat="43.64165" lon="3.80825">
        <ele>152.2</ele>
        <time>2017-10-04T10:37:42Z</time>
      </trkpt>
      <trkpt lat="43.64164" lon="3.80807">
        <ele>150.8</ele>
        <time>2017-10-04T10:37:44Z</time>
      </trkpt>
      <trkpt lat="43.64164" lon="3.80796">
        <ele>149.9</ele>
        <time>2017-10-04T10:37:45Z</time>
      </trkpt>
      <trkpt lat="43.64162" lon="3.80777">
        <ele>147.7</ele>
        <time>2017-10-04T10:37:47Z</time>
      </trkpt>
      <trkpt lat="43.64161" lon="3.80766">
        <ele>146.4</ele>
        <time>2017-10-04T10:37:48Z</time>
      </trkpt>
      <trkpt lat="43.64159" lon="3.80754">
        <ele>145.2</ele>
        <time>2017-10-04T10:37:49Z</time>
      </trkpt>
      <trkpt lat="43.64159" lon="3.80739">
        <ele>144.1</ele>
        <time>2017-10-04T10:37:50Z</time>
      </trkpt>
      <trkpt lat="43.64159" lon="3.80724">
        <ele>143</ele>
        <time>2017-10-04T10:37:51Z</time>
      </trkpt>
      <trkpt lat="43.64157" lon="3.8071">
        <ele>142</ele>
        <time>2017-10-04T10:37:52Z</time>
      </trkpt>
      <trkpt lat="43.64155" lon="3.80696">
        <ele>141.1</ele>
        <time>2017-10-04T10:37:53Z</time>
      </trkpt>
      <trkpt lat="43.64152" lon="3.80682">
        <ele>140.4</ele>
        <time>2017-10-04T10:37:54Z</time>
      </trkpt>
      <trkpt lat="43.64149" lon="3.80668">
        <ele>139.7</ele>
        <time>2017-10-04T10:37:55Z</time>
      </trkpt>
      <trkpt lat="43.64147" lon="3.80655">
        <ele>139</ele>
        <time>2017-10-04T10:37:56Z</time>
      </trkpt>
      <trkpt lat="43.64146" lon="3.80643">
        <ele>138.3</ele>
        <time>2017-10-04T10:37:57Z</time>
      </trkpt>
      <trkpt lat="43.64144" lon="3.80633">
        <ele>138</ele>
        <time>2017-10-04T10:37:58Z</time>
      </trkpt>
      <trkpt lat="43.64135" lon="3.80626">
        <ele>137.5</ele>
        <time>2017-10-04T10:38:00Z</time>
      </trkpt>
      <trkpt lat="43.64129" lon="3.80621">
        <ele>137.3</ele>
        <time>2017-10-04T10:38:03Z</time>
      </trkpt>
      <trkpt lat="43.64122" lon="3.80617">
        <ele>136.1</ele>
        <time>2017-10-04T10:38:05Z</time>
      </trkpt>
      <trkpt lat="43.64115" lon="3.80609">
        <ele>135.7</ele>
        <time>2017-10-04T10:38:08Z</time>
      </trkpt>
      <trkpt lat="43.64104" lon="3.80614">
        <ele>131.7</ele>
        <time>2017-10-04T10:38:12Z</time>
      </trkpt>
      <trkpt lat="43.64095" lon="3.8062">
        <ele>129.5</ele>
        <time>2017-10-04T10:38:14Z</time>
      </trkpt>
      <trkpt lat="43.64085" lon="3.80617">
        <ele>128.2</ele>
        <time>2017-10-04T10:38:16Z</time>
      </trkpt>
      <trkpt lat="43.64076" lon="3.80618">
        <ele>127.8</ele>
        <time>2017-10-04T10:38:19Z</time>
      </trkpt>
      <trkpt lat="43.64067" lon="3.80621">
        <ele>126.5</ele>
        <time>2017-10-04T10:38:21Z</time>
      </trkpt>
      <trkpt lat="43.64056" lon="3.80625">
        <ele>126.2</ele>
        <time>2017-10-04T10:38:24Z</time>
      </trkpt>
      <trkpt lat="43.64045" lon="3.80624">
        <ele>123</ele>
        <time>2017-10-04T10:38:26Z</time>
      </trkpt>
      <trkpt lat="43.64036" lon="3.80631">
        <ele>121.1</ele>
        <time>2017-10-04T10:38:28Z</time>
      </trkpt>
      <trkpt lat="43.64025" lon="3.80637">
        <ele>120.2</ele>
        <time>2017-10-04T10:38:30Z</time>
      </trkpt>
      <trkpt lat="43.64016" lon="3.80643">
        <ele>119.3</ele>
        <time>2017-10-04T10:38:32Z</time>
      </trkpt>
      <trkpt lat="43.64006" lon="3.80646">
        <ele>117.8</ele>
        <time>2017-10-04T10:38:34Z</time>
      </trkpt>
      <trkpt lat="43.63996" lon="3.80651">
        <ele>116.8</ele>
        <time>2017-10-04T10:38:36Z</time>
      </trkpt>
      <trkpt lat="43.63983" lon="3.80655">
        <ele>115.7</ele>
        <time>2017-10-04T10:38:38Z</time>
      </trkpt>
      <trkpt lat="43.63971" lon="3.8066">
        <ele>113.7</ele>
        <time>2017-10-04T10:38:40Z</time>
      </trkpt>
      <trkpt lat="43.63962" lon="3.80664">
        <ele>112.6</ele>
        <time>2017-10-04T10:38:42Z</time>
      </trkpt>
      <trkpt lat="43.63953" lon="3.80669">
        <ele>112.2</ele>
        <time>2017-10-04T10:38:45Z</time>
      </trkpt>
      <trkpt lat="43.63944" lon="3.80669">
        <ele>109.8</ele>
        <time>2017-10-04T10:38:47Z</time>
      </trkpt>
      <trkpt lat="43.63932" lon="3.80671">
        <ele>107.5</ele>
        <time>2017-10-04T10:38:49Z</time>
      </trkpt>
      <trkpt lat="43.63921" lon="3.80671">
        <ele>106.5</ele>
        <time>2017-10-04T10:38:51Z</time>
      </trkpt>
      <trkpt lat="43.63914" lon="3.80678">
        <ele>105.1</ele>
        <time>2017-10-04T10:38:53Z</time>
      </trkpt>
      <trkpt lat="43.63908" lon="3.80689">
        <ele>104.4</ele>
        <time>2017-10-04T10:38:55Z</time>
      </trkpt>
      <trkpt lat="43.63906" lon="3.80699">
        <ele>103.7</ele>
        <time>2017-10-04T10:38:57Z</time>
      </trkpt>
      <trkpt lat="43.63901" lon="3.8071">
        <ele>103.5</ele>
        <time>2017-10-04T10:39:00Z</time>
      </trkpt>
      <trkpt lat="43.63891" lon="3.80712">
        <ele>103.2</ele>
        <time>2017-10-04T10:39:03Z</time>
      </trkpt>
      <trkpt lat="43.63887" lon="3.80715">
        <ele>102.4</ele>
        <time>2017-10-04T10:39:10Z</time>
      </trkpt>
      <trkpt lat="43.63879" lon="3.80718">
        <ele>100.9</ele>
        <time>2017-10-04T10:39:21Z</time>
      </trkpt>
      <trkpt lat="43.63872" lon="3.80723">
        <ele>100.2</ele>
        <time>2017-10-04T10:39:32Z</time>
      </trkpt>
      <trkpt lat="43.63865" lon="3.8073">
        <ele>100</ele>
        <time>2017-10-04T10:39:37Z</time>
      </trkpt>
      <trkpt lat="43.63861" lon="3.80732">
        <ele>99.4</ele>
        <time>2017-10-04T10:39:44Z</time>
      </trkpt>
      <trkpt lat="43.63853" lon="3.80737">
        <ele>98.2</ele>
        <time>2017-10-04T10:39:50Z</time>
      </trkpt>
      <trkpt lat="43.63849" lon="3.80738">
        <ele>96.8</ele>
        <time>2017-10-04T10:39:57Z</time>
      </trkpt>
      <trkpt lat="43.63844" lon="3.80731">
        <ele>96</ele>
        <time>2017-10-04T10:40:03Z</time>
      </trkpt>
      <trkpt lat="43.63835" lon="3.80732">
        <ele>95.4</ele>
        <time>2017-10-04T10:40:06Z</time>
      </trkpt>
      <trkpt lat="43.63828" lon="3.80733">
        <ele>94.9</ele>
        <time>2017-10-04T10:40:09Z</time>
      </trkpt>
      <trkpt lat="43.63818" lon="3.80734">
        <ele>94.4</ele>
        <time>2017-10-04T10:40:12Z</time>
      </trkpt>
      <trkpt lat="43.63808" lon="3.80737">
        <ele>93.9</ele>
        <time>2017-10-04T10:40:15Z</time>
      </trkpt>
      <trkpt lat="43.63797" lon="3.80738">
        <ele>93.5</ele>
        <time>2017-10-04T10:40:18Z</time>
      </trkpt>
      <trkpt lat="43.63787" lon="3.80741">
        <ele>93.1</ele>
        <time>2017-10-04T10:40:21Z</time>
      </trkpt>
      <trkpt lat="43.63777" lon="3.80743">
        <ele>92.8</ele>
        <time>2017-10-04T10:40:24Z</time>
      </trkpt>
      <trkpt lat="43.63769" lon="3.80745">
        <ele>92.1</ele>
        <time>2017-10-04T10:40:26Z</time>
      </trkpt>
      <trkpt lat="43.63761" lon="3.80749">
        <ele>91.5</ele>
        <time>2017-10-04T10:40:28Z</time>
      </trkpt>
      <trkpt lat="43.63751" lon="3.80749">
        <ele>92</ele>
        <time>2017-10-04T10:40:30Z</time>
      </trkpt>
      <trkpt lat="43.63742" lon="3.80748">
        <ele>92.5</ele>
        <time>2017-10-04T10:40:32Z</time>
      </trkpt>
      <trkpt lat="43.63733" lon="3.80747">
        <ele>93.6</ele>
        <time>2017-10-04T10:40:34Z</time>
      </trkpt>
      <trkpt lat="43.63724" lon="3.80744">
        <ele>94.2</ele>
        <time>2017-10-04T10:40:36Z</time>
      </trkpt>
      <trkpt lat="43.63714" lon="3.80742">
        <ele>94.8</ele>
        <time>2017-10-04T10:40:39Z</time>
      </trkpt>
      <trkpt lat="43.63707" lon="3.8074">
        <ele>95</ele>
        <time>2017-10-04T10:40:41Z</time>
      </trkpt>
      <trkpt lat="43.63699" lon="3.80737">
        <ele>94.7</ele>
        <time>2017-10-04T10:40:43Z</time>
      </trkpt>
      <trkpt lat="43.63691" lon="3.80732">
        <ele>94.7</ele>
        <time>2017-10-04T10:40:45Z</time>
      </trkpt>
      <trkpt lat="43.63682" lon="3.80727">
        <ele>94.5</ele>
        <time>2017-10-04T10:40:47Z</time>
      </trkpt>
      <trkpt lat="43.63675" lon="3.80723">
        <ele>94.4</ele>
        <time>2017-10-04T10:40:49Z</time>
      </trkpt>
      <trkpt lat="43.63665" lon="3.80723">
        <ele>94.3</ele>
        <time>2017-10-04T10:40:51Z</time>
      </trkpt>
      <trkpt lat="43.63655" lon="3.80722">
        <ele>94.5</ele>
        <time>2017-10-04T10:40:53Z</time>
      </trkpt>
      <trkpt lat="43.63646" lon="3.80722">
        <ele>94.7</ele>
        <time>2017-10-04T10:40:55Z</time>
      </trkpt>
      <trkpt lat="43.63637" lon="3.80722">
        <ele>95.1</ele>
        <time>2017-10-04T10:40:57Z</time>
      </trkpt>
      <trkpt lat="43.63628" lon="3.80719">
        <ele>95.4</ele>
        <time>2017-10-04T10:40:59Z</time>
      </trkpt>
      <trkpt lat="43.6362" lon="3.80715">
        <ele>95.5</ele>
        <time>2017-10-04T10:41:01Z</time>
      </trkpt>
      <trkpt lat="43.63609" lon="3.80712">
        <ele>95.5</ele>
        <time>2017-10-04T10:41:03Z</time>
      </trkpt>
      <trkpt lat="43.63598" lon="3.80711">
        <ele>95.8</ele>
        <time>2017-10-04T10:41:05Z</time>
      </trkpt>
      <trkpt lat="43.63587" lon="3.80707">
        <ele>95.6</ele>
        <time>2017-10-04T10:41:07Z</time>
      </trkpt>
      <trkpt lat="43.63577" lon="3.80704">
        <ele>95.6</ele>
        <time>2017-10-04T10:41:09Z</time>
      </trkpt>
      <trkpt lat="43.63566" lon="3.80704">
        <ele>95.5</ele>
        <time>2017-10-04T10:41:11Z</time>
      </trkpt>
      <trkpt lat="43.63555" lon="3.80704">
        <ele>95.7</ele>
        <time>2017-10-04T10:41:13Z</time>
      </trkpt>
      <trkpt lat="43.63543" lon="3.80702">
        <ele>95.6</ele>
        <time>2017-10-04T10:41:15Z</time>
      </trkpt>
      <trkpt lat="43.63532" lon="3.80699">
        <ele>95.5</ele>
        <time>2017-10-04T10:41:17Z</time>
      </trkpt>
      <trkpt lat="43.63521" lon="3.80694">
        <ele>95.5</ele>
        <time>2017-10-04T10:41:19Z</time>
      </trkpt>
      <trkpt lat="43.63512" lon="3.80687">
        <ele>95.5</ele>
        <time>2017-10-04T10:41:21Z</time>
      </trkpt>
      <trkpt lat="43.63503" lon="3.80681">
        <ele>95.7</ele>
        <time>2017-10-04T10:41:23Z</time>
      </trkpt>
      <trkpt lat="43.63494" lon="3.80676">
        <ele>95.6</ele>
        <time>2017-10-04T10:41:25Z</time>
      </trkpt>
      <trkpt lat="43.63486" lon="3.8067">
        <ele>95.8</ele>
        <time>2017-10-04T10:41:27Z</time>
      </trkpt>
      <trkpt lat="43.63475" lon="3.80667">
        <ele>95.8</ele>
        <time>2017-10-04T10:41:30Z</time>
      </trkpt>
      <trkpt lat="43.63466" lon="3.80662">
        <ele>95.8</ele>
        <time>2017-10-04T10:41:33Z</time>
      </trkpt>
      <trkpt lat="43.63459" lon="3.80659">
        <ele>95.9</ele>
        <time>2017-10-04T10:41:37Z</time>
      </trkpt>
      <trkpt lat="43.63451" lon="3.80659">
        <ele>96</ele>
        <time>2017-10-04T10:41:40Z</time>
      </trkpt>
      <trkpt lat="43.6344" lon="3.8066">
        <ele>96</ele>
        <time>2017-10-04T10:41:43Z</time>
      </trkpt>
      <trkpt lat="43.6343" lon="3.80659">
        <ele>96.1</ele>
        <time>2017-10-04T10:41:45Z</time>
      </trkpt>
      <trkpt lat="43.63422" lon="3.80657">
        <ele>96.1</ele>
        <time>2017-10-04T10:41:47Z</time>
      </trkpt>
      <trkpt lat="43.63414" lon="3.80654">
        <ele>96.1</ele>
        <time>2017-10-04T10:41:49Z</time>
      </trkpt>
      <trkpt lat="43.63407" lon="3.80653">
        <ele>96.3</ele>
        <time>2017-10-04T10:41:51Z</time>
      </trkpt>
      <trkpt lat="43.63397" lon="3.80651">
        <ele>96.4</ele>
        <time>2017-10-04T10:41:54Z</time>
      </trkpt>
      <trkpt lat="43.63389" lon="3.8065">
        <ele>96.6</ele>
        <time>2017-10-04T10:41:57Z</time>
      </trkpt>
      <trkpt lat="43.6338" lon="3.8065">
        <ele>96.8</ele>
        <time>2017-10-04T10:42:00Z</time>
      </trkpt>
      <trkpt lat="43.63372" lon="3.8065">
        <ele>97.2</ele>
        <time>2017-10-04T10:42:04Z</time>
      </trkpt>
      <trkpt lat="43.63358" lon="3.80652">
        <ele>97.9</ele>
        <time>2017-10-04T10:42:10Z</time>
      </trkpt>
      <trkpt lat="43.63351" lon="3.80656">
        <ele>98.5</ele>
        <time>2017-10-04T10:42:14Z</time>
      </trkpt>
      <trkpt lat="43.63344" lon="3.80658">
        <ele>99</ele>
        <time>2017-10-04T10:42:17Z</time>
      </trkpt>
      <trkpt lat="43.63336" lon="3.8066">
        <ele>99.7</ele>
        <time>2017-10-04T10:42:21Z</time>
      </trkpt>
      <trkpt lat="43.63328" lon="3.80665">
        <ele>100.6</ele>
        <time>2017-10-04T10:42:25Z</time>
      </trkpt>
      <trkpt lat="43.63321" lon="3.80669">
        <ele>101.3</ele>
        <time>2017-10-04T10:42:29Z</time>
      </trkpt>
      <trkpt lat="43.63314" lon="3.80677">
        <ele>101.9</ele>
        <time>2017-10-04T10:42:31Z</time>
      </trkpt>
      <trkpt lat="43.63308" lon="3.80686">
        <ele>102.7</ele>
        <time>2017-10-04T10:42:35Z</time>
      </trkpt>
      <trkpt lat="43.63304" lon="3.80694">
        <ele>103.3</ele>
        <time>2017-10-04T10:42:38Z</time>
      </trkpt>
      <trkpt lat="43.63301" lon="3.80704">
        <ele>103.9</ele>
        <time>2017-10-04T10:42:41Z</time>
      </trkpt>
      <trkpt lat="43.633" lon="3.80715">
        <ele>105.1</ele>
        <time>2017-10-04T10:42:46Z</time>
      </trkpt>
      <trkpt lat="43.63295" lon="3.80725">
        <ele>105.6</ele>
        <time>2017-10-04T10:42:49Z</time>
      </trkpt>
      <trkpt lat="43.63286" lon="3.80731">
        <ele>106.1</ele>
        <time>2017-10-04T10:42:52Z</time>
      </trkpt>
      <trkpt lat="43.63276" lon="3.80729">
        <ele>106.6</ele>
        <time>2017-10-04T10:42:55Z</time>
      </trkpt>
      <trkpt lat="43.63271" lon="3.80717">
        <ele>107.3</ele>
        <time>2017-10-04T10:42:59Z</time>
      </trkpt>
      <trkpt lat="43.63267" lon="3.80706">
        <ele>107.7</ele>
        <time>2017-10-04T10:43:02Z</time>
      </trkpt>
      <trkpt lat="43.63269" lon="3.80694">
        <ele>108.1</ele>
        <time>2017-10-04T10:43:06Z</time>
      </trkpt>
      <trkpt lat="43.63274" lon="3.80685">
        <ele>108.5</ele>
        <time>2017-10-04T10:43:09Z</time>
      </trkpt>
      <trkpt lat="43.63276" lon="3.80673">
        <ele>108.9</ele>
        <time>2017-10-04T10:43:12Z</time>
      </trkpt>
      <trkpt lat="43.63279" lon="3.80663">
        <ele>109.3</ele>
        <time>2017-10-04T10:43:15Z</time>
      </trkpt>
      <trkpt lat="43.63283" lon="3.80653">
        <ele>109.8</ele>
        <time>2017-10-04T10:43:18Z</time>
      </trkpt>
      <trkpt lat="43.63288" lon="3.80645">
        <ele>110.6</ele>
        <time>2017-10-04T10:43:22Z</time>
      </trkpt>
      <trkpt lat="43.63293" lon="3.80637">
        <ele>111.2</ele>
        <time>2017-10-04T10:43:25Z</time>
      </trkpt>
      <trkpt lat="43.63298" lon="3.80627">
        <ele>112.2</ele>
        <time>2017-10-04T10:43:29Z</time>
      </trkpt>
      <trkpt lat="43.63303" lon="3.80618">
        <ele>113</ele>
        <time>2017-10-04T10:43:32Z</time>
      </trkpt>
      <trkpt lat="43.63308" lon="3.80608">
        <ele>113.6</ele>
        <time>2017-10-04T10:43:35Z</time>
      </trkpt>
      <trkpt lat="43.63311" lon="3.80599">
        <ele>114.4</ele>
        <time>2017-10-04T10:43:39Z</time>
      </trkpt>
      <trkpt lat="43.63315" lon="3.8059">
        <ele>115</ele>
        <time>2017-10-04T10:43:42Z</time>
      </trkpt>
      <trkpt lat="43.6332" lon="3.8058">
        <ele>115.9</ele>
        <time>2017-10-04T10:43:46Z</time>
      </trkpt>
      <trkpt lat="43.63325" lon="3.80572">
        <ele>116.8</ele>
        <time>2017-10-04T10:43:50Z</time>
      </trkpt>
      <trkpt lat="43.63331" lon="3.80565">
        <ele>117.6</ele>
        <time>2017-10-04T10:43:53Z</time>
      </trkpt>
      <trkpt lat="43.63338" lon="3.80559">
        <ele>118.8</ele>
        <time>2017-10-04T10:43:57Z</time>
      </trkpt>
      <trkpt lat="43.63346" lon="3.80554">
        <ele>120.1</ele>
        <time>2017-10-04T10:44:01Z</time>
      </trkpt>
      <trkpt lat="43.63354" lon="3.80555">
        <ele>121.3</ele>
        <time>2017-10-04T10:44:05Z</time>
      </trkpt>
      <trkpt lat="43.63365" lon="3.80554">
        <ele>122.4</ele>
        <time>2017-10-04T10:44:09Z</time>
      </trkpt>
      <trkpt lat="43.63372" lon="3.8055">
        <ele>123.2</ele>
        <time>2017-10-04T10:44:13Z</time>
      </trkpt>
      <trkpt lat="43.6338" lon="3.80541">
        <ele>124.1</ele>
        <time>2017-10-04T10:44:17Z</time>
      </trkpt>
      <trkpt lat="43.63383" lon="3.80532">
        <ele>124.6</ele>
        <time>2017-10-04T10:44:20Z</time>
      </trkpt>
      <trkpt lat="43.63387" lon="3.80521">
        <ele>125.7</ele>
        <time>2017-10-04T10:44:25Z</time>
      </trkpt>
      <trkpt lat="43.63387" lon="3.80509">
        <ele>126.5</ele>
        <time>2017-10-04T10:44:29Z</time>
      </trkpt>
      <trkpt lat="43.63391" lon="3.805">
        <ele>127.5</ele>
        <time>2017-10-04T10:44:33Z</time>
      </trkpt>
      <trkpt lat="43.63398" lon="3.80491">
        <ele>128.3</ele>
        <time>2017-10-04T10:44:37Z</time>
      </trkpt>
      <trkpt lat="43.63402" lon="3.80482">
        <ele>129</ele>
        <time>2017-10-04T10:44:40Z</time>
      </trkpt>
      <trkpt lat="43.63407" lon="3.80471">
        <ele>129.9</ele>
        <time>2017-10-04T10:44:44Z</time>
      </trkpt>
      <trkpt lat="43.63413" lon="3.80464">
        <ele>130.5</ele>
        <time>2017-10-04T10:44:47Z</time>
      </trkpt>
      <trkpt lat="43.63418" lon="3.80455">
        <ele>131.1</ele>
        <time>2017-10-04T10:44:50Z</time>
      </trkpt>
      <trkpt lat="43.63426" lon="3.80453">
        <ele>132.5</ele>
        <time>2017-10-04T10:44:56Z</time>
      </trkpt>
      <trkpt lat="43.63433" lon="3.80461">
        <ele>134.2</ele>
        <time>2017-10-04T10:45:02Z</time>
      </trkpt>
      <trkpt lat="43.6344" lon="3.80466">
        <ele>135.2</ele>
        <time>2017-10-04T10:45:05Z</time>
      </trkpt>
      <trkpt lat="43.63448" lon="3.80468">
        <ele>136.2</ele>
        <time>2017-10-04T10:45:08Z</time>
      </trkpt>
      <trkpt lat="43.63454" lon="3.80462">
        <ele>137.5</ele>
        <time>2017-10-04T10:45:12Z</time>
      </trkpt>
      <trkpt lat="43.63458" lon="3.80452">
        <ele>139</ele>
        <time>2017-10-04T10:45:17Z</time>
      </trkpt>
      <trkpt lat="43.63456" lon="3.80441">
        <ele>140.3</ele>
        <time>2017-10-04T10:45:22Z</time>
      </trkpt>
      <trkpt lat="43.63452" lon="3.8043">
        <ele>141.4</ele>
        <time>2017-10-04T10:45:27Z</time>
      </trkpt>
      <trkpt lat="43.63454" lon="3.80418">
        <ele>142.1</ele>
        <time>2017-10-04T10:45:31Z</time>
      </trkpt>
      <trkpt lat="43.63459" lon="3.80411">
        <ele>142.6</ele>
        <time>2017-10-04T10:45:34Z</time>
      </trkpt>
      <trkpt lat="43.63466" lon="3.80402">
        <ele>143</ele>
        <time>2017-10-04T10:45:37Z</time>
      </trkpt>
      <trkpt lat="43.6347" lon="3.80394">
        <ele>143.4</ele>
        <time>2017-10-04T10:45:40Z</time>
      </trkpt>
      <trkpt lat="43.63474" lon="3.80381">
        <ele>144.1</ele>
        <time>2017-10-04T10:45:44Z</time>
      </trkpt>
      <trkpt lat="43.63477" lon="3.80371">
        <ele>144.6</ele>
        <time>2017-10-04T10:45:47Z</time>
      </trkpt>
      <trkpt lat="43.6348" lon="3.8036">
        <ele>145.3</ele>
        <time>2017-10-04T10:45:51Z</time>
      </trkpt>
      <trkpt lat="43.63481" lon="3.8035">
        <ele>145.9</ele>
        <time>2017-10-04T10:45:54Z</time>
      </trkpt>
      <trkpt lat="43.63483" lon="3.80338">
        <ele>146.5</ele>
        <time>2017-10-04T10:45:57Z</time>
      </trkpt>
      <trkpt lat="43.63483" lon="3.80328">
        <ele>147</ele>
        <time>2017-10-04T10:46:00Z</time>
      </trkpt>
      <trkpt lat="43.63485" lon="3.80318">
        <ele>147.5</ele>
        <time>2017-10-04T10:46:03Z</time>
      </trkpt>
      <trkpt lat="43.63486" lon="3.80305">
        <ele>147.9</ele>
        <time>2017-10-04T10:46:06Z</time>
      </trkpt>
      <trkpt lat="43.63487" lon="3.80292">
        <ele>148.5</ele>
        <time>2017-10-04T10:46:09Z</time>
      </trkpt>
      <trkpt lat="43.63488" lon="3.80281">
        <ele>149.1</ele>
        <time>2017-10-04T10:46:12Z</time>
      </trkpt>
      <trkpt lat="43.63487" lon="3.8027">
        <ele>149.8</ele>
        <time>2017-10-04T10:46:15Z</time>
      </trkpt>
      <trkpt lat="43.63489" lon="3.80258">
        <ele>150.4</ele>
        <time>2017-10-04T10:46:18Z</time>
      </trkpt>
      <trkpt lat="43.6349" lon="3.80249">
        <ele>151</ele>
        <time>2017-10-04T10:46:21Z</time>
      </trkpt>
      <trkpt lat="43.63493" lon="3.80237">
        <ele>151.6</ele>
        <time>2017-10-04T10:46:24Z</time>
      </trkpt>
      <trkpt lat="43.63498" lon="3.80224">
        <ele>152.1</ele>
        <time>2017-10-04T10:46:27Z</time>
      </trkpt>
      <trkpt lat="43.63504" lon="3.80213">
        <ele>152.6</ele>
        <time>2017-10-04T10:46:30Z</time>
      </trkpt>
      <trkpt lat="43.63509" lon="3.80205">
        <ele>153</ele>
        <time>2017-10-04T10:46:32Z</time>
      </trkpt>
      <trkpt lat="43.63516" lon="3.80195">
        <ele>153.4</ele>
        <time>2017-10-04T10:46:35Z</time>
      </trkpt>
      <trkpt lat="43.63521" lon="3.80187">
        <ele>155</ele>
        <time>2017-10-04T10:46:37Z</time>
      </trkpt>
      <trkpt lat="43.63527" lon="3.80176">
        <ele>156.9</ele>
        <time>2017-10-04T10:46:39Z</time>
      </trkpt>
      <trkpt lat="43.63532" lon="3.80166">
        <ele>157.6</ele>
        <time>2017-10-04T10:46:41Z</time>
      </trkpt>
      <trkpt lat="43.63537" lon="3.80155">
        <ele>158.1</ele>
        <time>2017-10-04T10:46:43Z</time>
      </trkpt>
      <trkpt lat="43.63541" lon="3.8014">
        <ele>157.6</ele>
        <time>2017-10-04T10:46:45Z</time>
      </trkpt>
      <trkpt lat="43.63542" lon="3.80129">
        <ele>157.3</ele>
        <time>2017-10-04T10:46:46Z</time>
      </trkpt>
      <trkpt lat="43.63544" lon="3.80119">
        <ele>157.2</ele>
        <time>2017-10-04T10:46:47Z</time>
      </trkpt>
      <trkpt lat="43.63545" lon="3.80109">
        <ele>157.2</ele>
        <time>2017-10-04T10:46:48Z</time>
      </trkpt>
      <trkpt lat="43.63547" lon="3.80098">
        <ele>157.2</ele>
        <time>2017-10-04T10:46:49Z</time>
      </trkpt>
      <trkpt lat="43.63549" lon="3.80088">
        <ele>157.5</ele>
        <time>2017-10-04T10:46:50Z</time>
      </trkpt>
      <trkpt lat="43.63558" lon="3.80075">
        <ele>157.9</ele>
        <time>2017-10-04T10:46:52Z</time>
      </trkpt>
      <trkpt lat="43.63564" lon="3.80069">
        <ele>157.9</ele>
        <time>2017-10-04T10:46:53Z</time>
      </trkpt>
      <trkpt lat="43.63571" lon="3.80055">
        <ele>157.8</ele>
        <time>2017-10-04T10:46:55Z</time>
      </trkpt>
      <trkpt lat="43.63577" lon="3.80041">
        <ele>157.3</ele>
        <time>2017-10-04T10:46:57Z</time>
      </trkpt>
      <trkpt lat="43.63581" lon="3.80031">
        <ele>157.5</ele>
        <time>2017-10-04T10:46:59Z</time>
      </trkpt>
      <trkpt lat="43.63586" lon="3.80019">
        <ele>157.4</ele>
        <time>2017-10-04T10:47:01Z</time>
      </trkpt>
      <trkpt lat="43.6359" lon="3.80008">
        <ele>157.4</ele>
        <time>2017-10-04T10:47:03Z</time>
      </trkpt>
      <trkpt lat="43.63595" lon="3.79997">
        <ele>157.3</ele>
        <time>2017-10-04T10:47:05Z</time>
      </trkpt>
      <trkpt lat="43.63601" lon="3.79987">
        <ele>157.3</ele>
        <time>2017-10-04T10:47:07Z</time>
      </trkpt>
      <trkpt lat="43.63606" lon="3.79979">
        <ele>157.5</ele>
        <time>2017-10-04T10:47:09Z</time>
      </trkpt>
      <trkpt lat="43.63613" lon="3.79972">
        <ele>157.8</ele>
        <time>2017-10-04T10:47:11Z</time>
      </trkpt>
      <trkpt lat="43.63617" lon="3.79961">
        <ele>158.5</ele>
        <time>2017-10-04T10:47:13Z</time>
      </trkpt>
      <trkpt lat="43.63622" lon="3.7995">
        <ele>159.8</ele>
        <time>2017-10-04T10:47:15Z</time>
      </trkpt>
      <trkpt lat="43.63628" lon="3.79944">
        <ele>159.9</ele>
        <time>2017-10-04T10:47:17Z</time>
      </trkpt>
      <trkpt lat="43.63636" lon="3.79934">
        <ele>160.2</ele>
        <time>2017-10-04T10:47:20Z</time>
      </trkpt>
      <trkpt lat="43.63641" lon="3.79925">
        <ele>160.2</ele>
        <time>2017-10-04T10:47:22Z</time>
      </trkpt>
      <trkpt lat="43.63647" lon="3.79916">
        <ele>160</ele>
        <time>2017-10-04T10:47:24Z</time>
      </trkpt>
      <trkpt lat="43.63652" lon="3.79907">
        <ele>160.1</ele>
        <time>2017-10-04T10:47:26Z</time>
      </trkpt>
      <trkpt lat="43.63657" lon="3.79898">
        <ele>159.9</ele>
        <time>2017-10-04T10:47:28Z</time>
      </trkpt>
      <trkpt lat="43.63663" lon="3.7989">
        <ele>159.9</ele>
        <time>2017-10-04T10:47:30Z</time>
      </trkpt>
      <trkpt lat="43.63668" lon="3.7988">
        <ele>159.9</ele>
        <time>2017-10-04T10:47:33Z</time>
      </trkpt>
      <trkpt lat="43.63676" lon="3.79869">
        <ele>159.9</ele>
        <time>2017-10-04T10:47:36Z</time>
      </trkpt>
      <trkpt lat="43.6368" lon="3.79856">
        <ele>159.9</ele>
        <time>2017-10-04T10:47:39Z</time>
      </trkpt>
      <trkpt lat="43.63685" lon="3.79848">
        <ele>160</ele>
        <time>2017-10-04T10:47:41Z</time>
      </trkpt>
      <trkpt lat="43.6369" lon="3.79839">
        <ele>160</ele>
        <time>2017-10-04T10:47:43Z</time>
      </trkpt>
      <trkpt lat="43.63695" lon="3.79833">
        <ele>160.1</ele>
        <time>2017-10-04T10:47:45Z</time>
      </trkpt>
      <trkpt lat="43.63701" lon="3.79825">
        <ele>160.2</ele>
        <time>2017-10-04T10:47:47Z</time>
      </trkpt>
      <trkpt lat="43.63707" lon="3.79818">
        <ele>160.3</ele>
        <time>2017-10-04T10:47:49Z</time>
      </trkpt>
      <trkpt lat="43.63709" lon="3.79808">
        <ele>160.3</ele>
        <time>2017-10-04T10:47:51Z</time>
      </trkpt>
      <trkpt lat="43.63713" lon="3.79799">
        <ele>160.7</ele>
        <time>2017-10-04T10:47:53Z</time>
      </trkpt>
      <trkpt lat="43.63717" lon="3.79791">
        <ele>160.8</ele>
        <time>2017-10-04T10:47:55Z</time>
      </trkpt>
      <trkpt lat="43.63724" lon="3.79778">
        <ele>161</ele>
        <time>2017-10-04T10:47:58Z</time>
      </trkpt>
      <trkpt lat="43.63729" lon="3.7977">
        <ele>161</ele>
        <time>2017-10-04T10:48:00Z</time>
      </trkpt>
      <trkpt lat="43.63735" lon="3.7976">
        <ele>161.2</ele>
        <time>2017-10-04T10:48:03Z</time>
      </trkpt>
      <trkpt lat="43.63743" lon="3.79751">
        <ele>161.3</ele>
        <time>2017-10-04T10:48:06Z</time>
      </trkpt>
      <trkpt lat="43.63751" lon="3.79744">
        <ele>161.5</ele>
        <time>2017-10-04T10:48:09Z</time>
      </trkpt>
      <trkpt lat="43.63762" lon="3.79741">
        <ele>162.2</ele>
        <time>2017-10-04T10:48:12Z</time>
      </trkpt>
      <trkpt lat="43.6377" lon="3.79734">
        <ele>162.6</ele>
        <time>2017-10-04T10:48:14Z</time>
      </trkpt>
      <trkpt lat="43.63776" lon="3.79729">
        <ele>162.6</ele>
        <time>2017-10-04T10:48:16Z</time>
      </trkpt>
      <trkpt lat="43.63784" lon="3.79724">
        <ele>162.7</ele>
        <time>2017-10-04T10:48:18Z</time>
      </trkpt>
      <trkpt lat="43.63792" lon="3.79719">
        <ele>163.2</ele>
        <time>2017-10-04T10:48:20Z</time>
      </trkpt>
      <trkpt lat="43.63801" lon="3.79712">
        <ele>163.2</ele>
        <time>2017-10-04T10:48:22Z</time>
      </trkpt>
      <trkpt lat="43.63807" lon="3.79702">
        <ele>163.2</ele>
        <time>2017-10-04T10:48:24Z</time>
      </trkpt>
      <trkpt lat="43.63814" lon="3.79697">
        <ele>163.1</ele>
        <time>2017-10-04T10:48:26Z</time>
      </trkpt>
      <trkpt lat="43.63821" lon="3.79689">
        <ele>162.8</ele>
        <time>2017-10-04T10:48:28Z</time>
      </trkpt>
      <trkpt lat="43.63832" lon="3.79681">
        <ele>162.3</ele>
        <time>2017-10-04T10:48:30Z</time>
      </trkpt>
      <trkpt lat="43.63842" lon="3.79674">
        <ele>161.8</ele>
        <time>2017-10-04T10:48:32Z</time>
      </trkpt>
      <trkpt lat="43.63851" lon="3.7967">
        <ele>161.7</ele>
        <time>2017-10-04T10:48:35Z</time>
      </trkpt>
      <trkpt lat="43.6386" lon="3.79668">
        <ele>161.6</ele>
        <time>2017-10-04T10:48:38Z</time>
      </trkpt>
      <trkpt lat="43.63869" lon="3.79662">
        <ele>161.6</ele>
        <time>2017-10-04T10:48:42Z</time>
      </trkpt>
      <trkpt lat="43.6388" lon="3.7966">
        <ele>162.3</ele>
        <time>2017-10-04T10:48:45Z</time>
      </trkpt>
      <trkpt lat="43.63888" lon="3.79655">
        <ele>163</ele>
        <time>2017-10-04T10:48:47Z</time>
      </trkpt>
      <trkpt lat="43.63894" lon="3.79643">
        <ele>164.3</ele>
        <time>2017-10-04T10:48:49Z</time>
      </trkpt>
      <trkpt lat="43.63903" lon="3.79633">
        <ele>165.1</ele>
        <time>2017-10-04T10:48:51Z</time>
      </trkpt>
      <trkpt lat="43.6391" lon="3.79622">
        <ele>165.3</ele>
        <time>2017-10-04T10:48:53Z</time>
      </trkpt>
      <trkpt lat="43.63915" lon="3.79608">
        <ele>165.4</ele>
        <time>2017-10-04T10:48:55Z</time>
      </trkpt>
      <trkpt lat="43.63919" lon="3.79595">
        <ele>166</ele>
        <time>2017-10-04T10:48:57Z</time>
      </trkpt>
      <trkpt lat="43.63923" lon="3.79585">
        <ele>166</ele>
        <time>2017-10-04T10:48:59Z</time>
      </trkpt>
      <trkpt lat="43.63929" lon="3.79576">
        <ele>166</ele>
        <time>2017-10-04T10:49:01Z</time>
      </trkpt>
      <trkpt lat="43.63931" lon="3.79567">
        <ele>166.4</ele>
        <time>2017-10-04T10:49:03Z</time>
      </trkpt>
      <trkpt lat="43.63936" lon="3.79558">
        <ele>166.8</ele>
        <time>2017-10-04T10:49:05Z</time>
      </trkpt>
      <trkpt lat="43.63941" lon="3.79547">
        <ele>166.8</ele>
        <time>2017-10-04T10:49:07Z</time>
      </trkpt>
      <trkpt lat="43.63944" lon="3.79535">
        <ele>166.9</ele>
        <time>2017-10-04T10:49:10Z</time>
      </trkpt>
      <trkpt lat="43.63945" lon="3.79524">
        <ele>166.7</ele>
        <time>2017-10-04T10:49:12Z</time>
      </trkpt>
      <trkpt lat="43.63946" lon="3.79512">
        <ele>166.4</ele>
        <time>2017-10-04T10:49:14Z</time>
      </trkpt>
      <trkpt lat="43.63948" lon="3.79502">
        <ele>166.3</ele>
        <time>2017-10-04T10:49:16Z</time>
      </trkpt>
      <trkpt lat="43.63951" lon="3.79492">
        <ele>165.4</ele>
        <time>2017-10-04T10:49:18Z</time>
      </trkpt>
      <trkpt lat="43.63955" lon="3.79482">
        <ele>165.3</ele>
        <time>2017-10-04T10:49:20Z</time>
      </trkpt>
      <trkpt lat="43.6396" lon="3.79471">
        <ele>165.3</ele>
        <time>2017-10-04T10:49:22Z</time>
      </trkpt>
      <trkpt lat="43.63964" lon="3.79462">
        <ele>165.4</ele>
        <time>2017-10-04T10:49:25Z</time>
      </trkpt>
      <trkpt lat="43.63965" lon="3.79448">
        <ele>165</ele>
        <time>2017-10-04T10:49:28Z</time>
      </trkpt>
      <trkpt lat="43.6397" lon="3.79438">
        <ele>164.8</ele>
        <time>2017-10-04T10:49:30Z</time>
      </trkpt>
      <trkpt lat="43.63974" lon="3.79428">
        <ele>165.2</ele>
        <time>2017-10-04T10:49:32Z</time>
      </trkpt>
      <trkpt lat="43.63979" lon="3.79416">
        <ele>165.6</ele>
        <time>2017-10-04T10:49:34Z</time>
      </trkpt>
      <trkpt lat="43.63985" lon="3.79404">
        <ele>164.9</ele>
        <time>2017-10-04T10:49:36Z</time>
      </trkpt>
      <trkpt lat="43.63992" lon="3.7939">
        <ele>164.2</ele>
        <time>2017-10-04T10:49:38Z</time>
      </trkpt>
      <trkpt lat="43.64" lon="3.79377">
        <ele>164.3</ele>
        <time>2017-10-04T10:49:40Z</time>
      </trkpt>
      <trkpt lat="43.64007" lon="3.79367">
        <ele>164.3</ele>
        <time>2017-10-04T10:49:42Z</time>
      </trkpt>
      <trkpt lat="43.64012" lon="3.79353">
        <ele>164.4</ele>
        <time>2017-10-04T10:49:44Z</time>
      </trkpt>
      <trkpt lat="43.64019" lon="3.7934">
        <ele>165</ele>
        <time>2017-10-04T10:49:46Z</time>
      </trkpt>
      <trkpt lat="43.64025" lon="3.79328">
        <ele>165.5</ele>
        <time>2017-10-04T10:49:48Z</time>
      </trkpt>
      <trkpt lat="43.64031" lon="3.79317">
        <ele>165.8</ele>
        <time>2017-10-04T10:49:50Z</time>
      </trkpt>
      <trkpt lat="43.64037" lon="3.79306">
        <ele>166.3</ele>
        <time>2017-10-04T10:49:52Z</time>
      </trkpt>
      <trkpt lat="43.6404" lon="3.79294">
        <ele>167.2</ele>
        <time>2017-10-04T10:49:54Z</time>
      </trkpt>
      <trkpt lat="43.64045" lon="3.79281">
        <ele>168.1</ele>
        <time>2017-10-04T10:49:56Z</time>
      </trkpt>
      <trkpt lat="43.64049" lon="3.7927">
        <ele>168.6</ele>
        <time>2017-10-04T10:49:58Z</time>
      </trkpt>
      <trkpt lat="43.64054" lon="3.79259">
        <ele>169</ele>
        <time>2017-10-04T10:50:00Z</time>
      </trkpt>
      <trkpt lat="43.64058" lon="3.79248">
        <ele>170.1</ele>
        <time>2017-10-04T10:50:02Z</time>
      </trkpt>
      <trkpt lat="43.64067" lon="3.79237">
        <ele>170.2</ele>
        <time>2017-10-04T10:50:04Z</time>
      </trkpt>
      <trkpt lat="43.64076" lon="3.79227">
        <ele>171.1</ele>
        <time>2017-10-04T10:50:06Z</time>
      </trkpt>
      <trkpt lat="43.64085" lon="3.79215">
        <ele>171.5</ele>
        <time>2017-10-04T10:50:08Z</time>
      </trkpt>
      <trkpt lat="43.64095" lon="3.79207">
        <ele>171.5</ele>
        <time>2017-10-04T10:50:10Z</time>
      </trkpt>
      <trkpt lat="43.64103" lon="3.792">
        <ele>171.1</ele>
        <time>2017-10-04T10:50:12Z</time>
      </trkpt>
      <trkpt lat="43.64112" lon="3.79191">
        <ele>171.3</ele>
        <time>2017-10-04T10:50:14Z</time>
      </trkpt>
      <trkpt lat="43.64121" lon="3.79182">
        <ele>171.5</ele>
        <time>2017-10-04T10:50:16Z</time>
      </trkpt>
      <trkpt lat="43.64129" lon="3.79173">
        <ele>171.1</ele>
        <time>2017-10-04T10:50:18Z</time>
      </trkpt>
      <trkpt lat="43.64138" lon="3.79165">
        <ele>170.4</ele>
        <time>2017-10-04T10:50:20Z</time>
      </trkpt>
      <trkpt lat="43.64148" lon="3.79159">
        <ele>169.7</ele>
        <time>2017-10-04T10:50:22Z</time>
      </trkpt>
      <trkpt lat="43.64156" lon="3.7915">
        <ele>169.6</ele>
        <time>2017-10-04T10:50:24Z</time>
      </trkpt>
      <trkpt lat="43.64164" lon="3.79142">
        <ele>169.5</ele>
        <time>2017-10-04T10:50:26Z</time>
      </trkpt>
      <trkpt lat="43.64171" lon="3.79135">
        <ele>169.5</ele>
        <time>2017-10-04T10:50:28Z</time>
      </trkpt>
      <trkpt lat="43.64178" lon="3.79127">
        <ele>169.9</ele>
        <time>2017-10-04T10:50:30Z</time>
      </trkpt>
      <trkpt lat="43.64183" lon="3.79117">
        <ele>170.1</ele>
        <time>2017-10-04T10:50:32Z</time>
      </trkpt>
      <trkpt lat="43.64188" lon="3.79109">
        <ele>170.6</ele>
        <time>2017-10-04T10:50:34Z</time>
      </trkpt>
      <trkpt lat="43.64193" lon="3.79101">
        <ele>171.1</ele>
        <time>2017-10-04T10:50:36Z</time>
      </trkpt>
      <trkpt lat="43.64198" lon="3.79092">
        <ele>171.1</ele>
        <time>2017-10-04T10:50:38Z</time>
      </trkpt>
      <trkpt lat="43.64201" lon="3.79082">
        <ele>171.1</ele>
        <time>2017-10-04T10:50:40Z</time>
      </trkpt>
      <trkpt lat="43.64204" lon="3.79072">
        <ele>171.2</ele>
        <time>2017-10-04T10:50:42Z</time>
      </trkpt>
      <trkpt lat="43.64208" lon="3.7906">
        <ele>171.2</ele>
        <time>2017-10-04T10:50:44Z</time>
      </trkpt>
      <trkpt lat="43.64213" lon="3.79051">
        <ele>171.5</ele>
        <time>2017-10-04T10:50:46Z</time>
      </trkpt>
      <trkpt lat="43.6422" lon="3.79044">
        <ele>172.1</ele>
        <time>2017-10-04T10:50:48Z</time>
      </trkpt>
      <trkpt lat="43.64227" lon="3.79038">
        <ele>172.5</ele>
        <time>2017-10-04T10:50:50Z</time>
      </trkpt>
      <trkpt lat="43.64234" lon="3.79033">
        <ele>172.6</ele>
        <time>2017-10-04T10:50:52Z</time>
      </trkpt>
      <trkpt lat="43.64241" lon="3.79026">
        <ele>172.7</ele>
        <time>2017-10-04T10:50:55Z</time>
      </trkpt>
      <trkpt lat="43.64248" lon="3.79021">
        <ele>172.7</ele>
        <time>2017-10-04T10:50:59Z</time>
      </trkpt>
      <trkpt lat="43.64257" lon="3.79021">
        <ele>172.6</ele>
        <time>2017-10-04T10:51:02Z</time>
      </trkpt>
      <trkpt lat="43.64263" lon="3.79027">
        <ele>172.4</ele>
        <time>2017-10-04T10:51:04Z</time>
      </trkpt>
      <trkpt lat="43.64268" lon="3.79037">
        <ele>172.3</ele>
        <time>2017-10-04T10:51:06Z</time>
      </trkpt>
      <trkpt lat="43.64271" lon="3.7905">
        <ele>171.3</ele>
        <time>2017-10-04T10:51:08Z</time>
      </trkpt>
      <trkpt lat="43.64277" lon="3.79061">
        <ele>170.8</ele>
        <time>2017-10-04T10:51:10Z</time>
      </trkpt>
      <trkpt lat="43.64282" lon="3.79075">
        <ele>170.4</ele>
        <time>2017-10-04T10:51:12Z</time>
      </trkpt>
      <trkpt lat="43.64286" lon="3.7909">
        <ele>170.2</ele>
        <time>2017-10-04T10:51:14Z</time>
      </trkpt>
      <trkpt lat="43.64288" lon="3.79104">
        <ele>169.7</ele>
        <time>2017-10-04T10:51:16Z</time>
      </trkpt>
      <trkpt lat="43.64289" lon="3.79119">
        <ele>169.3</ele>
        <time>2017-10-04T10:51:18Z</time>
      </trkpt>
      <trkpt lat="43.6429" lon="3.79134">
        <ele>168.4</ele>
        <time>2017-10-04T10:51:20Z</time>
      </trkpt>
      <trkpt lat="43.64288" lon="3.79151">
        <ele>168.1</ele>
        <time>2017-10-04T10:51:22Z</time>
      </trkpt>
      <trkpt lat="43.64285" lon="3.79167">
        <ele>168.1</ele>
        <time>2017-10-04T10:51:24Z</time>
      </trkpt>
      <trkpt lat="43.64285" lon="3.79181">
        <ele>167.6</ele>
        <time>2017-10-04T10:51:26Z</time>
      </trkpt>
      <trkpt lat="43.64284" lon="3.79195">
        <ele>167.4</ele>
        <time>2017-10-04T10:51:28Z</time>
      </trkpt>
      <trkpt lat="43.64284" lon="3.79206">
        <ele>167.3</ele>
        <time>2017-10-04T10:51:30Z</time>
      </trkpt>
      <trkpt lat="43.64287" lon="3.79217">
        <ele>167.2</ele>
        <time>2017-10-04T10:51:34Z</time>
      </trkpt>
      <trkpt lat="43.64291" lon="3.7923">
        <ele>166</ele>
        <time>2017-10-04T10:51:37Z</time>
      </trkpt>
      <trkpt lat="43.64293" lon="3.79241">
        <ele>165.9</ele>
        <time>2017-10-04T10:51:39Z</time>
      </trkpt>
      <trkpt lat="43.64294" lon="3.79255">
        <ele>165.8</ele>
        <time>2017-10-04T10:51:42Z</time>
      </trkpt>
      <trkpt lat="43.64296" lon="3.79267">
        <ele>165.7</ele>
        <time>2017-10-04T10:51:44Z</time>
      </trkpt>
      <trkpt lat="43.64295" lon="3.7928">
        <ele>165.5</ele>
        <time>2017-10-04T10:51:47Z</time>
      </trkpt>
      <trkpt lat="43.64302" lon="3.79284">
        <ele>165</ele>
        <time>2017-10-04T10:51:50Z</time>
      </trkpt>
      <trkpt lat="43.64311" lon="3.79282">
        <ele>164.2</ele>
        <time>2017-10-04T10:51:52Z</time>
      </trkpt>
      <trkpt lat="43.64324" lon="3.79287">
        <ele>163.2</ele>
        <time>2017-10-04T10:51:54Z</time>
      </trkpt>
      <trkpt lat="43.64334" lon="3.79293">
        <ele>162.6</ele>
        <time>2017-10-04T10:51:56Z</time>
      </trkpt>
      <trkpt lat="43.64338" lon="3.79306">
        <ele>162.5</ele>
        <time>2017-10-04T10:51:58Z</time>
      </trkpt>
      <trkpt lat="43.64341" lon="3.79322">
        <ele>162.4</ele>
        <time>2017-10-04T10:52:00Z</time>
      </trkpt>
      <trkpt lat="43.64343" lon="3.79334">
        <ele>162.2</ele>
        <time>2017-10-04T10:52:02Z</time>
      </trkpt>
      <trkpt lat="43.64345" lon="3.79343">
        <ele>161.8</ele>
        <time>2017-10-04T10:52:04Z</time>
      </trkpt>
      <trkpt lat="43.6435" lon="3.79354">
        <ele>158.2</ele>
        <time>2017-10-04T10:52:06Z</time>
      </trkpt>
      <trkpt lat="43.64356" lon="3.79369">
        <ele>157</ele>
        <time>2017-10-04T10:52:10Z</time>
      </trkpt>
      <trkpt lat="43.64365" lon="3.79373">
        <ele>156.5</ele>
        <time>2017-10-04T10:52:12Z</time>
      </trkpt>
      <trkpt lat="43.64372" lon="3.79381">
        <ele>154.6</ele>
        <time>2017-10-04T10:52:14Z</time>
      </trkpt>
      <trkpt lat="43.64379" lon="3.79388">
        <ele>154.2</ele>
        <time>2017-10-04T10:52:16Z</time>
      </trkpt>
      <trkpt lat="43.64389" lon="3.7939">
        <ele>151.5</ele>
        <time>2017-10-04T10:52:18Z</time>
      </trkpt>
      <trkpt lat="43.64396" lon="3.79392">
        <ele>148.4</ele>
        <time>2017-10-04T10:52:20Z</time>
      </trkpt>
      <trkpt lat="43.64403" lon="3.79395">
        <ele>147.7</ele>
        <time>2017-10-04T10:52:23Z</time>
      </trkpt>
      <trkpt lat="43.64404" lon="3.79406">
        <ele>146.5</ele>
        <time>2017-10-04T10:52:29Z</time>
      </trkpt>
      <trkpt lat="43.64398" lon="3.79415">
        <ele>145.9</ele>
        <time>2017-10-04T10:52:31Z</time>
      </trkpt>
      <trkpt lat="43.64393" lon="3.79424">
        <ele>145.4</ele>
        <time>2017-10-04T10:52:33Z</time>
      </trkpt>
      <trkpt lat="43.64398" lon="3.79432">
        <ele>144.5</ele>
        <time>2017-10-04T10:52:37Z</time>
      </trkpt>
      <trkpt lat="43.64405" lon="3.79435">
        <ele>143.1</ele>
        <time>2017-10-04T10:52:43Z</time>
      </trkpt>
      <trkpt lat="43.64414" lon="3.79431">
        <ele>142</ele>
        <time>2017-10-04T10:52:47Z</time>
      </trkpt>
      <trkpt lat="43.64422" lon="3.79433">
        <ele>140.7</ele>
        <time>2017-10-04T10:52:51Z</time>
      </trkpt>
      <trkpt lat="43.6443" lon="3.7943">
        <ele>139.2</ele>
        <time>2017-10-04T10:52:55Z</time>
      </trkpt>
      <trkpt lat="43.64442" lon="3.79428">
        <ele>134.6</ele>
        <time>2017-10-04T10:53:00Z</time>
      </trkpt>
      <trkpt lat="43.64449" lon="3.79431">
        <ele>134.1</ele>
        <time>2017-10-04T10:53:02Z</time>
      </trkpt>
      <trkpt lat="43.64457" lon="3.7943">
        <ele>129.9</ele>
        <time>2017-10-04T10:53:04Z</time>
      </trkpt>
      <trkpt lat="43.64468" lon="3.79424">
        <ele>127.4</ele>
        <time>2017-10-04T10:53:06Z</time>
      </trkpt>
      <trkpt lat="43.64477" lon="3.79426">
        <ele>125.3</ele>
        <time>2017-10-04T10:53:08Z</time>
      </trkpt>
      <trkpt lat="43.64485" lon="3.79421">
        <ele>123.9</ele>
        <time>2017-10-04T10:53:10Z</time>
      </trkpt>
      <trkpt lat="43.64495" lon="3.79419">
        <ele>123.5</ele>
        <time>2017-10-04T10:53:13Z</time>
      </trkpt>
      <trkpt lat="43.64503" lon="3.79418">
        <ele>122.3</ele>
        <time>2017-10-04T10:53:15Z</time>
      </trkpt>
      <trkpt lat="43.64516" lon="3.79419">
        <ele>122.2</ele>
        <time>2017-10-04T10:53:17Z</time>
      </trkpt>
      <trkpt lat="43.64526" lon="3.79421">
        <ele>121.1</ele>
        <time>2017-10-04T10:53:19Z</time>
      </trkpt>
      <trkpt lat="43.64536" lon="3.7942">
        <ele>120</ele>
        <time>2017-10-04T10:53:21Z</time>
      </trkpt>
      <trkpt lat="43.64549" lon="3.79421">
        <ele>117.8</ele>
        <time>2017-10-04T10:53:23Z</time>
      </trkpt>
      <trkpt lat="43.64557" lon="3.79423">
        <ele>117.6</ele>
        <time>2017-10-04T10:53:25Z</time>
      </trkpt>
      <trkpt lat="43.64564" lon="3.79429">
        <ele>116.9</ele>
        <time>2017-10-04T10:53:27Z</time>
      </trkpt>
      <trkpt lat="43.64571" lon="3.7943">
        <ele>116.5</ele>
        <time>2017-10-04T10:53:34Z</time>
      </trkpt>
      <trkpt lat="43.64579" lon="3.7943">
        <ele>116.3</ele>
        <time>2017-10-04T10:53:38Z</time>
      </trkpt>
      <trkpt lat="43.64587" lon="3.79425">
        <ele>116.1</ele>
        <time>2017-10-04T10:53:42Z</time>
      </trkpt>
      <trkpt lat="43.64593" lon="3.79417">
        <ele>115.2</ele>
        <time>2017-10-04T10:53:44Z</time>
      </trkpt>
      <trkpt lat="43.64601" lon="3.79407">
        <ele>114.5</ele>
        <time>2017-10-04T10:53:47Z</time>
      </trkpt>
      <trkpt lat="43.64607" lon="3.794">
        <ele>113.8</ele>
        <time>2017-10-04T10:53:49Z</time>
      </trkpt>
      <trkpt lat="43.64611" lon="3.79391">
        <ele>113.7</ele>
        <time>2017-10-04T10:53:52Z</time>
      </trkpt>
      <trkpt lat="43.64619" lon="3.79379">
        <ele>112.6</ele>
        <time>2017-10-04T10:53:55Z</time>
      </trkpt>
      <trkpt lat="43.64625" lon="3.7937">
        <ele>111.9</ele>
        <time>2017-10-04T10:53:57Z</time>
      </trkpt>
      <trkpt lat="43.64627" lon="3.79358">
        <ele>110.3</ele>
        <time>2017-10-04T10:54:00Z</time>
      </trkpt>
      <trkpt lat="43.64633" lon="3.79349">
        <ele>109.2</ele>
        <time>2017-10-04T10:54:02Z</time>
      </trkpt>
      <trkpt lat="43.64636" lon="3.7934">
        <ele>108.4</ele>
        <time>2017-10-04T10:54:04Z</time>
      </trkpt>
      <trkpt lat="43.64639" lon="3.79328">
        <ele>108.4</ele>
        <time>2017-10-04T10:54:07Z</time>
      </trkpt>
      <trkpt lat="43.64645" lon="3.79315">
        <ele>108.4</ele>
        <time>2017-10-04T10:54:10Z</time>
      </trkpt>
      <trkpt lat="43.64649" lon="3.79303">
        <ele>108.4</ele>
        <time>2017-10-04T10:54:14Z</time>
      </trkpt>
      <trkpt lat="43.64655" lon="3.79293">
        <ele>108.4</ele>
        <time>2017-10-04T10:54:16Z</time>
      </trkpt>
      <trkpt lat="43.64662" lon="3.79283">
        <ele>108.3</ele>
        <time>2017-10-04T10:54:18Z</time>
      </trkpt>
      <trkpt lat="43.64669" lon="3.79273">
        <ele>108.2</ele>
        <time>2017-10-04T10:54:20Z</time>
      </trkpt>
      <trkpt lat="43.64677" lon="3.79264">
        <ele>107.8</ele>
        <time>2017-10-04T10:54:23Z</time>
      </trkpt>
      <trkpt lat="43.64682" lon="3.79253">
        <ele>107.1</ele>
        <time>2017-10-04T10:54:26Z</time>
      </trkpt>
      <trkpt lat="43.64688" lon="3.79246">
        <ele>106.4</ele>
        <time>2017-10-04T10:54:28Z</time>
      </trkpt>
      <trkpt lat="43.64695" lon="3.79237">
        <ele>106</ele>
        <time>2017-10-04T10:54:30Z</time>
      </trkpt>
      <trkpt lat="43.647" lon="3.79229">
        <ele>106</ele>
        <time>2017-10-04T10:54:33Z</time>
      </trkpt>
      <trkpt lat="43.64703" lon="3.7922">
        <ele>106.2</ele>
        <time>2017-10-04T10:54:35Z</time>
      </trkpt>
      <trkpt lat="43.647" lon="3.7921">
        <ele>107</ele>
        <time>2017-10-04T10:54:49Z</time>
      </trkpt>
      <trkpt lat="43.647" lon="3.79221">
        <ele>108.2</ele>
        <time>2017-10-04T10:54:54Z</time>
      </trkpt>
      <trkpt lat="43.64701" lon="3.79238">
        <ele>108.1</ele>
        <time>2017-10-04T10:54:56Z</time>
      </trkpt>
      <trkpt lat="43.64706" lon="3.79247">
        <ele>107.6</ele>
        <time>2017-10-04T10:54:58Z</time>
      </trkpt>
      <trkpt lat="43.6471" lon="3.79251">
        <ele>107.6</ele>
        <time>2017-10-04T10:55:05Z</time>
      </trkpt>
      <trkpt lat="43.64711" lon="3.79242">
        <ele>108</ele>
        <time>2017-10-04T10:55:12Z</time>
      </trkpt>
      <trkpt lat="43.64714" lon="3.7923">
        <ele>107.9</ele>
        <time>2017-10-04T10:55:17Z</time>
      </trkpt>
      <trkpt lat="43.64716" lon="3.7922">
        <ele>107.8</ele>
        <time>2017-10-04T10:55:20Z</time>
      </trkpt>
      <trkpt lat="43.64716" lon="3.79209">
        <ele>108.2</ele>
        <time>2017-10-04T10:55:24Z</time>
      </trkpt>
      <trkpt lat="43.64717" lon="3.79195">
        <ele>108.4</ele>
        <time>2017-10-04T10:55:29Z</time>
      </trkpt>
      <trkpt lat="43.64723" lon="3.79187">
        <ele>108.6</ele>
        <time>2017-10-04T10:55:33Z</time>
      </trkpt>
      <trkpt lat="43.64729" lon="3.79176">
        <ele>108.8</ele>
        <time>2017-10-04T10:55:37Z</time>
      </trkpt>
      <trkpt lat="43.64736" lon="3.79168">
        <ele>109</ele>
        <time>2017-10-04T10:55:40Z</time>
      </trkpt>
      <trkpt lat="43.64744" lon="3.79159">
        <ele>109.5</ele>
        <time>2017-10-04T10:55:43Z</time>
      </trkpt>
      <trkpt lat="43.64749" lon="3.7915">
        <ele>109.8</ele>
        <time>2017-10-04T10:55:46Z</time>
      </trkpt>
      <trkpt lat="43.64754" lon="3.79143">
        <ele>110</ele>
        <time>2017-10-04T10:55:48Z</time>
      </trkpt>
      <trkpt lat="43.6476" lon="3.79135">
        <ele>110.9</ele>
        <time>2017-10-04T10:55:54Z</time>
      </trkpt>
      <trkpt lat="43.64768" lon="3.79127">
        <ele>111.9</ele>
        <time>2017-10-04T10:55:58Z</time>
      </trkpt>
      <trkpt lat="43.6478" lon="3.79124">
        <ele>111.2</ele>
        <time>2017-10-04T10:56:02Z</time>
      </trkpt>
      <trkpt lat="43.6479" lon="3.79123">
        <ele>110.2</ele>
        <time>2017-10-04T10:56:04Z</time>
      </trkpt>
      <trkpt lat="43.64799" lon="3.79114">
        <ele>110</ele>
        <time>2017-10-04T10:56:06Z</time>
      </trkpt>
      <trkpt lat="43.64806" lon="3.79107">
        <ele>109.7</ele>
        <time>2017-10-04T10:56:08Z</time>
      </trkpt>
      <trkpt lat="43.64814" lon="3.791">
        <ele>109.9</ele>
        <time>2017-10-04T10:56:10Z</time>
      </trkpt>
      <trkpt lat="43.6482" lon="3.79093">
        <ele>109.9</ele>
        <time>2017-10-04T10:56:12Z</time>
      </trkpt>
      <trkpt lat="43.64826" lon="3.79086">
        <ele>110</ele>
        <time>2017-10-04T10:56:14Z</time>
      </trkpt>
      <trkpt lat="43.64832" lon="3.79079">
        <ele>110</ele>
        <time>2017-10-04T10:56:16Z</time>
      </trkpt>
      <trkpt lat="43.64841" lon="3.79074">
        <ele>110.4</ele>
        <time>2017-10-04T10:56:18Z</time>
      </trkpt>
      <trkpt lat="43.6485" lon="3.79067">
        <ele>110.3</ele>
        <time>2017-10-04T10:56:20Z</time>
      </trkpt>
      <trkpt lat="43.6486" lon="3.79058">
        <ele>110.2</ele>
        <time>2017-10-04T10:56:22Z</time>
      </trkpt>
      <trkpt lat="43.64871" lon="3.79048">
        <ele>109.2</ele>
        <time>2017-10-04T10:56:24Z</time>
      </trkpt>
      <trkpt lat="43.64881" lon="3.79044">
        <ele>108.1</ele>
        <time>2017-10-04T10:56:26Z</time>
      </trkpt>
      <trkpt lat="43.64889" lon="3.79036">
        <ele>108</ele>
        <time>2017-10-04T10:56:28Z</time>
      </trkpt>
      <trkpt lat="43.64897" lon="3.79032">
        <ele>107.9</ele>
        <time>2017-10-04T10:56:30Z</time>
      </trkpt>
      <trkpt lat="43.64904" lon="3.79023">
        <ele>108</ele>
        <time>2017-10-04T10:56:33Z</time>
      </trkpt>
      <trkpt lat="43.64914" lon="3.79019">
        <ele>109.7</ele>
        <time>2017-10-04T10:56:35Z</time>
      </trkpt>
      <trkpt lat="43.64922" lon="3.79016">
        <ele>109.8</ele>
        <time>2017-10-04T10:56:37Z</time>
      </trkpt>
      <trkpt lat="43.64931" lon="3.79007">
        <ele>109</ele>
        <time>2017-10-04T10:56:39Z</time>
      </trkpt>
      <trkpt lat="43.64941" lon="3.78999">
        <ele>107.6</ele>
        <time>2017-10-04T10:56:41Z</time>
      </trkpt>
      <trkpt lat="43.64949" lon="3.78993">
        <ele>107.2</ele>
        <time>2017-10-04T10:56:43Z</time>
      </trkpt>
      <trkpt lat="43.6496" lon="3.78984">
        <ele>106</ele>
        <time>2017-10-04T10:56:45Z</time>
      </trkpt>
      <trkpt lat="43.64969" lon="3.7898">
        <ele>105.4</ele>
        <time>2017-10-04T10:56:47Z</time>
      </trkpt>
      <trkpt lat="43.64976" lon="3.78975">
        <ele>105.4</ele>
        <time>2017-10-04T10:56:49Z</time>
      </trkpt>
      <trkpt lat="43.64986" lon="3.78967">
        <ele>106.3</ele>
        <time>2017-10-04T10:56:52Z</time>
      </trkpt>
      <trkpt lat="43.64994" lon="3.7896">
        <ele>106.4</ele>
        <time>2017-10-04T10:56:54Z</time>
      </trkpt>
      <trkpt lat="43.65" lon="3.78954">
        <ele>106.5</ele>
        <time>2017-10-04T10:56:56Z</time>
      </trkpt>
      <trkpt lat="43.65007" lon="3.78949">
        <ele>106.6</ele>
        <time>2017-10-04T10:56:58Z</time>
      </trkpt>
      <trkpt lat="43.65013" lon="3.78945">
        <ele>106.7</ele>
        <time>2017-10-04T10:57:00Z</time>
      </trkpt>
      <trkpt lat="43.65019" lon="3.78939">
        <ele>106.9</ele>
        <time>2017-10-04T10:57:02Z</time>
      </trkpt>
      <trkpt lat="43.65028" lon="3.7893">
        <ele>107.1</ele>
        <time>2017-10-04T10:57:05Z</time>
      </trkpt>
      <trkpt lat="43.65032" lon="3.78921">
        <ele>107.6</ele>
        <time>2017-10-04T10:57:08Z</time>
      </trkpt>
      <trkpt lat="43.65037" lon="3.7891">
        <ele>108</ele>
        <time>2017-10-04T10:57:11Z</time>
      </trkpt>
      <trkpt lat="43.65043" lon="3.789">
        <ele>108.5</ele>
        <time>2017-10-04T10:57:14Z</time>
      </trkpt>
      <trkpt lat="43.65049" lon="3.78893">
        <ele>108.8</ele>
        <time>2017-10-04T10:57:16Z</time>
      </trkpt>
      <trkpt lat="43.65055" lon="3.78886">
        <ele>109</ele>
        <time>2017-10-04T10:57:18Z</time>
      </trkpt>
      <trkpt lat="43.65061" lon="3.78892">
        <ele>109.6</ele>
        <time>2017-10-04T10:57:25Z</time>
      </trkpt>
      <trkpt lat="43.65068" lon="3.78907">
        <ele>109.7</ele>
        <time>2017-10-04T10:57:29Z</time>
      </trkpt>
      <trkpt lat="43.65072" lon="3.7892">
        <ele>110.1</ele>
        <time>2017-10-04T10:57:31Z</time>
      </trkpt>
      <trkpt lat="43.65076" lon="3.78934">
        <ele>110.5</ele>
        <time>2017-10-04T10:57:34Z</time>
      </trkpt>
      <trkpt lat="43.6508" lon="3.78947">
        <ele>110.9</ele>
        <time>2017-10-04T10:57:37Z</time>
      </trkpt>
      <trkpt lat="43.65084" lon="3.78959">
        <ele>111.5</ele>
        <time>2017-10-04T10:57:43Z</time>
      </trkpt>
      <trkpt lat="43.65088" lon="3.78971">
        <ele>112.3</ele>
        <time>2017-10-04T10:57:48Z</time>
      </trkpt>
      <trkpt lat="43.65093" lon="3.78982">
        <ele>113.6</ele>
        <time>2017-10-04T10:57:50Z</time>
      </trkpt>
      <trkpt lat="43.65096" lon="3.78993">
        <ele>113.8</ele>
        <time>2017-10-04T10:57:52Z</time>
      </trkpt>
      <trkpt lat="43.65096" lon="3.79007">
        <ele>115</ele>
        <time>2017-10-04T10:57:54Z</time>
      </trkpt>
      <trkpt lat="43.65095" lon="3.79022">
        <ele>115.1</ele>
        <time>2017-10-04T10:57:56Z</time>
      </trkpt>
      <trkpt lat="43.65092" lon="3.79032">
        <ele>115</ele>
        <time>2017-10-04T10:57:58Z</time>
      </trkpt>
      <trkpt lat="43.65088" lon="3.79043">
        <ele>115</ele>
        <time>2017-10-04T10:58:00Z</time>
      </trkpt>
      <trkpt lat="43.65084" lon="3.79051">
        <ele>114.8</ele>
        <time>2017-10-04T10:58:02Z</time>
      </trkpt>
      <trkpt lat="43.65077" lon="3.79059">
        <ele>112.9</ele>
        <time>2017-10-04T10:58:04Z</time>
      </trkpt>
      <trkpt lat="43.65072" lon="3.7907">
        <ele>112.5</ele>
        <time>2017-10-04T10:58:07Z</time>
      </trkpt>
      <trkpt lat="43.65072" lon="3.7908">
        <ele>112.2</ele>
        <time>2017-10-04T10:58:10Z</time>
      </trkpt>
      <trkpt lat="43.65082" lon="3.7908">
        <ele>111.9</ele>
        <time>2017-10-04T10:58:16Z</time>
      </trkpt>
      <trkpt lat="43.6509" lon="3.79074">
        <ele>111.9</ele>
        <time>2017-10-04T10:58:19Z</time>
      </trkpt>
      <trkpt lat="43.65099" lon="3.79066">
        <ele>111.9</ele>
        <time>2017-10-04T10:58:22Z</time>
      </trkpt>
      <trkpt lat="43.65109" lon="3.79059">
        <ele>111.8</ele>
        <time>2017-10-04T10:58:25Z</time>
      </trkpt>
      <trkpt lat="43.65119" lon="3.79054">
        <ele>110.9</ele>
        <time>2017-10-04T10:58:28Z</time>
      </trkpt>
      <trkpt lat="43.6513" lon="3.7905">
        <ele>110.8</ele>
        <time>2017-10-04T10:58:30Z</time>
      </trkpt>
      <trkpt lat="43.65137" lon="3.79047">
        <ele>109.5</ele>
        <time>2017-10-04T10:58:32Z</time>
      </trkpt>
      <trkpt lat="43.65146" lon="3.79045">
        <ele>108.5</ele>
        <time>2017-10-04T10:58:34Z</time>
      </trkpt>
      <trkpt lat="43.65154" lon="3.79043">
        <ele>106.5</ele>
        <time>2017-10-04T10:58:36Z</time>
      </trkpt>
      <trkpt lat="43.65163" lon="3.79044">
        <ele>105.2</ele>
        <time>2017-10-04T10:58:38Z</time>
      </trkpt>
      <trkpt lat="43.65174" lon="3.79045">
        <ele>104.1</ele>
        <time>2017-10-04T10:58:40Z</time>
      </trkpt>
      <trkpt lat="43.65184" lon="3.79045">
        <ele>103.7</ele>
        <time>2017-10-04T10:58:42Z</time>
      </trkpt>
      <trkpt lat="43.65194" lon="3.79045">
        <ele>103.9</ele>
        <time>2017-10-04T10:58:44Z</time>
      </trkpt>
      <trkpt lat="43.65202" lon="3.79047">
        <ele>104.3</ele>
        <time>2017-10-04T10:58:46Z</time>
      </trkpt>
      <trkpt lat="43.65208" lon="3.79057">
        <ele>104.9</ele>
        <time>2017-10-04T10:58:48Z</time>
      </trkpt>
      <trkpt lat="43.65215" lon="3.79065">
        <ele>105.1</ele>
        <time>2017-10-04T10:58:50Z</time>
      </trkpt>
      <trkpt lat="43.65223" lon="3.79068">
        <ele>105.2</ele>
        <time>2017-10-04T10:58:54Z</time>
      </trkpt>
      <trkpt lat="43.65231" lon="3.79071">
        <ele>105.5</ele>
        <time>2017-10-04T10:58:58Z</time>
      </trkpt>
      <trkpt lat="43.65241" lon="3.79076">
        <ele>105.6</ele>
        <time>2017-10-04T10:59:01Z</time>
      </trkpt>
      <trkpt lat="43.65248" lon="3.79082">
        <ele>105.7</ele>
        <time>2017-10-04T10:59:04Z</time>
      </trkpt>
      <trkpt lat="43.65254" lon="3.79088">
        <ele>106</ele>
        <time>2017-10-04T10:59:08Z</time>
      </trkpt>
      <trkpt lat="43.6526" lon="3.79095">
        <ele>106.4</ele>
        <time>2017-10-04T10:59:12Z</time>
      </trkpt>
      <trkpt lat="43.65268" lon="3.79103">
        <ele>106.9</ele>
        <time>2017-10-04T10:59:18Z</time>
      </trkpt>
      <trkpt lat="43.65275" lon="3.79104">
        <ele>107</ele>
        <time>2017-10-04T10:59:20Z</time>
      </trkpt>
      <trkpt lat="43.65284" lon="3.79106">
        <ele>107.5</ele>
        <time>2017-10-04T10:59:22Z</time>
      </trkpt>
      <trkpt lat="43.65293" lon="3.79105">
        <ele>107.4</ele>
        <time>2017-10-04T10:59:24Z</time>
      </trkpt>
      <trkpt lat="43.65303" lon="3.79105">
        <ele>107.4</ele>
        <time>2017-10-04T10:59:27Z</time>
      </trkpt>
      <trkpt lat="43.65311" lon="3.79107">
        <ele>107.5</ele>
        <time>2017-10-04T10:59:31Z</time>
      </trkpt>
      <trkpt lat="43.6532" lon="3.79112">
        <ele>107.6</ele>
        <time>2017-10-04T10:59:35Z</time>
      </trkpt>
      <trkpt lat="43.65327" lon="3.79118">
        <ele>107.9</ele>
        <time>2017-10-04T10:59:40Z</time>
      </trkpt>
      <trkpt lat="43.65334" lon="3.79122">
        <ele>108.4</ele>
        <time>2017-10-04T10:59:45Z</time>
      </trkpt>
      <trkpt lat="43.65342" lon="3.79125">
        <ele>109.4</ele>
        <time>2017-10-04T10:59:52Z</time>
      </trkpt>
      <trkpt lat="43.6535" lon="3.79127">
        <ele>110</ele>
        <time>2017-10-04T10:59:55Z</time>
      </trkpt>
      <trkpt lat="43.65357" lon="3.79126">
        <ele>110.5</ele>
        <time>2017-10-04T10:59:58Z</time>
      </trkpt>
      <trkpt lat="43.65367" lon="3.79126">
        <ele>111.2</ele>
        <time>2017-10-04T11:00:01Z</time>
      </trkpt>
      <trkpt lat="43.65376" lon="3.79126">
        <ele>111.9</ele>
        <time>2017-10-04T11:00:04Z</time>
      </trkpt>
      <trkpt lat="43.65384" lon="3.79127">
        <ele>113.9</ele>
        <time>2017-10-04T11:00:06Z</time>
      </trkpt>
      <trkpt lat="43.65394" lon="3.79128">
        <ele>117.6</ele>
        <time>2017-10-04T11:00:08Z</time>
      </trkpt>
      <trkpt lat="43.65406" lon="3.79129">
        <ele>120</ele>
        <time>2017-10-04T11:00:10Z</time>
      </trkpt>
      <trkpt lat="43.65413" lon="3.7913">
        <ele>120.2</ele>
        <time>2017-10-04T11:00:12Z</time>
      </trkpt>
      <trkpt lat="43.65421" lon="3.79131">
        <ele>121.5</ele>
        <time>2017-10-04T11:00:14Z</time>
      </trkpt>
      <trkpt lat="43.65431" lon="3.79132">
        <ele>122.4</ele>
        <time>2017-10-04T11:00:16Z</time>
      </trkpt>
      <trkpt lat="43.65441" lon="3.79133">
        <ele>122.6</ele>
        <time>2017-10-04T11:00:18Z</time>
      </trkpt>
      <trkpt lat="43.65452" lon="3.79137">
        <ele>122.6</ele>
        <time>2017-10-04T11:00:21Z</time>
      </trkpt>
      <trkpt lat="43.6546" lon="3.79136">
        <ele>122.6</ele>
        <time>2017-10-04T11:00:24Z</time>
      </trkpt>
      <trkpt lat="43.65468" lon="3.79135">
        <ele>122.4</ele>
        <time>2017-10-04T11:00:26Z</time>
      </trkpt>
      <trkpt lat="43.65479" lon="3.79137">
        <ele>122.2</ele>
        <time>2017-10-04T11:00:29Z</time>
      </trkpt>
      <trkpt lat="43.65489" lon="3.7914">
        <ele>121.4</ele>
        <time>2017-10-04T11:00:31Z</time>
      </trkpt>
      <trkpt lat="43.65497" lon="3.79142">
        <ele>121.3</ele>
        <time>2017-10-04T11:00:33Z</time>
      </trkpt>
      <trkpt lat="43.65512" lon="3.79146">
        <ele>121.1</ele>
        <time>2017-10-04T11:00:35Z</time>
      </trkpt>
      <trkpt lat="43.65524" lon="3.79146">
        <ele>121.1</ele>
        <time>2017-10-04T11:00:37Z</time>
      </trkpt>
      <trkpt lat="43.65535" lon="3.79146">
        <ele>121.3</ele>
        <time>2017-10-04T11:00:39Z</time>
      </trkpt>
      <trkpt lat="43.65543" lon="3.79148">
        <ele>121.4</ele>
        <time>2017-10-04T11:00:41Z</time>
      </trkpt>
      <trkpt lat="43.65553" lon="3.7915">
        <ele>122.1</ele>
        <time>2017-10-04T11:00:43Z</time>
      </trkpt>
      <trkpt lat="43.65559" lon="3.79158">
        <ele>122.3</ele>
        <time>2017-10-04T11:00:45Z</time>
      </trkpt>
      <trkpt lat="43.65564" lon="3.79167">
        <ele>122.5</ele>
        <time>2017-10-04T11:00:48Z</time>
      </trkpt>
      <trkpt lat="43.65572" lon="3.79176">
        <ele>123.1</ele>
        <time>2017-10-04T11:00:52Z</time>
      </trkpt>
      <trkpt lat="43.65578" lon="3.79183">
        <ele>123.3</ele>
        <time>2017-10-04T11:00:54Z</time>
      </trkpt>
      <trkpt lat="43.65584" lon="3.79191">
        <ele>123.5</ele>
        <time>2017-10-04T11:00:58Z</time>
      </trkpt>
      <trkpt lat="43.6559" lon="3.79198">
        <ele>123.8</ele>
        <time>2017-10-04T11:01:01Z</time>
      </trkpt>
      <trkpt lat="43.65596" lon="3.79204">
        <ele>124</ele>
        <time>2017-10-04T11:01:03Z</time>
      </trkpt>
      <trkpt lat="43.65603" lon="3.79211">
        <ele>124.4</ele>
        <time>2017-10-04T11:01:06Z</time>
      </trkpt>
      <trkpt lat="43.65608" lon="3.79217">
        <ele>125.3</ele>
        <time>2017-10-04T11:01:12Z</time>
      </trkpt>
      <trkpt lat="43.65616" lon="3.7922">
        <ele>126</ele>
        <time>2017-10-04T11:01:17Z</time>
      </trkpt>
      <trkpt lat="43.65623" lon="3.79226">
        <ele>126.5</ele>
        <time>2017-10-04T11:01:21Z</time>
      </trkpt>
      <trkpt lat="43.65631" lon="3.79231">
        <ele>127.1</ele>
        <time>2017-10-04T11:01:26Z</time>
      </trkpt>
      <trkpt lat="43.65639" lon="3.79241">
        <ele>127.7</ele>
        <time>2017-10-04T11:01:31Z</time>
      </trkpt>
      <trkpt lat="43.65643" lon="3.7925">
        <ele>127.9</ele>
        <time>2017-10-04T11:01:34Z</time>
      </trkpt>
      <trkpt lat="43.65647" lon="3.79261">
        <ele>128.5</ele>
        <time>2017-10-04T11:01:38Z</time>
      </trkpt>
      <trkpt lat="43.65651" lon="3.79271">
        <ele>129.4</ele>
        <time>2017-10-04T11:01:44Z</time>
      </trkpt>
      <trkpt lat="43.65657" lon="3.79276">
        <ele>130</ele>
        <time>2017-10-04T11:01:49Z</time>
      </trkpt>
      <trkpt lat="43.65665" lon="3.7928">
        <ele>130.4</ele>
        <time>2017-10-04T11:01:52Z</time>
      </trkpt>
      <trkpt lat="43.65673" lon="3.79283">
        <ele>130.9</ele>
        <time>2017-10-04T11:01:56Z</time>
      </trkpt>
      <trkpt lat="43.65682" lon="3.79287">
        <ele>131.3</ele>
        <time>2017-10-04T11:01:59Z</time>
      </trkpt>
      <trkpt lat="43.65689" lon="3.79293">
        <ele>132.1</ele>
        <time>2017-10-04T11:02:04Z</time>
      </trkpt>
      <trkpt lat="43.65698" lon="3.79296">
        <ele>132.6</ele>
        <time>2017-10-04T11:02:07Z</time>
      </trkpt>
      <trkpt lat="43.65708" lon="3.79302">
        <ele>133.3</ele>
        <time>2017-10-04T11:02:11Z</time>
      </trkpt>
      <trkpt lat="43.65716" lon="3.79303">
        <ele>136.6</ele>
        <time>2017-10-04T11:02:13Z</time>
      </trkpt>
      <trkpt lat="43.65726" lon="3.79307">
        <ele>137.9</ele>
        <time>2017-10-04T11:02:15Z</time>
      </trkpt>
      <trkpt lat="43.65734" lon="3.79319">
        <ele>137.9</ele>
        <time>2017-10-04T11:02:17Z</time>
      </trkpt>
      <trkpt lat="43.65741" lon="3.79326">
        <ele>137.8</ele>
        <time>2017-10-04T11:02:19Z</time>
      </trkpt>
      <trkpt lat="43.65747" lon="3.79334">
        <ele>137</ele>
        <time>2017-10-04T11:02:21Z</time>
      </trkpt>
      <trkpt lat="43.65759" lon="3.79344">
        <ele>135.9</ele>
        <time>2017-10-04T11:02:23Z</time>
      </trkpt>
      <trkpt lat="43.65766" lon="3.79352">
        <ele>135.7</ele>
        <time>2017-10-04T11:02:25Z</time>
      </trkpt>
      <trkpt lat="43.65773" lon="3.7936">
        <ele>134.5</ele>
        <time>2017-10-04T11:02:27Z</time>
      </trkpt>
      <trkpt lat="43.65778" lon="3.79369">
        <ele>134.4</ele>
        <time>2017-10-04T11:02:30Z</time>
      </trkpt>
      <trkpt lat="43.65786" lon="3.79378">
        <ele>134.5</ele>
        <time>2017-10-04T11:02:31Z</time>
      </trkpt>
      <trkpt lat="43.65793" lon="3.79386">
        <ele>134.6</ele>
        <time>2017-10-04T11:02:33Z</time>
      </trkpt>
      <trkpt lat="43.658" lon="3.79396">
        <ele>134.7</ele>
        <time>2017-10-04T11:02:35Z</time>
      </trkpt>
      <trkpt lat="43.65807" lon="3.79406">
        <ele>134.7</ele>
        <time>2017-10-04T11:02:38Z</time>
      </trkpt>
      <trkpt lat="43.65813" lon="3.79412">
        <ele>134.8</ele>
        <time>2017-10-04T11:02:41Z</time>
      </trkpt>
      <trkpt lat="43.65818" lon="3.79421">
        <ele>134.8</ele>
        <time>2017-10-04T11:02:44Z</time>
      </trkpt>
      <trkpt lat="43.65826" lon="3.79423">
        <ele>134.5</ele>
        <time>2017-10-04T11:02:48Z</time>
      </trkpt>
      <trkpt lat="43.65834" lon="3.79418">
        <ele>133.7</ele>
        <time>2017-10-04T11:02:50Z</time>
      </trkpt>
      <trkpt lat="43.65838" lon="3.79405">
        <ele>133.9</ele>
        <time>2017-10-04T11:02:52Z</time>
      </trkpt>
      <trkpt lat="43.65841" lon="3.79394">
        <ele>134.3</ele>
        <time>2017-10-04T11:02:54Z</time>
      </trkpt>
      <trkpt lat="43.65844" lon="3.79385">
        <ele>134.3</ele>
        <time>2017-10-04T11:02:57Z</time>
      </trkpt>
      <trkpt lat="43.65849" lon="3.79377">
        <ele>134.4</ele>
        <time>2017-10-04T11:02:59Z</time>
      </trkpt>
      <trkpt lat="43.65858" lon="3.79366">
        <ele>135.3</ele>
        <time>2017-10-04T11:03:01Z</time>
      </trkpt>
      <trkpt lat="43.65863" lon="3.79359">
        <ele>136.2</ele>
        <time>2017-10-04T11:03:02Z</time>
      </trkpt>
      <trkpt lat="43.65872" lon="3.79354">
        <ele>137.2</ele>
        <time>2017-10-04T11:03:05Z</time>
      </trkpt>
      <trkpt lat="43.6588" lon="3.79344">
        <ele>137.5</ele>
        <time>2017-10-04T11:03:08Z</time>
      </trkpt>
      <trkpt lat="43.65889" lon="3.79334">
        <ele>137.9</ele>
        <time>2017-10-04T11:03:11Z</time>
      </trkpt>
      <trkpt lat="43.65897" lon="3.79328">
        <ele>139.4</ele>
        <time>2017-10-04T11:03:13Z</time>
      </trkpt>
      <trkpt lat="43.65906" lon="3.79318">
        <ele>140.7</ele>
        <time>2017-10-04T11:03:15Z</time>
      </trkpt>
      <trkpt lat="43.65912" lon="3.79312">
        <ele>141</ele>
        <time>2017-10-04T11:03:17Z</time>
      </trkpt>
      <trkpt lat="43.65919" lon="3.79307">
        <ele>141.4</ele>
        <time>2017-10-04T11:03:19Z</time>
      </trkpt>
      <trkpt lat="43.6593" lon="3.79301">
        <ele>141.9</ele>
        <time>2017-10-04T11:03:22Z</time>
      </trkpt>
      <trkpt lat="43.6594" lon="3.79297">
        <ele>142.3</ele>
        <time>2017-10-04T11:03:24Z</time>
      </trkpt>
      <trkpt lat="43.65948" lon="3.79296">
        <ele>142.7</ele>
        <time>2017-10-04T11:03:26Z</time>
      </trkpt>
      <trkpt lat="43.65956" lon="3.79297">
        <ele>143.1</ele>
        <time>2017-10-04T11:03:28Z</time>
      </trkpt>
      <trkpt lat="43.65963" lon="3.79304">
        <ele>143.6</ele>
        <time>2017-10-04T11:03:30Z</time>
      </trkpt>
      <trkpt lat="43.65974" lon="3.79309">
        <ele>144.3</ele>
        <time>2017-10-04T11:03:33Z</time>
      </trkpt>
      <trkpt lat="43.65984" lon="3.79312">
        <ele>144.8</ele>
        <time>2017-10-04T11:03:35Z</time>
      </trkpt>
      <trkpt lat="43.65996" lon="3.79314">
        <ele>149.8</ele>
        <time>2017-10-04T11:03:37Z</time>
      </trkpt>
      <trkpt lat="43.66008" lon="3.79317">
        <ele>153.1</ele>
        <time>2017-10-04T11:03:39Z</time>
      </trkpt>
      <trkpt lat="43.66016" lon="3.79324">
        <ele>154.2</ele>
        <time>2017-10-04T11:03:41Z</time>
      </trkpt>
      <trkpt lat="43.66023" lon="3.79339">
        <ele>154.3</ele>
        <time>2017-10-04T11:03:43Z</time>
      </trkpt>
      <trkpt lat="43.66029" lon="3.79354">
        <ele>152.9</ele>
        <time>2017-10-04T11:03:44Z</time>
      </trkpt>
      <trkpt lat="43.66034" lon="3.79365">
        <ele>151.1</ele>
        <time>2017-10-04T11:03:45Z</time>
      </trkpt>
      <trkpt lat="43.66038" lon="3.79378">
        <ele>150.8</ele>
        <time>2017-10-04T11:03:47Z</time>
      </trkpt>
      <trkpt lat="43.66041" lon="3.79391">
        <ele>150.5</ele>
        <time>2017-10-04T11:03:49Z</time>
      </trkpt>
      <trkpt lat="43.66041" lon="3.79401">
        <ele>150.2</ele>
        <time>2017-10-04T11:03:51Z</time>
      </trkpt>
      <trkpt lat="43.66042" lon="3.79413">
        <ele>149.6</ele>
        <time>2017-10-04T11:03:54Z</time>
      </trkpt>
      <trkpt lat="43.66043" lon="3.79426">
        <ele>149.2</ele>
        <time>2017-10-04T11:03:57Z</time>
      </trkpt>
      <trkpt lat="43.66043" lon="3.79437">
        <ele>148.8</ele>
        <time>2017-10-04T11:03:59Z</time>
      </trkpt>
      <trkpt lat="43.66043" lon="3.79449">
        <ele>148.3</ele>
        <time>2017-10-04T11:04:02Z</time>
      </trkpt>
      <trkpt lat="43.66041" lon="3.79463">
        <ele>147.4</ele>
        <time>2017-10-04T11:04:05Z</time>
      </trkpt>
      <trkpt lat="43.66035" lon="3.79474">
        <ele>145.9</ele>
        <time>2017-10-04T11:04:10Z</time>
      </trkpt>
      <trkpt lat="43.66025" lon="3.79478">
        <ele>145</ele>
        <time>2017-10-04T11:04:13Z</time>
      </trkpt>
      <trkpt lat="43.66016" lon="3.79483">
        <ele>144.4</ele>
        <time>2017-10-04T11:04:16Z</time>
      </trkpt>
      <trkpt lat="43.66008" lon="3.79486">
        <ele>144</ele>
        <time>2017-10-04T11:04:19Z</time>
      </trkpt>
      <trkpt lat="43.65999" lon="3.79489">
        <ele>143.6</ele>
        <time>2017-10-04T11:04:24Z</time>
      </trkpt>
      <trkpt lat="43.65992" lon="3.7949">
        <ele>143.1</ele>
        <time>2017-10-04T11:04:29Z</time>
      </trkpt>
      <trkpt lat="43.65983" lon="3.79488">
        <ele>142.5</ele>
        <time>2017-10-04T11:04:34Z</time>
      </trkpt>
      <trkpt lat="43.65976" lon="3.79487">
        <ele>141.9</ele>
        <time>2017-10-04T11:04:38Z</time>
      </trkpt>
      <trkpt lat="43.65968" lon="3.79486">
        <ele>141.1</ele>
        <time>2017-10-04T11:04:44Z</time>
      </trkpt>
      <trkpt lat="43.6596" lon="3.79489">
        <ele>140.1</ele>
        <time>2017-10-04T11:04:51Z</time>
      </trkpt>
      <trkpt lat="43.65956" lon="3.79497">
        <ele>139.6</ele>
        <time>2017-10-04T11:04:58Z</time>
      </trkpt>
      <trkpt lat="43.65952" lon="3.79505">
        <ele>139.4</ele>
        <time>2017-10-04T11:05:05Z</time>
      </trkpt>
      <trkpt lat="43.6595" lon="3.79514">
        <ele>139.4</ele>
        <time>2017-10-04T11:05:11Z</time>
      </trkpt>
      <trkpt lat="43.65948" lon="3.79527">
        <ele>139.5</ele>
        <time>2017-10-04T11:05:17Z</time>
      </trkpt>
      <trkpt lat="43.65947" lon="3.79536">
        <ele>139.5</ele>
        <time>2017-10-04T11:05:21Z</time>
      </trkpt>
      <trkpt lat="43.65945" lon="3.79546">
        <ele>139.4</ele>
        <time>2017-10-04T11:05:25Z</time>
      </trkpt>
      <trkpt lat="43.65943" lon="3.79556">
        <ele>139.4</ele>
        <time>2017-10-04T11:05:30Z</time>
      </trkpt>
      <trkpt lat="43.65941" lon="3.79567">
        <ele>139.4</ele>
        <time>2017-10-04T11:05:36Z</time>
      </trkpt>
      <trkpt lat="43.65939" lon="3.79576">
        <ele>139.5</ele>
        <time>2017-10-04T11:05:42Z</time>
      </trkpt>
      <trkpt lat="43.65937" lon="3.79587">
        <ele>139.8</ele>
        <time>2017-10-04T11:05:48Z</time>
      </trkpt>
      <trkpt lat="43.65934" lon="3.79596">
        <ele>140.5</ele>
        <time>2017-10-04T11:05:54Z</time>
      </trkpt>
      <trkpt lat="43.65932" lon="3.79607">
        <ele>141.1</ele>
        <time>2017-10-04T11:05:59Z</time>
      </trkpt>
      <trkpt lat="43.65928" lon="3.79616">
        <ele>141.6</ele>
        <time>2017-10-04T11:06:05Z</time>
      </trkpt>
      <trkpt lat="43.65926" lon="3.79627">
        <ele>142.6</ele>
        <time>2017-10-04T11:06:11Z</time>
      </trkpt>
      <trkpt lat="43.65923" lon="3.79637">
        <ele>144</ele>
        <time>2017-10-04T11:06:18Z</time>
      </trkpt>
      <trkpt lat="43.65921" lon="3.79645">
        <ele>145.7</ele>
        <time>2017-10-04T11:06:25Z</time>
      </trkpt>
      <trkpt lat="43.65917" lon="3.79655">
        <ele>147.1</ele>
        <time>2017-10-04T11:06:30Z</time>
      </trkpt>
      <trkpt lat="43.65914" lon="3.79665">
        <ele>148.4</ele>
        <time>2017-10-04T11:06:35Z</time>
      </trkpt>
      <trkpt lat="43.65911" lon="3.79676">
        <ele>149.9</ele>
        <time>2017-10-04T11:06:41Z</time>
      </trkpt>
      <trkpt lat="43.65909" lon="3.79684">
        <ele>151.8</ele>
        <time>2017-10-04T11:06:48Z</time>
      </trkpt>
      <trkpt lat="43.65905" lon="3.79693">
        <ele>153.5</ele>
        <time>2017-10-04T11:06:54Z</time>
      </trkpt>
      <trkpt lat="43.65898" lon="3.79699">
        <ele>154.7</ele>
        <time>2017-10-04T11:06:59Z</time>
      </trkpt>
      <trkpt lat="43.65892" lon="3.79707">
        <ele>155.9</ele>
        <time>2017-10-04T11:07:03Z</time>
      </trkpt>
      <trkpt lat="43.65886" lon="3.79713">
        <ele>157.4</ele>
        <time>2017-10-04T11:07:08Z</time>
      </trkpt>
      <trkpt lat="43.65879" lon="3.7972">
        <ele>159.1</ele>
        <time>2017-10-04T11:07:14Z</time>
      </trkpt>
      <trkpt lat="43.65872" lon="3.79725">
        <ele>160.2</ele>
        <time>2017-10-04T11:07:18Z</time>
      </trkpt>
      <trkpt lat="43.65866" lon="3.7973">
        <ele>161.6</ele>
        <time>2017-10-04T11:07:23Z</time>
      </trkpt>
      <trkpt lat="43.65859" lon="3.79736">
        <ele>162.9</ele>
        <time>2017-10-04T11:07:28Z</time>
      </trkpt>
      <trkpt lat="43.65851" lon="3.79745">
        <ele>164.4</ele>
        <time>2017-10-04T11:07:34Z</time>
      </trkpt>
      <trkpt lat="43.65846" lon="3.79752">
        <ele>166</ele>
        <time>2017-10-04T11:07:41Z</time>
      </trkpt>
      <trkpt lat="43.65839" lon="3.79758">
        <ele>166.9</ele>
        <time>2017-10-04T11:07:47Z</time>
      </trkpt>
      <trkpt lat="43.65832" lon="3.79766">
        <ele>167.6</ele>
        <time>2017-10-04T11:07:51Z</time>
      </trkpt>
      <trkpt lat="43.65825" lon="3.79771">
        <ele>168.4</ele>
        <time>2017-10-04T11:07:55Z</time>
      </trkpt>
      <trkpt lat="43.65818" lon="3.79776">
        <ele>169.1</ele>
        <time>2017-10-04T11:07:59Z</time>
      </trkpt>
      <trkpt lat="43.65811" lon="3.7978">
        <ele>169.6</ele>
        <time>2017-10-04T11:08:03Z</time>
      </trkpt>
      <trkpt lat="43.65804" lon="3.79785">
        <ele>169.8</ele>
        <time>2017-10-04T11:08:07Z</time>
      </trkpt>
      <trkpt lat="43.65797" lon="3.7979">
        <ele>170.1</ele>
        <time>2017-10-04T11:08:12Z</time>
      </trkpt>
      <trkpt lat="43.6579" lon="3.79796">
        <ele>170.6</ele>
        <time>2017-10-04T11:08:17Z</time>
      </trkpt>
      <trkpt lat="43.65784" lon="3.79803">
        <ele>170.9</ele>
        <time>2017-10-04T11:08:20Z</time>
      </trkpt>
      <trkpt lat="43.65778" lon="3.79811">
        <ele>171</ele>
        <time>2017-10-04T11:08:23Z</time>
      </trkpt>
      <trkpt lat="43.65775" lon="3.7982">
        <ele>171.3</ele>
        <time>2017-10-04T11:08:28Z</time>
      </trkpt>
      <trkpt lat="43.65771" lon="3.79829">
        <ele>171.8</ele>
        <time>2017-10-04T11:08:32Z</time>
      </trkpt>
      <trkpt lat="43.65766" lon="3.79837">
        <ele>172.1</ele>
        <time>2017-10-04T11:08:35Z</time>
      </trkpt>
      <trkpt lat="43.65761" lon="3.79845">
        <ele>172.5</ele>
        <time>2017-10-04T11:08:40Z</time>
      </trkpt>
      <trkpt lat="43.65757" lon="3.79853">
        <ele>173</ele>
        <time>2017-10-04T11:08:45Z</time>
      </trkpt>
      <trkpt lat="43.65754" lon="3.79862">
        <ele>173.6</ele>
        <time>2017-10-04T11:08:51Z</time>
      </trkpt>
      <trkpt lat="43.65756" lon="3.79873">
        <ele>174.2</ele>
        <time>2017-10-04T11:08:55Z</time>
      </trkpt>
      <trkpt lat="43.65762" lon="3.79887">
        <ele>174.9</ele>
        <time>2017-10-04T11:08:59Z</time>
      </trkpt>
      <trkpt lat="43.65766" lon="3.79897">
        <ele>175.2</ele>
        <time>2017-10-04T11:09:01Z</time>
      </trkpt>
      <trkpt lat="43.65769" lon="3.79906">
        <ele>175.8</ele>
        <time>2017-10-04T11:09:04Z</time>
      </trkpt>
      <trkpt lat="43.65773" lon="3.79915">
        <ele>176.2</ele>
        <time>2017-10-04T11:09:07Z</time>
      </trkpt>
      <trkpt lat="43.65778" lon="3.79929">
        <ele>176.7</ele>
        <time>2017-10-04T11:09:10Z</time>
      </trkpt>
      <trkpt lat="43.65781" lon="3.79939">
        <ele>179.4</ele>
        <time>2017-10-04T11:09:12Z</time>
      </trkpt>
      <trkpt lat="43.65785" lon="3.7995">
        <ele>183.1</ele>
        <time>2017-10-04T11:09:14Z</time>
      </trkpt>
      <trkpt lat="43.6579" lon="3.79964">
        <ele>185.9</ele>
        <time>2017-10-04T11:09:16Z</time>
      </trkpt>
      <trkpt lat="43.65793" lon="3.79977">
        <ele>188.2</ele>
        <time>2017-10-04T11:09:18Z</time>
      </trkpt>
      <trkpt lat="43.65795" lon="3.79992">
        <ele>189.4</ele>
        <time>2017-10-04T11:09:20Z</time>
      </trkpt>
      <trkpt lat="43.65796" lon="3.80006">
        <ele>189.4</ele>
        <time>2017-10-04T11:09:22Z</time>
      </trkpt>
      <trkpt lat="43.65795" lon="3.80018">
        <ele>189.2</ele>
        <time>2017-10-04T11:09:24Z</time>
      </trkpt>
      <trkpt lat="43.65787" lon="3.80027">
        <ele>189.2</ele>
        <time>2017-10-04T11:09:27Z</time>
      </trkpt>
      <trkpt lat="43.6578" lon="3.8003">
        <ele>189.2</ele>
        <time>2017-10-04T11:09:29Z</time>
      </trkpt>
      <trkpt lat="43.65773" lon="3.80031">
        <ele>189.2</ele>
        <time>2017-10-04T11:09:31Z</time>
      </trkpt>
      <trkpt lat="43.65764" lon="3.80036">
        <ele>189.2</ele>
        <time>2017-10-04T11:09:34Z</time>
      </trkpt>
      <trkpt lat="43.65756" lon="3.80041">
        <ele>189.1</ele>
        <time>2017-10-04T11:09:37Z</time>
      </trkpt>
      <trkpt lat="43.65748" lon="3.80045">
        <ele>189</ele>
        <time>2017-10-04T11:09:39Z</time>
      </trkpt>
      <trkpt lat="43.6574" lon="3.80048">
        <ele>188.6</ele>
        <time>2017-10-04T11:09:42Z</time>
      </trkpt>
      <trkpt lat="43.65731" lon="3.80051">
        <ele>188.3</ele>
        <time>2017-10-04T11:09:45Z</time>
      </trkpt>
      <trkpt lat="43.65723" lon="3.80054">
        <ele>188.1</ele>
        <time>2017-10-04T11:09:48Z</time>
      </trkpt>
      <trkpt lat="43.65716" lon="3.80058">
        <ele>187.7</ele>
        <time>2017-10-04T11:09:51Z</time>
      </trkpt>
      <trkpt lat="43.65708" lon="3.80064">
        <ele>187.2</ele>
        <time>2017-10-04T11:09:55Z</time>
      </trkpt>
      <trkpt lat="43.65699" lon="3.80071">
        <ele>186.8</ele>
        <time>2017-10-04T11:09:59Z</time>
      </trkpt>
      <trkpt lat="43.65692" lon="3.8008">
        <ele>186.4</ele>
        <time>2017-10-04T11:10:03Z</time>
      </trkpt>
      <trkpt lat="43.65685" lon="3.80086">
        <ele>185.9</ele>
        <time>2017-10-04T11:10:07Z</time>
      </trkpt>
      <trkpt lat="43.65677" lon="3.80094">
        <ele>185.5</ele>
        <time>2017-10-04T11:10:10Z</time>
      </trkpt>
      <trkpt lat="43.65671" lon="3.80099">
        <ele>185.1</ele>
        <time>2017-10-04T11:10:13Z</time>
      </trkpt>
      <trkpt lat="43.65664" lon="3.80105">
        <ele>184.7</ele>
        <time>2017-10-04T11:10:17Z</time>
      </trkpt>
      <trkpt lat="43.65659" lon="3.80113">
        <ele>184.3</ele>
        <time>2017-10-04T11:10:21Z</time>
      </trkpt>
      <trkpt lat="43.65652" lon="3.80119">
        <ele>184.1</ele>
        <time>2017-10-04T11:10:24Z</time>
      </trkpt>
      <trkpt lat="43.65644" lon="3.80124">
        <ele>184</ele>
        <time>2017-10-04T11:10:27Z</time>
      </trkpt>
      <trkpt lat="43.65637" lon="3.80129">
        <ele>183.9</ele>
        <time>2017-10-04T11:10:30Z</time>
      </trkpt>
      <trkpt lat="43.65631" lon="3.80135">
        <ele>183.7</ele>
        <time>2017-10-04T11:10:33Z</time>
      </trkpt>
      <trkpt lat="43.65624" lon="3.80141">
        <ele>183.4</ele>
        <time>2017-10-04T11:10:36Z</time>
      </trkpt>
      <trkpt lat="43.65618" lon="3.80148">
        <ele>183.2</ele>
        <time>2017-10-04T11:10:39Z</time>
      </trkpt>
      <trkpt lat="43.65612" lon="3.80158">
        <ele>183</ele>
        <time>2017-10-04T11:10:42Z</time>
      </trkpt>
      <trkpt lat="43.65607" lon="3.80169">
        <ele>182.8</ele>
        <time>2017-10-04T11:10:46Z</time>
      </trkpt>
      <trkpt lat="43.65601" lon="3.80177">
        <ele>182.5</ele>
        <time>2017-10-04T11:10:50Z</time>
      </trkpt>
      <trkpt lat="43.65593" lon="3.80185">
        <ele>182.3</ele>
        <time>2017-10-04T11:10:53Z</time>
      </trkpt>
      <trkpt lat="43.65587" lon="3.80191">
        <ele>182</ele>
        <time>2017-10-04T11:10:56Z</time>
      </trkpt>
      <trkpt lat="43.6558" lon="3.80201">
        <ele>181.6</ele>
        <time>2017-10-04T11:10:59Z</time>
      </trkpt>
      <trkpt lat="43.65574" lon="3.80205">
        <ele>181.1</ele>
        <time>2017-10-04T11:11:02Z</time>
      </trkpt>
      <trkpt lat="43.65566" lon="3.80214">
        <ele>180.5</ele>
        <time>2017-10-04T11:11:05Z</time>
      </trkpt>
      <trkpt lat="43.65559" lon="3.80218">
        <ele>179.8</ele>
        <time>2017-10-04T11:11:08Z</time>
      </trkpt>
      <trkpt lat="43.65552" lon="3.80222">
        <ele>179.3</ele>
        <time>2017-10-04T11:11:11Z</time>
      </trkpt>
      <trkpt lat="43.65542" lon="3.80228">
        <ele>178.6</ele>
        <time>2017-10-04T11:11:15Z</time>
      </trkpt>
      <trkpt lat="43.65532" lon="3.80231">
        <ele>178.1</ele>
        <time>2017-10-04T11:11:18Z</time>
      </trkpt>
      <trkpt lat="43.65524" lon="3.80234">
        <ele>177.8</ele>
        <time>2017-10-04T11:11:20Z</time>
      </trkpt>
      <trkpt lat="43.65516" lon="3.80237">
        <ele>177.5</ele>
        <time>2017-10-04T11:11:22Z</time>
      </trkpt>
      <trkpt lat="43.65507" lon="3.80241">
        <ele>177.3</ele>
        <time>2017-10-04T11:11:25Z</time>
      </trkpt>
      <trkpt lat="43.655" lon="3.80246">
        <ele>176.6</ele>
        <time>2017-10-04T11:11:27Z</time>
      </trkpt>
      <trkpt lat="43.65492" lon="3.80255">
        <ele>176.7</ele>
        <time>2017-10-04T11:11:29Z</time>
      </trkpt>
      <trkpt lat="43.65485" lon="3.80265">
        <ele>177.3</ele>
        <time>2017-10-04T11:11:31Z</time>
      </trkpt>
      <trkpt lat="43.65482" lon="3.80279">
        <ele>178</ele>
        <time>2017-10-04T11:11:33Z</time>
      </trkpt>
      <trkpt lat="43.65484" lon="3.80293">
        <ele>178.9</ele>
        <time>2017-10-04T11:11:35Z</time>
      </trkpt>
      <trkpt lat="43.65487" lon="3.80303">
        <ele>179</ele>
        <time>2017-10-04T11:11:37Z</time>
      </trkpt>
      <trkpt lat="43.65493" lon="3.8031">
        <ele>179.2</ele>
        <time>2017-10-04T11:11:39Z</time>
      </trkpt>
      <trkpt lat="43.65501" lon="3.80315">
        <ele>179.4</ele>
        <time>2017-10-04T11:11:42Z</time>
      </trkpt>
      <trkpt lat="43.65505" lon="3.80324">
        <ele>180.2</ele>
        <time>2017-10-04T11:11:48Z</time>
      </trkpt>
      <trkpt lat="43.65507" lon="3.80335">
        <ele>180.5</ele>
        <time>2017-10-04T11:11:51Z</time>
      </trkpt>
      <trkpt lat="43.65512" lon="3.80343">
        <ele>180.5</ele>
        <time>2017-10-04T11:11:54Z</time>
      </trkpt>
      <trkpt lat="43.65518" lon="3.80351">
        <ele>180.8</ele>
        <time>2017-10-04T11:11:56Z</time>
      </trkpt>
      <trkpt lat="43.65524" lon="3.80359">
        <ele>181.2</ele>
        <time>2017-10-04T11:11:58Z</time>
      </trkpt>
      <trkpt lat="43.65531" lon="3.80365">
        <ele>181.4</ele>
        <time>2017-10-04T11:12:00Z</time>
      </trkpt>
      <trkpt lat="43.65542" lon="3.80369">
        <ele>182</ele>
        <time>2017-10-04T11:12:02Z</time>
      </trkpt>
      <trkpt lat="43.65549" lon="3.80371">
        <ele>182.2</ele>
        <time>2017-10-04T11:12:03Z</time>
      </trkpt>
      <trkpt lat="43.65563" lon="3.80376">
        <ele>182.1</ele>
        <time>2017-10-04T11:12:05Z</time>
      </trkpt>
      <trkpt lat="43.65576" lon="3.8038">
        <ele>182.2</ele>
        <time>2017-10-04T11:12:07Z</time>
      </trkpt>
      <trkpt lat="43.65583" lon="3.80382">
        <ele>182.3</ele>
        <time>2017-10-04T11:12:08Z</time>
      </trkpt>
      <trkpt lat="43.65603" lon="3.80388">
        <ele>184.4</ele>
        <time>2017-10-04T11:12:13Z</time>
      </trkpt>
      <trkpt lat="43.65612" lon="3.80393">
        <ele>184.5</ele>
        <time>2017-10-04T11:12:14Z</time>
      </trkpt>
      <trkpt lat="43.6562" lon="3.80404">
        <ele>184.3</ele>
        <time>2017-10-04T11:12:16Z</time>
      </trkpt>
      <trkpt lat="43.65633" lon="3.80408">
        <ele>183.8</ele>
        <time>2017-10-04T11:12:18Z</time>
      </trkpt>
      <trkpt lat="43.65644" lon="3.80411">
        <ele>183.7</ele>
        <time>2017-10-04T11:12:20Z</time>
      </trkpt>
      <trkpt lat="43.65656" lon="3.80418">
        <ele>184.9</ele>
        <time>2017-10-04T11:12:22Z</time>
      </trkpt>
      <trkpt lat="43.65669" lon="3.80418">
        <ele>184.5</ele>
        <time>2017-10-04T11:12:24Z</time>
      </trkpt>
      <trkpt lat="43.65679" lon="3.80421">
        <ele>184.5</ele>
        <time>2017-10-04T11:12:26Z</time>
      </trkpt>
      <trkpt lat="43.65687" lon="3.80424">
        <ele>184.5</ele>
        <time>2017-10-04T11:12:28Z</time>
      </trkpt>
      <trkpt lat="43.65695" lon="3.80431">
        <ele>184.7</ele>
        <time>2017-10-04T11:12:31Z</time>
      </trkpt>
      <trkpt lat="43.65702" lon="3.80435">
        <ele>184.9</ele>
        <time>2017-10-04T11:12:33Z</time>
      </trkpt>
      <trkpt lat="43.65709" lon="3.80437">
        <ele>185.6</ele>
        <time>2017-10-04T11:12:36Z</time>
      </trkpt>
      <trkpt lat="43.65717" lon="3.80444">
        <ele>185.9</ele>
        <time>2017-10-04T11:12:38Z</time>
      </trkpt>
      <trkpt lat="43.65726" lon="3.80446">
        <ele>185.9</ele>
        <time>2017-10-04T11:12:40Z</time>
      </trkpt>
      <trkpt lat="43.65731" lon="3.80454">
        <ele>185.9</ele>
        <time>2017-10-04T11:12:42Z</time>
      </trkpt>
      <trkpt lat="43.6574" lon="3.80457">
        <ele>185.9</ele>
        <time>2017-10-04T11:12:45Z</time>
      </trkpt>
      <trkpt lat="43.65748" lon="3.80456">
        <ele>185.4</ele>
        <time>2017-10-04T11:12:47Z</time>
      </trkpt>
      <trkpt lat="43.65757" lon="3.80461">
        <ele>185.5</ele>
        <time>2017-10-04T11:12:49Z</time>
      </trkpt>
      <trkpt lat="43.65765" lon="3.80466">
        <ele>185.1</ele>
        <time>2017-10-04T11:12:51Z</time>
      </trkpt>
      <trkpt lat="43.65772" lon="3.80466">
        <ele>185.1</ele>
        <time>2017-10-04T11:12:53Z</time>
      </trkpt>
      <trkpt lat="43.65781" lon="3.80471">
        <ele>184.7</ele>
        <time>2017-10-04T11:12:55Z</time>
      </trkpt>
      <trkpt lat="43.6579" lon="3.80476">
        <ele>183.9</ele>
        <time>2017-10-04T11:12:58Z</time>
      </trkpt>
      <trkpt lat="43.65799" lon="3.80481">
        <ele>182.7</ele>
        <time>2017-10-04T11:13:00Z</time>
      </trkpt>
      <trkpt lat="43.65809" lon="3.80485">
        <ele>181.8</ele>
        <time>2017-10-04T11:13:02Z</time>
      </trkpt>
      <trkpt lat="43.65818" lon="3.80488">
        <ele>181.5</ele>
        <time>2017-10-04T11:13:04Z</time>
      </trkpt>
      <trkpt lat="43.65825" lon="3.80491">
        <ele>180.8</ele>
        <time>2017-10-04T11:13:06Z</time>
      </trkpt>
      <trkpt lat="43.65833" lon="3.80496">
        <ele>180.1</ele>
        <time>2017-10-04T11:13:08Z</time>
      </trkpt>
      <trkpt lat="43.6584" lon="3.80503">
        <ele>180</ele>
        <time>2017-10-04T11:13:10Z</time>
      </trkpt>
      <trkpt lat="43.65848" lon="3.8051">
        <ele>179.4</ele>
        <time>2017-10-04T11:13:12Z</time>
      </trkpt>
      <trkpt lat="43.65856" lon="3.80513">
        <ele>179.3</ele>
        <time>2017-10-04T11:13:14Z</time>
      </trkpt>
      <trkpt lat="43.65866" lon="3.8052">
        <ele>177.7</ele>
        <time>2017-10-04T11:13:16Z</time>
      </trkpt>
      <trkpt lat="43.65876" lon="3.80528">
        <ele>177.1</ele>
        <time>2017-10-04T11:13:18Z</time>
      </trkpt>
      <trkpt lat="43.65885" lon="3.80534">
        <ele>176.7</ele>
        <time>2017-10-04T11:13:20Z</time>
      </trkpt>
      <trkpt lat="43.65893" lon="3.80537">
        <ele>176.6</ele>
        <time>2017-10-04T11:13:22Z</time>
      </trkpt>
      <trkpt lat="43.65903" lon="3.80542">
        <ele>176.7</ele>
        <time>2017-10-04T11:13:25Z</time>
      </trkpt>
      <trkpt lat="43.65911" lon="3.80544">
        <ele>176.7</ele>
        <time>2017-10-04T11:13:27Z</time>
      </trkpt>
      <trkpt lat="43.6592" lon="3.80547">
        <ele>176.8</ele>
        <time>2017-10-04T11:13:30Z</time>
      </trkpt>
      <trkpt lat="43.65929" lon="3.80551">
        <ele>177.1</ele>
        <time>2017-10-04T11:13:33Z</time>
      </trkpt>
      <trkpt lat="43.65934" lon="3.8056">
        <ele>177.4</ele>
        <time>2017-10-04T11:13:36Z</time>
      </trkpt>
      <trkpt lat="43.65935" lon="3.80572">
        <ele>177.5</ele>
        <time>2017-10-04T11:13:39Z</time>
      </trkpt>
      <trkpt lat="43.65937" lon="3.80583">
        <ele>177.7</ele>
        <time>2017-10-04T11:13:44Z</time>
      </trkpt>
      <trkpt lat="43.6594" lon="3.80593">
        <ele>177.8</ele>
        <time>2017-10-04T11:13:46Z</time>
      </trkpt>
      <trkpt lat="43.65939" lon="3.80603">
        <ele>177.6</ele>
        <time>2017-10-04T11:13:48Z</time>
      </trkpt>
      <trkpt lat="43.65935" lon="3.80613">
        <ele>177.4</ele>
        <time>2017-10-04T11:13:50Z</time>
      </trkpt>
      <trkpt lat="43.65934" lon="3.80626">
        <ele>177.1</ele>
        <time>2017-10-04T11:13:53Z</time>
      </trkpt>
      <trkpt lat="43.6593" lon="3.80636">
        <ele>176.7</ele>
        <time>2017-10-04T11:13:56Z</time>
      </trkpt>
      <trkpt lat="43.6592" lon="3.80639">
        <ele>171.7</ele>
        <time>2017-10-04T11:13:58Z</time>
      </trkpt>
      <trkpt lat="43.65914" lon="3.80646">
        <ele>169.5</ele>
        <time>2017-10-04T11:14:00Z</time>
      </trkpt>
      <trkpt lat="43.65915" lon="3.80656">
        <ele>166.5</ele>
        <time>2017-10-04T11:14:02Z</time>
      </trkpt>
      <trkpt lat="43.65916" lon="3.80666">
        <ele>163.3</ele>
        <time>2017-10-04T11:14:04Z</time>
      </trkpt>
      <trkpt lat="43.6592" lon="3.80677">
        <ele>160.1</ele>
        <time>2017-10-04T11:14:06Z</time>
      </trkpt>
      <trkpt lat="43.65926" lon="3.80688">
        <ele>157</ele>
        <time>2017-10-04T11:14:08Z</time>
      </trkpt>
      <trkpt lat="43.65931" lon="3.807">
        <ele>154.1</ele>
        <time>2017-10-04T11:14:10Z</time>
      </trkpt>
      <trkpt lat="43.65934" lon="3.80716">
        <ele>151.5</ele>
        <time>2017-10-04T11:14:12Z</time>
      </trkpt>
      <trkpt lat="43.65929" lon="3.80732">
        <ele>150.4</ele>
        <time>2017-10-04T11:14:14Z</time>
      </trkpt>
      <trkpt lat="43.65923" lon="3.8074">
        <ele>149.9</ele>
        <time>2017-10-04T11:14:15Z</time>
      </trkpt>
      <trkpt lat="43.65919" lon="3.80749">
        <ele>149</ele>
        <time>2017-10-04T11:14:16Z</time>
      </trkpt>
      <trkpt lat="43.65915" lon="3.80759">
        <ele>148.4</ele>
        <time>2017-10-04T11:14:17Z</time>
      </trkpt>
      <trkpt lat="43.65911" lon="3.80768">
        <ele>147.9</ele>
        <time>2017-10-04T11:14:18Z</time>
      </trkpt>
      <trkpt lat="43.65904" lon="3.80779">
        <ele>147.6</ele>
        <time>2017-10-04T11:14:20Z</time>
      </trkpt>
      <trkpt lat="43.65894" lon="3.80778">
        <ele>147.6</ele>
        <time>2017-10-04T11:14:22Z</time>
      </trkpt>
      <trkpt lat="43.65882" lon="3.80773">
        <ele>147.2</ele>
        <time>2017-10-04T11:14:24Z</time>
      </trkpt>
      <trkpt lat="43.65871" lon="3.80771">
        <ele>145.5</ele>
        <time>2017-10-04T11:14:26Z</time>
      </trkpt>
      <trkpt lat="43.6586" lon="3.80769">
        <ele>143.4</ele>
        <time>2017-10-04T11:14:28Z</time>
      </trkpt>
      <trkpt lat="43.65851" lon="3.80766">
        <ele>143.1</ele>
        <time>2017-10-04T11:14:30Z</time>
      </trkpt>
      <trkpt lat="43.65843" lon="3.8076">
        <ele>139.3</ele>
        <time>2017-10-04T11:14:32Z</time>
      </trkpt>
      <trkpt lat="43.65831" lon="3.80756">
        <ele>135.8</ele>
        <time>2017-10-04T11:14:34Z</time>
      </trkpt>
      <trkpt lat="43.65821" lon="3.80753">
        <ele>133.6</ele>
        <time>2017-10-04T11:14:36Z</time>
      </trkpt>
      <trkpt lat="43.65812" lon="3.80746">
        <ele>132.3</ele>
        <time>2017-10-04T11:14:38Z</time>
      </trkpt>
      <trkpt lat="43.65804" lon="3.8074">
        <ele>131.5</ele>
        <time>2017-10-04T11:14:40Z</time>
      </trkpt>
      <trkpt lat="43.65793" lon="3.80733">
        <ele>130.8</ele>
        <time>2017-10-04T11:14:42Z</time>
      </trkpt>
      <trkpt lat="43.65783" lon="3.80732">
        <ele>130.4</ele>
        <time>2017-10-04T11:14:44Z</time>
      </trkpt>
      <trkpt lat="43.65775" lon="3.80732">
        <ele>130.2</ele>
        <time>2017-10-04T11:14:46Z</time>
      </trkpt>
      <trkpt lat="43.65766" lon="3.80732">
        <ele>129.2</ele>
        <time>2017-10-04T11:14:48Z</time>
      </trkpt>
      <trkpt lat="43.65759" lon="3.80732">
        <ele>129.1</ele>
        <time>2017-10-04T11:14:50Z</time>
      </trkpt>
      <trkpt lat="43.6575" lon="3.80729">
        <ele>129</ele>
        <time>2017-10-04T11:14:53Z</time>
      </trkpt>
      <trkpt lat="43.65742" lon="3.80724">
        <ele>128.8</ele>
        <time>2017-10-04T11:14:56Z</time>
      </trkpt>
      <trkpt lat="43.65731" lon="3.80719">
        <ele>128</ele>
        <time>2017-10-04T11:14:59Z</time>
      </trkpt>
      <trkpt lat="43.65723" lon="3.80713">
        <ele>128.4</ele>
        <time>2017-10-04T11:15:01Z</time>
      </trkpt>
      <trkpt lat="43.65715" lon="3.80707">
        <ele>128.4</ele>
        <time>2017-10-04T11:15:03Z</time>
      </trkpt>
      <trkpt lat="43.65705" lon="3.80704">
        <ele>129.4</ele>
        <time>2017-10-04T11:15:05Z</time>
      </trkpt>
      <trkpt lat="43.65695" lon="3.80705">
        <ele>130.2</ele>
        <time>2017-10-04T11:15:07Z</time>
      </trkpt>
      <trkpt lat="43.65685" lon="3.80709">
        <ele>130.5</ele>
        <time>2017-10-04T11:15:09Z</time>
      </trkpt>
      <trkpt lat="43.65673" lon="3.80713">
        <ele>130.5</ele>
        <time>2017-10-04T11:15:11Z</time>
      </trkpt>
      <trkpt lat="43.6566" lon="3.80718">
        <ele>130.1</ele>
        <time>2017-10-04T11:15:13Z</time>
      </trkpt>
      <trkpt lat="43.65649" lon="3.80723">
        <ele>129.8</ele>
        <time>2017-10-04T11:15:15Z</time>
      </trkpt>
      <trkpt lat="43.65636" lon="3.80732">
        <ele>129.5</ele>
        <time>2017-10-04T11:15:17Z</time>
      </trkpt>
      <trkpt lat="43.65629" lon="3.80736">
        <ele>128.9</ele>
        <time>2017-10-04T11:15:18Z</time>
      </trkpt>
      <trkpt lat="43.65615" lon="3.80744">
        <ele>127.2</ele>
        <time>2017-10-04T11:15:20Z</time>
      </trkpt>
      <trkpt lat="43.65603" lon="3.80754">
        <ele>125.1</ele>
        <time>2017-10-04T11:15:22Z</time>
      </trkpt>
      <trkpt lat="43.65598" lon="3.80761">
        <ele>124.4</ele>
        <time>2017-10-04T11:15:23Z</time>
      </trkpt>
      <trkpt lat="43.65587" lon="3.80773">
        <ele>122.6</ele>
        <time>2017-10-04T11:15:25Z</time>
      </trkpt>
      <trkpt lat="43.6558" lon="3.80777">
        <ele>121.8</ele>
        <time>2017-10-04T11:15:26Z</time>
      </trkpt>
      <trkpt lat="43.65568" lon="3.80787">
        <ele>120.3</ele>
        <time>2017-10-04T11:15:28Z</time>
      </trkpt>
      <trkpt lat="43.65555" lon="3.80791">
        <ele>118.3</ele>
        <time>2017-10-04T11:15:30Z</time>
      </trkpt>
      <trkpt lat="43.65544" lon="3.80786">
        <ele>116.9</ele>
        <time>2017-10-04T11:15:32Z</time>
      </trkpt>
      <trkpt lat="43.65534" lon="3.8078">
        <ele>115.9</ele>
        <time>2017-10-04T11:15:34Z</time>
      </trkpt>
      <trkpt lat="43.65526" lon="3.80776">
        <ele>115.5</ele>
        <time>2017-10-04T11:15:36Z</time>
      </trkpt>
      <trkpt lat="43.65519" lon="3.80774">
        <ele>115.2</ele>
        <time>2017-10-04T11:15:38Z</time>
      </trkpt>
      <trkpt lat="43.65509" lon="3.80774">
        <ele>114.9</ele>
        <time>2017-10-04T11:15:40Z</time>
      </trkpt>
      <trkpt lat="43.65499" lon="3.80775">
        <ele>114.4</ele>
        <time>2017-10-04T11:15:42Z</time>
      </trkpt>
      <trkpt lat="43.65486" lon="3.80776">
        <ele>114.4</ele>
        <time>2017-10-04T11:15:44Z</time>
      </trkpt>
      <trkpt lat="43.65473" lon="3.80771">
        <ele>115.7</ele>
        <time>2017-10-04T11:15:46Z</time>
      </trkpt>
      <trkpt lat="43.6546" lon="3.80766">
        <ele>115.6</ele>
        <time>2017-10-04T11:15:48Z</time>
      </trkpt>
      <trkpt lat="43.65448" lon="3.80763">
        <ele>115.2</ele>
        <time>2017-10-04T11:15:50Z</time>
      </trkpt>
      <trkpt lat="43.65437" lon="3.80762">
        <ele>114.4</ele>
        <time>2017-10-04T11:15:52Z</time>
      </trkpt>
      <trkpt lat="43.65427" lon="3.8076">
        <ele>114.2</ele>
        <time>2017-10-04T11:15:54Z</time>
      </trkpt>
      <trkpt lat="43.65418" lon="3.80761">
        <ele>114.2</ele>
        <time>2017-10-04T11:15:56Z</time>
      </trkpt>
      <trkpt lat="43.65411" lon="3.80759">
        <ele>114.8</ele>
        <time>2017-10-04T11:15:58Z</time>
      </trkpt>
      <trkpt lat="43.65402" lon="3.80756">
        <ele>115.2</ele>
        <time>2017-10-04T11:16:00Z</time>
      </trkpt>
      <trkpt lat="43.65392" lon="3.80752">
        <ele>115.3</ele>
        <time>2017-10-04T11:16:02Z</time>
      </trkpt>
      <trkpt lat="43.65381" lon="3.80748">
        <ele>115.2</ele>
        <time>2017-10-04T11:16:04Z</time>
      </trkpt>
      <trkpt lat="43.65371" lon="3.80745">
        <ele>114.6</ele>
        <time>2017-10-04T11:16:06Z</time>
      </trkpt>
      <trkpt lat="43.6536" lon="3.80741">
        <ele>114.5</ele>
        <time>2017-10-04T11:16:08Z</time>
      </trkpt>
      <trkpt lat="43.65349" lon="3.80739">
        <ele>114.1</ele>
        <time>2017-10-04T11:16:10Z</time>
      </trkpt>
      <trkpt lat="43.65339" lon="3.80746">
        <ele>114.5</ele>
        <time>2017-10-04T11:16:12Z</time>
      </trkpt>
      <trkpt lat="43.65333" lon="3.80759">
        <ele>113.2</ele>
        <time>2017-10-04T11:16:14Z</time>
      </trkpt>
      <trkpt lat="43.65326" lon="3.80774">
        <ele>112.4</ele>
        <time>2017-10-04T11:16:16Z</time>
      </trkpt>
      <trkpt lat="43.6532" lon="3.80789">
        <ele>111.4</ele>
        <time>2017-10-04T11:16:18Z</time>
      </trkpt>
      <trkpt lat="43.65313" lon="3.80805">
        <ele>110.4</ele>
        <time>2017-10-04T11:16:20Z</time>
      </trkpt>
      <trkpt lat="43.65305" lon="3.80822">
        <ele>110</ele>
        <time>2017-10-04T11:16:22Z</time>
      </trkpt>
      <trkpt lat="43.65301" lon="3.8083">
        <ele>109.6</ele>
        <time>2017-10-04T11:16:23Z</time>
      </trkpt>
      <trkpt lat="43.65297" lon="3.8084">
        <ele>109.4</ele>
        <time>2017-10-04T11:16:24Z</time>
      </trkpt>
      <trkpt lat="43.65292" lon="3.80848">
        <ele>109.1</ele>
        <time>2017-10-04T11:16:25Z</time>
      </trkpt>
      <trkpt lat="43.65288" lon="3.80856">
        <ele>108.9</ele>
        <time>2017-10-04T11:16:26Z</time>
      </trkpt>
      <trkpt lat="43.65282" lon="3.80871">
        <ele>108.5</ele>
        <time>2017-10-04T11:16:28Z</time>
      </trkpt>
      <trkpt lat="43.65275" lon="3.80885">
        <ele>108.2</ele>
        <time>2017-10-04T11:16:30Z</time>
      </trkpt>
      <trkpt lat="43.65268" lon="3.80899">
        <ele>108.1</ele>
        <time>2017-10-04T11:16:32Z</time>
      </trkpt>
      <trkpt lat="43.65261" lon="3.80911">
        <ele>108.1</ele>
        <time>2017-10-04T11:16:34Z</time>
      </trkpt>
      <trkpt lat="43.65255" lon="3.80923">
        <ele>108.8</ele>
        <time>2017-10-04T11:16:36Z</time>
      </trkpt>
      <trkpt lat="43.65251" lon="3.80934">
        <ele>108.9</ele>
        <time>2017-10-04T11:16:39Z</time>
      </trkpt>
      <trkpt lat="43.65248" lon="3.80945">
        <ele>109</ele>
        <time>2017-10-04T11:16:42Z</time>
      </trkpt>
      <trkpt lat="43.65245" lon="3.80958">
        <ele>109.5</ele>
        <time>2017-10-04T11:16:45Z</time>
      </trkpt>
      <trkpt lat="43.6524" lon="3.80967">
        <ele>109.9</ele>
        <time>2017-10-04T11:16:47Z</time>
      </trkpt>
      <trkpt lat="43.65238" lon="3.80977">
        <ele>110.1</ele>
        <time>2017-10-04T11:16:49Z</time>
      </trkpt>
      <trkpt lat="43.65233" lon="3.80987">
        <ele>110.5</ele>
        <time>2017-10-04T11:16:51Z</time>
      </trkpt>
      <trkpt lat="43.65231" lon="3.80997">
        <ele>110.6</ele>
        <time>2017-10-04T11:16:53Z</time>
      </trkpt>
      <trkpt lat="43.65226" lon="3.81007">
        <ele>110.5</ele>
        <time>2017-10-04T11:16:55Z</time>
      </trkpt>
      <trkpt lat="43.6522" lon="3.81018">
        <ele>110.1</ele>
        <time>2017-10-04T11:16:57Z</time>
      </trkpt>
      <trkpt lat="43.65213" lon="3.81027">
        <ele>110.1</ele>
        <time>2017-10-04T11:16:59Z</time>
      </trkpt>
      <trkpt lat="43.65208" lon="3.81036">
        <ele>109.9</ele>
        <time>2017-10-04T11:17:01Z</time>
      </trkpt>
      <trkpt lat="43.65201" lon="3.81046">
        <ele>110.4</ele>
        <time>2017-10-04T11:17:03Z</time>
      </trkpt>
      <trkpt lat="43.65195" lon="3.81056">
        <ele>111.5</ele>
        <time>2017-10-04T11:17:05Z</time>
      </trkpt>
      <trkpt lat="43.65189" lon="3.81065">
        <ele>112.2</ele>
        <time>2017-10-04T11:17:07Z</time>
      </trkpt>
      <trkpt lat="43.65183" lon="3.81075">
        <ele>112.1</ele>
        <time>2017-10-04T11:17:09Z</time>
      </trkpt>
      <trkpt lat="43.6518" lon="3.81088">
        <ele>112.1</ele>
        <time>2017-10-04T11:17:12Z</time>
      </trkpt>
      <trkpt lat="43.65179" lon="3.811">
        <ele>112.3</ele>
        <time>2017-10-04T11:17:15Z</time>
      </trkpt>
      <trkpt lat="43.65176" lon="3.8111">
        <ele>112.6</ele>
        <time>2017-10-04T11:17:18Z</time>
      </trkpt>
      <trkpt lat="43.6517" lon="3.81118">
        <ele>112.9</ele>
        <time>2017-10-04T11:17:21Z</time>
      </trkpt>
      <trkpt lat="43.65166" lon="3.81128">
        <ele>113.4</ele>
        <time>2017-10-04T11:17:25Z</time>
      </trkpt>
      <trkpt lat="43.65163" lon="3.81139">
        <ele>113.8</ele>
        <time>2017-10-04T11:17:28Z</time>
      </trkpt>
      <trkpt lat="43.65159" lon="3.81149">
        <ele>114.2</ele>
        <time>2017-10-04T11:17:31Z</time>
      </trkpt>
      <trkpt lat="43.65153" lon="3.81161">
        <ele>114.6</ele>
        <time>2017-10-04T11:17:34Z</time>
      </trkpt>
      <trkpt lat="43.65149" lon="3.81173">
        <ele>116.8</ele>
        <time>2017-10-04T11:17:36Z</time>
      </trkpt>
      <trkpt lat="43.65141" lon="3.81187">
        <ele>118.6</ele>
        <time>2017-10-04T11:17:38Z</time>
      </trkpt>
      <trkpt lat="43.65136" lon="3.81203">
        <ele>119.7</ele>
        <time>2017-10-04T11:17:40Z</time>
      </trkpt>
      <trkpt lat="43.65136" lon="3.81216">
        <ele>120.2</ele>
        <time>2017-10-04T11:17:42Z</time>
      </trkpt>
      <trkpt lat="43.65132" lon="3.81229">
        <ele>120.8</ele>
        <time>2017-10-04T11:17:45Z</time>
      </trkpt>
      <trkpt lat="43.65128" lon="3.81243">
        <ele>120.9</ele>
        <time>2017-10-04T11:17:48Z</time>
      </trkpt>
      <trkpt lat="43.65121" lon="3.81259">
        <ele>120.7</ele>
        <time>2017-10-04T11:17:50Z</time>
      </trkpt>
      <trkpt lat="43.65114" lon="3.81269">
        <ele>121</ele>
        <time>2017-10-04T11:17:52Z</time>
      </trkpt>
      <trkpt lat="43.65107" lon="3.81279">
        <ele>122.1</ele>
        <time>2017-10-04T11:17:54Z</time>
      </trkpt>
      <trkpt lat="43.65102" lon="3.81293">
        <ele>123.1</ele>
        <time>2017-10-04T11:17:56Z</time>
      </trkpt>
      <trkpt lat="43.65094" lon="3.81306">
        <ele>122.9</ele>
        <time>2017-10-04T11:17:58Z</time>
      </trkpt>
      <trkpt lat="43.65089" lon="3.81314">
        <ele>122.1</ele>
        <time>2017-10-04T11:17:59Z</time>
      </trkpt>
      <trkpt lat="43.65083" lon="3.81323">
        <ele>121.4</ele>
        <time>2017-10-04T11:18:00Z</time>
      </trkpt>
      <trkpt lat="43.65078" lon="3.8133">
        <ele>120.9</ele>
        <time>2017-10-04T11:18:01Z</time>
      </trkpt>
      <trkpt lat="43.65073" lon="3.81339">
        <ele>120.6</ele>
        <time>2017-10-04T11:18:02Z</time>
      </trkpt>
      <trkpt lat="43.65069" lon="3.81348">
        <ele>120.4</ele>
        <time>2017-10-04T11:18:03Z</time>
      </trkpt>
      <trkpt lat="43.65061" lon="3.81363">
        <ele>119.8</ele>
        <time>2017-10-04T11:18:05Z</time>
      </trkpt>
      <trkpt lat="43.65055" lon="3.81377">
        <ele>118.9</ele>
        <time>2017-10-04T11:18:07Z</time>
      </trkpt>
      <trkpt lat="43.65049" lon="3.8139">
        <ele>117.9</ele>
        <time>2017-10-04T11:18:09Z</time>
      </trkpt>
      <trkpt lat="43.65042" lon="3.81402">
        <ele>116.9</ele>
        <time>2017-10-04T11:18:11Z</time>
      </trkpt>
      <trkpt lat="43.65038" lon="3.81412">
        <ele>116.4</ele>
        <time>2017-10-04T11:18:13Z</time>
      </trkpt>
      <trkpt lat="43.65034" lon="3.81422">
        <ele>116.1</ele>
        <time>2017-10-04T11:18:15Z</time>
      </trkpt>
      <trkpt lat="43.65028" lon="3.81429">
        <ele>115.8</ele>
        <time>2017-10-04T11:18:17Z</time>
      </trkpt>
      <trkpt lat="43.65024" lon="3.81438">
        <ele>115.7</ele>
        <time>2017-10-04T11:18:19Z</time>
      </trkpt>
      <trkpt lat="43.65019" lon="3.81447">
        <ele>115.5</ele>
        <time>2017-10-04T11:18:22Z</time>
      </trkpt>
      <trkpt lat="43.65015" lon="3.81457">
        <ele>115.2</ele>
        <time>2017-10-04T11:18:25Z</time>
      </trkpt>
      <trkpt lat="43.65023" lon="3.81466">
        <ele>114.9</ele>
        <time>2017-10-04T11:18:31Z</time>
      </trkpt>
      <trkpt lat="43.65032" lon="3.8147">
        <ele>114.7</ele>
        <time>2017-10-04T11:18:34Z</time>
      </trkpt>
      <trkpt lat="43.6504" lon="3.81474">
        <ele>114.6</ele>
        <time>2017-10-04T11:18:37Z</time>
      </trkpt>
      <trkpt lat="43.65047" lon="3.81477">
        <ele>114.5</ele>
        <time>2017-10-04T11:18:40Z</time>
      </trkpt>
      <trkpt lat="43.65055" lon="3.81479">
        <ele>114.5</ele>
        <time>2017-10-04T11:18:43Z</time>
      </trkpt>
      <trkpt lat="43.65063" lon="3.81484">
        <ele>114.6</ele>
        <time>2017-10-04T11:18:47Z</time>
      </trkpt>
      <trkpt lat="43.65071" lon="3.81487">
        <ele>114.6</ele>
        <time>2017-10-04T11:18:50Z</time>
      </trkpt>
      <trkpt lat="43.65079" lon="3.81489">
        <ele>114.7</ele>
        <time>2017-10-04T11:18:53Z</time>
      </trkpt>
      <trkpt lat="43.65079" lon="3.81501">
        <ele>114.9</ele>
        <time>2017-10-04T11:18:57Z</time>
      </trkpt>
      <trkpt lat="43.65077" lon="3.81511">
        <ele>115.3</ele>
        <time>2017-10-04T11:19:01Z</time>
      </trkpt>
      <trkpt lat="43.65076" lon="3.81522">
        <ele>115.6</ele>
        <time>2017-10-04T11:19:04Z</time>
      </trkpt>
      <trkpt lat="43.65083" lon="3.81527">
        <ele>116.1</ele>
        <time>2017-10-04T11:19:11Z</time>
      </trkpt>
      <trkpt lat="43.6509" lon="3.81532">
        <ele>116.7</ele>
        <time>2017-10-04T11:19:16Z</time>
      </trkpt>
      <trkpt lat="43.65096" lon="3.81539">
        <ele>117.4</ele>
        <time>2017-10-04T11:19:21Z</time>
      </trkpt>
      <trkpt lat="43.65104" lon="3.81544">
        <ele>117.8</ele>
        <time>2017-10-04T11:19:25Z</time>
      </trkpt>
      <trkpt lat="43.65111" lon="3.81547">
        <ele>118.3</ele>
        <time>2017-10-04T11:19:29Z</time>
      </trkpt>
      <trkpt lat="43.65118" lon="3.8155">
        <ele>118.7</ele>
        <time>2017-10-04T11:19:32Z</time>
      </trkpt>
      <trkpt lat="43.65126" lon="3.81552">
        <ele>119.3</ele>
        <time>2017-10-04T11:19:36Z</time>
      </trkpt>
      <trkpt lat="43.65134" lon="3.81553">
        <ele>120.4</ele>
        <time>2017-10-04T11:19:43Z</time>
      </trkpt>
      <trkpt lat="43.65142" lon="3.81555">
        <ele>121.3</ele>
        <time>2017-10-04T11:19:48Z</time>
      </trkpt>
      <trkpt lat="43.6515" lon="3.81558">
        <ele>122.2</ele>
        <time>2017-10-04T11:19:53Z</time>
      </trkpt>
      <trkpt lat="43.65156" lon="3.81562">
        <ele>122.8</ele>
        <time>2017-10-04T11:19:56Z</time>
      </trkpt>
      <trkpt lat="43.65164" lon="3.81565">
        <ele>123.4</ele>
        <time>2017-10-04T11:19:59Z</time>
      </trkpt>
      <trkpt lat="43.6517" lon="3.8157">
        <ele>124.4</ele>
        <time>2017-10-04T11:20:04Z</time>
      </trkpt>
      <trkpt lat="43.65179" lon="3.81578">
        <ele>125.2</ele>
        <time>2017-10-04T11:20:08Z</time>
      </trkpt>
      <trkpt lat="43.65187" lon="3.81583">
        <ele>125.7</ele>
        <time>2017-10-04T11:20:11Z</time>
      </trkpt>
      <trkpt lat="43.65196" lon="3.81587">
        <ele>128.5</ele>
        <time>2017-10-04T11:20:13Z</time>
      </trkpt>
      <trkpt lat="43.65207" lon="3.81593">
        <ele>130.5</ele>
        <time>2017-10-04T11:20:15Z</time>
      </trkpt>
      <trkpt lat="43.65219" lon="3.81598">
        <ele>132.2</ele>
        <time>2017-10-04T11:20:17Z</time>
      </trkpt>
      <trkpt lat="43.65228" lon="3.81604">
        <ele>132.4</ele>
        <time>2017-10-04T11:20:19Z</time>
      </trkpt>
      <trkpt lat="43.65235" lon="3.81613">
        <ele>132.7</ele>
        <time>2017-10-04T11:20:22Z</time>
      </trkpt>
      <trkpt lat="43.65239" lon="3.81622">
        <ele>133</ele>
        <time>2017-10-04T11:20:25Z</time>
      </trkpt>
      <trkpt lat="43.65249" lon="3.81632">
        <ele>134.2</ele>
        <time>2017-10-04T11:20:36Z</time>
      </trkpt>
      <trkpt lat="43.65256" lon="3.81642">
        <ele>134.5</ele>
        <time>2017-10-04T11:20:40Z</time>
      </trkpt>
      <trkpt lat="43.6526" lon="3.81652">
        <ele>134.7</ele>
        <time>2017-10-04T11:20:42Z</time>
      </trkpt>
      <trkpt lat="43.65265" lon="3.8166">
        <ele>134.9</ele>
        <time>2017-10-04T11:20:44Z</time>
      </trkpt>
      <trkpt lat="43.65272" lon="3.81668">
        <ele>135.4</ele>
        <time>2017-10-04T11:20:46Z</time>
      </trkpt>
      <trkpt lat="43.65278" lon="3.81676">
        <ele>135.5</ele>
        <time>2017-10-04T11:20:48Z</time>
      </trkpt>
      <trkpt lat="43.65284" lon="3.81682">
        <ele>136.1</ele>
        <time>2017-10-04T11:20:50Z</time>
      </trkpt>
      <trkpt lat="43.6529" lon="3.8169">
        <ele>136.2</ele>
        <time>2017-10-04T11:20:54Z</time>
      </trkpt>
      <trkpt lat="43.65296" lon="3.81699">
        <ele>136.4</ele>
        <time>2017-10-04T11:20:57Z</time>
      </trkpt>
      <trkpt lat="43.65306" lon="3.81711">
        <ele>136.1</ele>
        <time>2017-10-04T11:21:05Z</time>
      </trkpt>
      <trkpt lat="43.65314" lon="3.81719">
        <ele>136.1</ele>
        <time>2017-10-04T11:21:09Z</time>
      </trkpt>
      <trkpt lat="43.65321" lon="3.81725">
        <ele>135.9</ele>
        <time>2017-10-04T11:21:12Z</time>
      </trkpt>
      <trkpt lat="43.65328" lon="3.81729">
        <ele>135.8</ele>
        <time>2017-10-04T11:21:14Z</time>
      </trkpt>
      <trkpt lat="43.65336" lon="3.81735">
        <ele>135.7</ele>
        <time>2017-10-04T11:21:16Z</time>
      </trkpt>
      <trkpt lat="43.65342" lon="3.81741">
        <ele>135.7</ele>
        <time>2017-10-04T11:21:18Z</time>
      </trkpt>
      <trkpt lat="43.65346" lon="3.81754">
        <ele>134.5</ele>
        <time>2017-10-04T11:21:20Z</time>
      </trkpt>
      <trkpt lat="43.65349" lon="3.81765">
        <ele>134.4</ele>
        <time>2017-10-04T11:21:22Z</time>
      </trkpt>
      <trkpt lat="43.65353" lon="3.81774">
        <ele>134.4</ele>
        <time>2017-10-04T11:21:24Z</time>
      </trkpt>
      <trkpt lat="43.65358" lon="3.81783">
        <ele>134.3</ele>
        <time>2017-10-04T11:21:26Z</time>
      </trkpt>
      <trkpt lat="43.65364" lon="3.8179">
        <ele>134</ele>
        <time>2017-10-04T11:21:29Z</time>
      </trkpt>
      <trkpt lat="43.65368" lon="3.81799">
        <ele>133.7</ele>
        <time>2017-10-04T11:21:32Z</time>
      </trkpt>
      <trkpt lat="43.65373" lon="3.81809">
        <ele>133.1</ele>
        <time>2017-10-04T11:21:36Z</time>
      </trkpt>
      <trkpt lat="43.65376" lon="3.81818">
        <ele>132.6</ele>
        <time>2017-10-04T11:21:39Z</time>
      </trkpt>
      <trkpt lat="43.65382" lon="3.81827">
        <ele>132.2</ele>
        <time>2017-10-04T11:21:43Z</time>
      </trkpt>
      <trkpt lat="43.6539" lon="3.81831">
        <ele>131.9</ele>
        <time>2017-10-04T11:21:47Z</time>
      </trkpt>
      <trkpt lat="43.65395" lon="3.81844">
        <ele>131.6</ele>
        <time>2017-10-04T11:21:50Z</time>
      </trkpt>
      <trkpt lat="43.65401" lon="3.81853">
        <ele>130.7</ele>
        <time>2017-10-04T11:21:52Z</time>
      </trkpt>
      <trkpt lat="43.65407" lon="3.81863">
        <ele>130.2</ele>
        <time>2017-10-04T11:21:54Z</time>
      </trkpt>
      <trkpt lat="43.6541" lon="3.81873">
        <ele>130.1</ele>
        <time>2017-10-04T11:21:56Z</time>
      </trkpt>
      <trkpt lat="43.65412" lon="3.81883">
        <ele>130.1</ele>
        <time>2017-10-04T11:21:58Z</time>
      </trkpt>
      <trkpt lat="43.65413" lon="3.81895">
        <ele>130</ele>
        <time>2017-10-04T11:22:00Z</time>
      </trkpt>
      <trkpt lat="43.65415" lon="3.81913">
        <ele>129.7</ele>
        <time>2017-10-04T11:22:02Z</time>
      </trkpt>
      <trkpt lat="43.65418" lon="3.81926">
        <ele>129.7</ele>
        <time>2017-10-04T11:22:04Z</time>
      </trkpt>
      <trkpt lat="43.65422" lon="3.81937">
        <ele>129.8</ele>
        <time>2017-10-04T11:22:07Z</time>
      </trkpt>
      <trkpt lat="43.65425" lon="3.81952">
        <ele>130</ele>
        <time>2017-10-04T11:22:12Z</time>
      </trkpt>
      <trkpt lat="43.65426" lon="3.81963">
        <ele>130</ele>
        <time>2017-10-04T11:22:16Z</time>
      </trkpt>
      <trkpt lat="43.65419" lon="3.81972">
        <ele>130.1</ele>
        <time>2017-10-04T11:22:21Z</time>
      </trkpt>
      <trkpt lat="43.65413" lon="3.8198">
        <ele>130.1</ele>
        <time>2017-10-04T11:22:23Z</time>
      </trkpt>
      <trkpt lat="43.6541" lon="3.81991">
        <ele>130</ele>
        <time>2017-10-04T11:22:25Z</time>
      </trkpt>
      <trkpt lat="43.65404" lon="3.81998">
        <ele>130.2</ele>
        <time>2017-10-04T11:22:28Z</time>
      </trkpt>
      <trkpt lat="43.654" lon="3.82007">
        <ele>130.2</ele>
        <time>2017-10-04T11:22:31Z</time>
      </trkpt>
      <trkpt lat="43.65395" lon="3.8202">
        <ele>130.1</ele>
        <time>2017-10-04T11:22:34Z</time>
      </trkpt>
      <trkpt lat="43.65391" lon="3.82029">
        <ele>129.9</ele>
        <time>2017-10-04T11:22:36Z</time>
      </trkpt>
      <trkpt lat="43.65388" lon="3.8204">
        <ele>129.1</ele>
        <time>2017-10-04T11:22:38Z</time>
      </trkpt>
      <trkpt lat="43.65392" lon="3.8205">
        <ele>128.8</ele>
        <time>2017-10-04T11:22:41Z</time>
      </trkpt>
      <trkpt lat="43.65397" lon="3.82058">
        <ele>128.7</ele>
        <time>2017-10-04T11:22:44Z</time>
      </trkpt>
      <trkpt lat="43.65403" lon="3.82066">
        <ele>128.6</ele>
        <time>2017-10-04T11:22:47Z</time>
      </trkpt>
      <trkpt lat="43.65407" lon="3.8208">
        <ele>128.2</ele>
        <time>2017-10-04T11:22:50Z</time>
      </trkpt>
      <trkpt lat="43.65413" lon="3.82091">
        <ele>128.2</ele>
        <time>2017-10-04T11:22:53Z</time>
      </trkpt>
      <trkpt lat="43.6541" lon="3.82101">
        <ele>128.1</ele>
        <time>2017-10-04T11:22:55Z</time>
      </trkpt>
      <trkpt lat="43.65409" lon="3.82112">
        <ele>128</ele>
        <time>2017-10-04T11:22:57Z</time>
      </trkpt>
      <trkpt lat="43.65407" lon="3.82128">
        <ele>127.4</ele>
        <time>2017-10-04T11:22:59Z</time>
      </trkpt>
      <trkpt lat="43.65405" lon="3.82142">
        <ele>127.1</ele>
        <time>2017-10-04T11:23:01Z</time>
      </trkpt>
      <trkpt lat="43.65402" lon="3.82158">
        <ele>126.1</ele>
        <time>2017-10-04T11:23:03Z</time>
      </trkpt>
      <trkpt lat="43.654" lon="3.82172">
        <ele>125.3</ele>
        <time>2017-10-04T11:23:05Z</time>
      </trkpt>
      <trkpt lat="43.65399" lon="3.82182">
        <ele>124.3</ele>
        <time>2017-10-04T11:23:07Z</time>
      </trkpt>
      <trkpt lat="43.65396" lon="3.82192">
        <ele>123.4</ele>
        <time>2017-10-04T11:23:09Z</time>
      </trkpt>
      <trkpt lat="43.65389" lon="3.82203">
        <ele>122.2</ele>
        <time>2017-10-04T11:23:11Z</time>
      </trkpt>
      <trkpt lat="43.65381" lon="3.82211">
        <ele>122</ele>
        <time>2017-10-04T11:23:13Z</time>
      </trkpt>
      <trkpt lat="43.65375" lon="3.82218">
        <ele>121.8</ele>
        <time>2017-10-04T11:23:16Z</time>
      </trkpt>
      <trkpt lat="43.6537" lon="3.82225">
        <ele>121.8</ele>
        <time>2017-10-04T11:23:20Z</time>
      </trkpt>
      <trkpt lat="43.65364" lon="3.82235">
        <ele>122.3</ele>
        <time>2017-10-04T11:23:25Z</time>
      </trkpt>
      <trkpt lat="43.65362" lon="3.82247">
        <ele>122.8</ele>
        <time>2017-10-04T11:23:29Z</time>
      </trkpt>
      <trkpt lat="43.6536" lon="3.82259">
        <ele>123.3</ele>
        <time>2017-10-04T11:23:33Z</time>
      </trkpt>
      <trkpt lat="43.65359" lon="3.82269">
        <ele>123.6</ele>
        <time>2017-10-04T11:23:36Z</time>
      </trkpt>
      <trkpt lat="43.6536" lon="3.82281">
        <ele>123.9</ele>
        <time>2017-10-04T11:23:39Z</time>
      </trkpt>
      <trkpt lat="43.65359" lon="3.82292">
        <ele>124.3</ele>
        <time>2017-10-04T11:23:42Z</time>
      </trkpt>
      <trkpt lat="43.65358" lon="3.82303">
        <ele>124.6</ele>
        <time>2017-10-04T11:23:45Z</time>
      </trkpt>
      <trkpt lat="43.65357" lon="3.82314">
        <ele>124.8</ele>
        <time>2017-10-04T11:23:48Z</time>
      </trkpt>
      <trkpt lat="43.65355" lon="3.82327">
        <ele>125</ele>
        <time>2017-10-04T11:23:51Z</time>
      </trkpt>
      <trkpt lat="43.65353" lon="3.82338">
        <ele>125.1</ele>
        <time>2017-10-04T11:23:54Z</time>
      </trkpt>
      <trkpt lat="43.65351" lon="3.8235">
        <ele>125.3</ele>
        <time>2017-10-04T11:23:57Z</time>
      </trkpt>
      <trkpt lat="43.65351" lon="3.82363">
        <ele>125.5</ele>
        <time>2017-10-04T11:24:00Z</time>
      </trkpt>
      <trkpt lat="43.65349" lon="3.82377">
        <ele>125.7</ele>
        <time>2017-10-04T11:24:04Z</time>
      </trkpt>
      <trkpt lat="43.65347" lon="3.82387">
        <ele>125.9</ele>
        <time>2017-10-04T11:24:07Z</time>
      </trkpt>
      <trkpt lat="43.65346" lon="3.82396">
        <ele>126.2</ele>
        <time>2017-10-04T11:24:10Z</time>
      </trkpt>
      <trkpt lat="43.65344" lon="3.8241">
        <ele>126.7</ele>
        <time>2017-10-04T11:24:14Z</time>
      </trkpt>
      <trkpt lat="43.65342" lon="3.82422">
        <ele>126.9</ele>
        <time>2017-10-04T11:24:17Z</time>
      </trkpt>
      <trkpt lat="43.65341" lon="3.82434">
        <ele>127.2</ele>
        <time>2017-10-04T11:24:21Z</time>
      </trkpt>
      <trkpt lat="43.65338" lon="3.82443">
        <ele>127.3</ele>
        <time>2017-10-04T11:24:24Z</time>
      </trkpt>
      <trkpt lat="43.65335" lon="3.82453">
        <ele>127.5</ele>
        <time>2017-10-04T11:24:28Z</time>
      </trkpt>
      <trkpt lat="43.65332" lon="3.82463">
        <ele>127.5</ele>
        <time>2017-10-04T11:24:33Z</time>
      </trkpt>
      <trkpt lat="43.6533" lon="3.82473">
        <ele>127.6</ele>
        <time>2017-10-04T11:24:38Z</time>
      </trkpt>
      <trkpt lat="43.65331" lon="3.82483">
        <ele>127.7</ele>
        <time>2017-10-04T11:24:41Z</time>
      </trkpt>
      <trkpt lat="43.65332" lon="3.82494">
        <ele>127.9</ele>
        <time>2017-10-04T11:24:45Z</time>
      </trkpt>
      <trkpt lat="43.65332" lon="3.82506">
        <ele>128.4</ele>
        <time>2017-10-04T11:24:48Z</time>
      </trkpt>
      <trkpt lat="43.65331" lon="3.82516">
        <ele>129.3</ele>
        <time>2017-10-04T11:24:55Z</time>
      </trkpt>
      <trkpt lat="43.65331" lon="3.82527">
        <ele>130.2</ele>
        <time>2017-10-04T11:25:02Z</time>
      </trkpt>
      <trkpt lat="43.65332" lon="3.82539">
        <ele>131.3</ele>
        <time>2017-10-04T11:25:08Z</time>
      </trkpt>
      <trkpt lat="43.65334" lon="3.82549">
        <ele>132.2</ele>
        <time>2017-10-04T11:25:12Z</time>
      </trkpt>
      <trkpt lat="43.65334" lon="3.8256">
        <ele>133.4</ele>
        <time>2017-10-04T11:25:17Z</time>
      </trkpt>
      <trkpt lat="43.65332" lon="3.8257">
        <ele>134.5</ele>
        <time>2017-10-04T11:25:23Z</time>
      </trkpt>
      <trkpt lat="43.65327" lon="3.82572">
        <ele>136</ele>
        <time>2017-10-04T11:25:30Z</time>
      </trkpt>
      <trkpt lat="43.65319" lon="3.82577">
        <ele>137.3</ele>
        <time>2017-10-04T11:25:35Z</time>
      </trkpt>
      <trkpt lat="43.65311" lon="3.82581">
        <ele>138.4</ele>
        <time>2017-10-04T11:25:39Z</time>
      </trkpt>
      <trkpt lat="43.65303" lon="3.82583">
        <ele>139.2</ele>
        <time>2017-10-04T11:25:42Z</time>
      </trkpt>
      <trkpt lat="43.65295" lon="3.82584">
        <ele>140.3</ele>
        <time>2017-10-04T11:25:46Z</time>
      </trkpt>
      <trkpt lat="43.65287" lon="3.82586">
        <ele>141.7</ele>
        <time>2017-10-04T11:25:51Z</time>
      </trkpt>
      <trkpt lat="43.6528" lon="3.82588">
        <ele>142.9</ele>
        <time>2017-10-04T11:25:55Z</time>
      </trkpt>
      <trkpt lat="43.65272" lon="3.82587">
        <ele>144.9</ele>
        <time>2017-10-04T11:26:00Z</time>
      </trkpt>
      <trkpt lat="43.65262" lon="3.82586">
        <ele>147.6</ele>
        <time>2017-10-04T11:26:06Z</time>
      </trkpt>
      <trkpt lat="43.65258" lon="3.82584">
        <ele>151</ele>
        <time>2017-10-04T11:26:13Z</time>
      </trkpt>
      <trkpt lat="43.65254" lon="3.82594">
        <ele>153.6</ele>
        <time>2017-10-04T11:26:19Z</time>
      </trkpt>
      <trkpt lat="43.6525" lon="3.82605">
        <ele>155.9</ele>
        <time>2017-10-04T11:26:25Z</time>
      </trkpt>
      <trkpt lat="43.65245" lon="3.82613">
        <ele>158.2</ele>
        <time>2017-10-04T11:26:31Z</time>
      </trkpt>
      <trkpt lat="43.65234" lon="3.82609">
        <ele>159.8</ele>
        <time>2017-10-04T11:26:35Z</time>
      </trkpt>
      <trkpt lat="43.65226" lon="3.82601">
        <ele>161.1</ele>
        <time>2017-10-04T11:26:38Z</time>
      </trkpt>
      <trkpt lat="43.65219" lon="3.82592">
        <ele>161.8</ele>
        <time>2017-10-04T11:26:40Z</time>
      </trkpt>
      <trkpt lat="43.65213" lon="3.82584">
        <ele>162.5</ele>
        <time>2017-10-04T11:26:42Z</time>
      </trkpt>
      <trkpt lat="43.65206" lon="3.82574">
        <ele>163.5</ele>
        <time>2017-10-04T11:26:45Z</time>
      </trkpt>
      <trkpt lat="43.65199" lon="3.82564">
        <ele>167.3</ele>
        <time>2017-10-04T11:26:47Z</time>
      </trkpt>
      <trkpt lat="43.65194" lon="3.82555">
        <ele>168</ele>
        <time>2017-10-04T11:26:49Z</time>
      </trkpt>
      <trkpt lat="43.65188" lon="3.82547">
        <ele>171.4</ele>
        <time>2017-10-04T11:26:51Z</time>
      </trkpt>
      <trkpt lat="43.65184" lon="3.82539">
        <ele>171.9</ele>
        <time>2017-10-04T11:26:53Z</time>
      </trkpt>
      <trkpt lat="43.65176" lon="3.8253">
        <ele>172.6</ele>
        <time>2017-10-04T11:26:56Z</time>
      </trkpt>
      <trkpt lat="43.65171" lon="3.82522">
        <ele>173</ele>
        <time>2017-10-04T11:26:58Z</time>
      </trkpt>
      <trkpt lat="43.65165" lon="3.82512">
        <ele>173.4</ele>
        <time>2017-10-04T11:27:00Z</time>
      </trkpt>
      <trkpt lat="43.6516" lon="3.82502">
        <ele>173.7</ele>
        <time>2017-10-04T11:27:03Z</time>
      </trkpt>
      <trkpt lat="43.65159" lon="3.82489">
        <ele>173.9</ele>
        <time>2017-10-04T11:27:07Z</time>
      </trkpt>
      <trkpt lat="43.6516" lon="3.82476">
        <ele>174.1</ele>
        <time>2017-10-04T11:27:09Z</time>
      </trkpt>
      <trkpt lat="43.65161" lon="3.82465">
        <ele>174.3</ele>
        <time>2017-10-04T11:27:11Z</time>
      </trkpt>
      <trkpt lat="43.65162" lon="3.82451">
        <ele>174.4</ele>
        <time>2017-10-04T11:27:14Z</time>
      </trkpt>
      <trkpt lat="43.6516" lon="3.82438">
        <ele>174.5</ele>
        <time>2017-10-04T11:27:17Z</time>
      </trkpt>
      <trkpt lat="43.65158" lon="3.82424">
        <ele>174.5</ele>
        <time>2017-10-04T11:27:20Z</time>
      </trkpt>
      <trkpt lat="43.65154" lon="3.82411">
        <ele>174.3</ele>
        <time>2017-10-04T11:27:24Z</time>
      </trkpt>
      <trkpt lat="43.65149" lon="3.82401">
        <ele>173.8</ele>
        <time>2017-10-04T11:27:28Z</time>
      </trkpt>
      <trkpt lat="43.65146" lon="3.82391">
        <ele>173.6</ele>
        <time>2017-10-04T11:27:30Z</time>
      </trkpt>
      <trkpt lat="43.65141" lon="3.82382">
        <ele>173.2</ele>
        <time>2017-10-04T11:27:33Z</time>
      </trkpt>
      <trkpt lat="43.65136" lon="3.82373">
        <ele>173</ele>
        <time>2017-10-04T11:27:35Z</time>
      </trkpt>
      <trkpt lat="43.65129" lon="3.82364">
        <ele>172.6</ele>
        <time>2017-10-04T11:27:38Z</time>
      </trkpt>
      <trkpt lat="43.6512" lon="3.82358">
        <ele>172.4</ele>
        <time>2017-10-04T11:27:40Z</time>
      </trkpt>
      <trkpt lat="43.65113" lon="3.82353">
        <ele>172</ele>
        <time>2017-10-04T11:27:42Z</time>
      </trkpt>
      <trkpt lat="43.65104" lon="3.82349">
        <ele>171.3</ele>
        <time>2017-10-04T11:27:45Z</time>
      </trkpt>
      <trkpt lat="43.65096" lon="3.82346">
        <ele>170.7</ele>
        <time>2017-10-04T11:27:47Z</time>
      </trkpt>
      <trkpt lat="43.65088" lon="3.82346">
        <ele>170</ele>
        <time>2017-10-04T11:27:49Z</time>
      </trkpt>
      <trkpt lat="43.6508" lon="3.82341">
        <ele>168.3</ele>
        <time>2017-10-04T11:27:54Z</time>
      </trkpt>
      <trkpt lat="43.6508" lon="3.82328">
        <ele>167.3</ele>
        <time>2017-10-04T11:27:57Z</time>
      </trkpt>
      <trkpt lat="43.65082" lon="3.82316">
        <ele>166.3</ele>
        <time>2017-10-04T11:28:00Z</time>
      </trkpt>
      <trkpt lat="43.65084" lon="3.82305">
        <ele>165.5</ele>
        <time>2017-10-04T11:28:03Z</time>
      </trkpt>
      <trkpt lat="43.65086" lon="3.82293">
        <ele>164.7</ele>
        <time>2017-10-04T11:28:07Z</time>
      </trkpt>
      <trkpt lat="43.65089" lon="3.82284">
        <ele>164.4</ele>
        <time>2017-10-04T11:28:09Z</time>
      </trkpt>
      <trkpt lat="43.65093" lon="3.8227">
        <ele>164</ele>
        <time>2017-10-04T11:28:12Z</time>
      </trkpt>
      <trkpt lat="43.65096" lon="3.82258">
        <ele>163.5</ele>
        <time>2017-10-04T11:28:15Z</time>
      </trkpt>
      <trkpt lat="43.6509" lon="3.82253">
        <ele>162.5</ele>
        <time>2017-10-04T11:28:20Z</time>
      </trkpt>
      <trkpt lat="43.6508" lon="3.82254">
        <ele>161.9</ele>
        <time>2017-10-04T11:28:23Z</time>
      </trkpt>
      <trkpt lat="43.6507" lon="3.82248">
        <ele>157.2</ele>
        <time>2017-10-04T11:28:26Z</time>
      </trkpt>
      <trkpt lat="43.65059" lon="3.8225">
        <ele>155.4</ele>
        <time>2017-10-04T11:28:29Z</time>
      </trkpt>
      <trkpt lat="43.65049" lon="3.82254">
        <ele>155.1</ele>
        <time>2017-10-04T11:28:32Z</time>
      </trkpt>
      <trkpt lat="43.6504" lon="3.82258">
        <ele>154.8</ele>
        <time>2017-10-04T11:28:35Z</time>
      </trkpt>
      <trkpt lat="43.65033" lon="3.8226">
        <ele>154.5</ele>
        <time>2017-10-04T11:28:38Z</time>
      </trkpt>
      <trkpt lat="43.65024" lon="3.8226">
        <ele>154.3</ele>
        <time>2017-10-04T11:28:42Z</time>
      </trkpt>
      <trkpt lat="43.65015" lon="3.82253">
        <ele>152.2</ele>
        <time>2017-10-04T11:28:45Z</time>
      </trkpt>
      <trkpt lat="43.65008" lon="3.8224">
        <ele>149.6</ele>
        <time>2017-10-04T11:28:47Z</time>
      </trkpt>
      <trkpt lat="43.65005" lon="3.82223">
        <ele>148.8</ele>
        <time>2017-10-04T11:28:49Z</time>
      </trkpt>
      <trkpt lat="43.64996" lon="3.82211">
        <ele>148.6</ele>
        <time>2017-10-04T11:28:51Z</time>
      </trkpt>
      <trkpt lat="43.64984" lon="3.82203">
        <ele>147.7</ele>
        <time>2017-10-04T11:28:53Z</time>
      </trkpt>
      <trkpt lat="43.64976" lon="3.82189">
        <ele>146</ele>
        <time>2017-10-04T11:28:55Z</time>
      </trkpt>
      <trkpt lat="43.6497" lon="3.82184">
        <ele>145.8</ele>
        <time>2017-10-04T11:28:57Z</time>
      </trkpt>
      <trkpt lat="43.64962" lon="3.82184">
        <ele>145.2</ele>
        <time>2017-10-04T11:29:00Z</time>
      </trkpt>
      <trkpt lat="43.64952" lon="3.8219">
        <ele>144.6</ele>
        <time>2017-10-04T11:29:03Z</time>
      </trkpt>
      <trkpt lat="43.64945" lon="3.82193">
        <ele>144.1</ele>
        <time>2017-10-04T11:29:05Z</time>
      </trkpt>
      <trkpt lat="43.64938" lon="3.82199">
        <ele>138.9</ele>
        <time>2017-10-04T11:29:07Z</time>
      </trkpt>
      <trkpt lat="43.64931" lon="3.82203">
        <ele>134.4</ele>
        <time>2017-10-04T11:29:09Z</time>
      </trkpt>
      <trkpt lat="43.64924" lon="3.8221">
        <ele>130.3</ele>
        <time>2017-10-04T11:29:11Z</time>
      </trkpt>
      <trkpt lat="43.64916" lon="3.82215">
        <ele>127</ele>
        <time>2017-10-04T11:29:13Z</time>
      </trkpt>
      <trkpt lat="43.64909" lon="3.82221">
        <ele>124.9</ele>
        <time>2017-10-04T11:29:15Z</time>
      </trkpt>
      <trkpt lat="43.64901" lon="3.82227">
        <ele>122.8</ele>
        <time>2017-10-04T11:29:17Z</time>
      </trkpt>
      <trkpt lat="43.64893" lon="3.82232">
        <ele>120.7</ele>
        <time>2017-10-04T11:29:19Z</time>
      </trkpt>
      <trkpt lat="43.64885" lon="3.82238">
        <ele>119.3</ele>
        <time>2017-10-04T11:29:21Z</time>
      </trkpt>
      <trkpt lat="43.64876" lon="3.82245">
        <ele>117.2</ele>
        <time>2017-10-04T11:29:24Z</time>
      </trkpt>
      <trkpt lat="43.64868" lon="3.82252">
        <ele>114.9</ele>
        <time>2017-10-04T11:29:26Z</time>
      </trkpt>
      <trkpt lat="43.64862" lon="3.82258">
        <ele>113.8</ele>
        <time>2017-10-04T11:29:28Z</time>
      </trkpt>
      <trkpt lat="43.64856" lon="3.82265">
        <ele>113.6</ele>
        <time>2017-10-04T11:29:30Z</time>
      </trkpt>
      <trkpt lat="43.64848" lon="3.82273">
        <ele>112.8</ele>
        <time>2017-10-04T11:29:33Z</time>
      </trkpt>
      <trkpt lat="43.64838" lon="3.82278">
        <ele>112.3</ele>
        <time>2017-10-04T11:29:36Z</time>
      </trkpt>
      <trkpt lat="43.6483" lon="3.82281">
        <ele>112.3</ele>
        <time>2017-10-04T11:29:38Z</time>
      </trkpt>
      <trkpt lat="43.64823" lon="3.82284">
        <ele>112.5</ele>
        <time>2017-10-04T11:29:40Z</time>
      </trkpt>
      <trkpt lat="43.64815" lon="3.82286">
        <ele>113.1</ele>
        <time>2017-10-04T11:29:42Z</time>
      </trkpt>
      <trkpt lat="43.64808" lon="3.82289">
        <ele>114.2</ele>
        <time>2017-10-04T11:29:44Z</time>
      </trkpt>
      <trkpt lat="43.64801" lon="3.82293">
        <ele>115</ele>
        <time>2017-10-04T11:29:46Z</time>
      </trkpt>
      <trkpt lat="43.64795" lon="3.82298">
        <ele>116.6</ele>
        <time>2017-10-04T11:29:48Z</time>
      </trkpt>
      <trkpt lat="43.64788" lon="3.82304">
        <ele>117.6</ele>
        <time>2017-10-04T11:29:50Z</time>
      </trkpt>
      <trkpt lat="43.64779" lon="3.82309">
        <ele>117.8</ele>
        <time>2017-10-04T11:29:52Z</time>
      </trkpt>
      <trkpt lat="43.64771" lon="3.82314">
        <ele>118.5</ele>
        <time>2017-10-04T11:29:54Z</time>
      </trkpt>
      <trkpt lat="43.64762" lon="3.82318">
        <ele>119.6</ele>
        <time>2017-10-04T11:29:56Z</time>
      </trkpt>
      <trkpt lat="43.64755" lon="3.8232">
        <ele>120</ele>
        <time>2017-10-04T11:29:58Z</time>
      </trkpt>
      <trkpt lat="43.64747" lon="3.82324">
        <ele>120.1</ele>
        <time>2017-10-04T11:30:00Z</time>
      </trkpt>
      <trkpt lat="43.64737" lon="3.82327">
        <ele>120.2</ele>
        <time>2017-10-04T11:30:03Z</time>
      </trkpt>
      <trkpt lat="43.64727" lon="3.82331">
        <ele>120.3</ele>
        <time>2017-10-04T11:30:06Z</time>
      </trkpt>
      <trkpt lat="43.64717" lon="3.82335">
        <ele>120.5</ele>
        <time>2017-10-04T11:30:09Z</time>
      </trkpt>
      <trkpt lat="43.64708" lon="3.82336">
        <ele>120.8</ele>
        <time>2017-10-04T11:30:12Z</time>
      </trkpt>
      <trkpt lat="43.64699" lon="3.82337">
        <ele>121</ele>
        <time>2017-10-04T11:30:14Z</time>
      </trkpt>
      <trkpt lat="43.64691" lon="3.82337">
        <ele>121.3</ele>
        <time>2017-10-04T11:30:16Z</time>
      </trkpt>
      <trkpt lat="43.64683" lon="3.82334">
        <ele>123</ele>
        <time>2017-10-04T11:30:18Z</time>
      </trkpt>
      <trkpt lat="43.64677" lon="3.82328">
        <ele>123.2</ele>
        <time>2017-10-04T11:30:20Z</time>
      </trkpt>
      <trkpt lat="43.64668" lon="3.82325">
        <ele>123.6</ele>
        <time>2017-10-04T11:30:23Z</time>
      </trkpt>
      <trkpt lat="43.64658" lon="3.82326">
        <ele>123.9</ele>
        <time>2017-10-04T11:30:26Z</time>
      </trkpt>
      <trkpt lat="43.64648" lon="3.82329">
        <ele>124.2</ele>
        <time>2017-10-04T11:30:29Z</time>
      </trkpt>
      <trkpt lat="43.64639" lon="3.82331">
        <ele>124.6</ele>
        <time>2017-10-04T11:30:32Z</time>
      </trkpt>
      <trkpt lat="43.64631" lon="3.82333">
        <ele>125</ele>
        <time>2017-10-04T11:30:35Z</time>
      </trkpt>
      <trkpt lat="43.64621" lon="3.82336">
        <ele>125.5</ele>
        <time>2017-10-04T11:30:38Z</time>
      </trkpt>
      <trkpt lat="43.64614" lon="3.82337">
        <ele>126.1</ele>
        <time>2017-10-04T11:30:41Z</time>
      </trkpt>
      <trkpt lat="43.64605" lon="3.82337">
        <ele>126.6</ele>
        <time>2017-10-04T11:30:44Z</time>
      </trkpt>
      <trkpt lat="43.64596" lon="3.82336">
        <ele>127.3</ele>
        <time>2017-10-04T11:30:47Z</time>
      </trkpt>
      <trkpt lat="43.64587" lon="3.82336">
        <ele>128.1</ele>
        <time>2017-10-04T11:30:50Z</time>
      </trkpt>
      <trkpt lat="43.64579" lon="3.82336">
        <ele>128.7</ele>
        <time>2017-10-04T11:30:52Z</time>
      </trkpt>
      <trkpt lat="43.64569" lon="3.82333">
        <ele>129.5</ele>
        <time>2017-10-04T11:30:55Z</time>
      </trkpt>
      <trkpt lat="43.64558" lon="3.8233">
        <ele>130.4</ele>
        <time>2017-10-04T11:30:58Z</time>
      </trkpt>
      <trkpt lat="43.6455" lon="3.82327">
        <ele>131.3</ele>
        <time>2017-10-04T11:31:01Z</time>
      </trkpt>
      <trkpt lat="43.64542" lon="3.82325">
        <ele>131.9</ele>
        <time>2017-10-04T11:31:03Z</time>
      </trkpt>
      <trkpt lat="43.64535" lon="3.82322">
        <ele>134.6</ele>
        <time>2017-10-04T11:31:05Z</time>
      </trkpt>
      <trkpt lat="43.64527" lon="3.8232">
        <ele>135</ele>
        <time>2017-10-04T11:31:07Z</time>
      </trkpt>
      <trkpt lat="43.64519" lon="3.82317">
        <ele>135.4</ele>
        <time>2017-10-04T11:31:09Z</time>
      </trkpt>
      <trkpt lat="43.64511" lon="3.82314">
        <ele>139.1</ele>
        <time>2017-10-04T11:31:11Z</time>
      </trkpt>
      <trkpt lat="43.64501" lon="3.8231">
        <ele>142</ele>
        <time>2017-10-04T11:31:13Z</time>
      </trkpt>
      <trkpt lat="43.64492" lon="3.82299">
        <ele>144.4</ele>
        <time>2017-10-04T11:31:15Z</time>
      </trkpt>
      <trkpt lat="43.6448" lon="3.82291">
        <ele>145.5</ele>
        <time>2017-10-04T11:31:17Z</time>
      </trkpt>
      <trkpt lat="43.64468" lon="3.82293">
        <ele>145.4</ele>
        <time>2017-10-04T11:31:19Z</time>
      </trkpt>
      <trkpt lat="43.64461" lon="3.82296">
        <ele>145.1</ele>
        <time>2017-10-04T11:31:21Z</time>
      </trkpt>
      <trkpt lat="43.64454" lon="3.82287">
        <ele>145.2</ele>
        <time>2017-10-04T11:31:26Z</time>
      </trkpt>
      <trkpt lat="43.64447" lon="3.82281">
        <ele>145.4</ele>
        <time>2017-10-04T11:31:29Z</time>
      </trkpt>
      <trkpt lat="43.64437" lon="3.82274">
        <ele>145.5</ele>
        <time>2017-10-04T11:31:32Z</time>
      </trkpt>
      <trkpt lat="43.64432" lon="3.82267">
        <ele>147</ele>
        <time>2017-10-04T11:31:34Z</time>
      </trkpt>
      <trkpt lat="43.64425" lon="3.82262">
        <ele>147.7</ele>
        <time>2017-10-04T11:31:36Z</time>
      </trkpt>
      <trkpt lat="43.64417" lon="3.82252">
        <ele>148</ele>
        <time>2017-10-04T11:31:38Z</time>
      </trkpt>
      <trkpt lat="43.64413" lon="3.82243">
        <ele>148.4</ele>
        <time>2017-10-04T11:31:40Z</time>
      </trkpt>
      <trkpt lat="43.64406" lon="3.82238">
        <ele>148.3</ele>
        <time>2017-10-04T11:31:43Z</time>
      </trkpt>
      <trkpt lat="43.64398" lon="3.82244">
        <ele>148</ele>
        <time>2017-10-04T11:31:46Z</time>
      </trkpt>
      <trkpt lat="43.64391" lon="3.82248">
        <ele>145.5</ele>
        <time>2017-10-04T11:31:48Z</time>
      </trkpt>
      <trkpt lat="43.64383" lon="3.82253">
        <ele>143.9</ele>
        <time>2017-10-04T11:31:50Z</time>
      </trkpt>
      <trkpt lat="43.64375" lon="3.82256">
        <ele>143</ele>
        <time>2017-10-04T11:31:52Z</time>
      </trkpt>
      <trkpt lat="43.64367" lon="3.8226">
        <ele>142.4</ele>
        <time>2017-10-04T11:31:57Z</time>
      </trkpt>
      <trkpt lat="43.64361" lon="3.82266">
        <ele>142.1</ele>
        <time>2017-10-04T11:32:00Z</time>
      </trkpt>
      <trkpt lat="43.64353" lon="3.82272">
        <ele>141.7</ele>
        <time>2017-10-04T11:32:03Z</time>
      </trkpt>
      <trkpt lat="43.64349" lon="3.82282">
        <ele>141.4</ele>
        <time>2017-10-04T11:32:06Z</time>
      </trkpt>
      <trkpt lat="43.6434" lon="3.8229">
        <ele>141</ele>
        <time>2017-10-04T11:32:09Z</time>
      </trkpt>
      <trkpt lat="43.64328" lon="3.82296">
        <ele>139.4</ele>
        <time>2017-10-04T11:32:13Z</time>
      </trkpt>
      <trkpt lat="43.6432" lon="3.82298">
        <ele>139.2</ele>
        <time>2017-10-04T11:32:14Z</time>
      </trkpt>
      <trkpt lat="43.64312" lon="3.82301">
        <ele>136.9</ele>
        <time>2017-10-04T11:32:16Z</time>
      </trkpt>
      <trkpt lat="43.64302" lon="3.82302">
        <ele>136.2</ele>
        <time>2017-10-04T11:32:18Z</time>
      </trkpt>
      <trkpt lat="43.64294" lon="3.82301">
        <ele>135.7</ele>
        <time>2017-10-04T11:32:20Z</time>
      </trkpt>
      <trkpt lat="43.64289" lon="3.82309">
        <ele>135.9</ele>
        <time>2017-10-04T11:32:22Z</time>
      </trkpt>
      <trkpt lat="43.64281" lon="3.82315">
        <ele>136.3</ele>
        <time>2017-10-04T11:32:24Z</time>
      </trkpt>
      <trkpt lat="43.64272" lon="3.82316">
        <ele>137.5</ele>
        <time>2017-10-04T11:32:26Z</time>
      </trkpt>
      <trkpt lat="43.64264" lon="3.82314">
        <ele>137.7</ele>
        <time>2017-10-04T11:32:28Z</time>
      </trkpt>
      <trkpt lat="43.64257" lon="3.82313">
        <ele>137.8</ele>
        <time>2017-10-04T11:32:30Z</time>
      </trkpt>
      <trkpt lat="43.64249" lon="3.82315">
        <ele>138</ele>
        <time>2017-10-04T11:32:32Z</time>
      </trkpt>
      <trkpt lat="43.64242" lon="3.82318">
        <ele>139.5</ele>
        <time>2017-10-04T11:32:34Z</time>
      </trkpt>
      <trkpt lat="43.64233" lon="3.82318">
        <ele>139.9</ele>
        <time>2017-10-04T11:32:37Z</time>
      </trkpt>
      <trkpt lat="43.64223" lon="3.8232">
        <ele>140.3</ele>
        <time>2017-10-04T11:32:40Z</time>
      </trkpt>
      <trkpt lat="43.64215" lon="3.82322">
        <ele>140.7</ele>
        <time>2017-10-04T11:32:43Z</time>
      </trkpt>
      <trkpt lat="43.64207" lon="3.82328">
        <ele>141.1</ele>
        <time>2017-10-04T11:32:46Z</time>
      </trkpt>
      <trkpt lat="43.64198" lon="3.82335">
        <ele>142.5</ele>
        <time>2017-10-04T11:32:49Z</time>
      </trkpt>
      <trkpt lat="43.64192" lon="3.82343">
        <ele>142.6</ele>
        <time>2017-10-04T11:32:52Z</time>
      </trkpt>
      <trkpt lat="43.6419" lon="3.82355">
        <ele>143.3</ele>
        <time>2017-10-04T11:32:55Z</time>
      </trkpt>
      <trkpt lat="43.64188" lon="3.82366">
        <ele>143.3</ele>
        <time>2017-10-04T11:32:57Z</time>
      </trkpt>
      <trkpt lat="43.64185" lon="3.82377">
        <ele>143.3</ele>
        <time>2017-10-04T11:33:01Z</time>
      </trkpt>
      <trkpt lat="43.64179" lon="3.82387">
        <ele>143.5</ele>
        <time>2017-10-04T11:33:06Z</time>
      </trkpt>
      <trkpt lat="43.64174" lon="3.82397">
        <ele>144.3</ele>
        <time>2017-10-04T11:33:09Z</time>
      </trkpt>
      <trkpt lat="43.64167" lon="3.82408">
        <ele>145</ele>
        <time>2017-10-04T11:33:11Z</time>
      </trkpt>
      <trkpt lat="43.64164" lon="3.82417">
        <ele>145</ele>
        <time>2017-10-04T11:33:13Z</time>
      </trkpt>
      <trkpt lat="43.64163" lon="3.82428">
        <ele>145.2</ele>
        <time>2017-10-04T11:33:18Z</time>
      </trkpt>
      <trkpt lat="43.64164" lon="3.8244">
        <ele>145.3</ele>
        <time>2017-10-04T11:33:21Z</time>
      </trkpt>
      <trkpt lat="43.64161" lon="3.82451">
        <ele>146.2</ele>
        <time>2017-10-04T11:33:23Z</time>
      </trkpt>
      <trkpt lat="43.64157" lon="3.82462">
        <ele>147.4</ele>
        <time>2017-10-04T11:33:25Z</time>
      </trkpt>
      <trkpt lat="43.64155" lon="3.82477">
        <ele>148.4</ele>
        <time>2017-10-04T11:33:27Z</time>
      </trkpt>
      <trkpt lat="43.64151" lon="3.82491">
        <ele>149.1</ele>
        <time>2017-10-04T11:33:29Z</time>
      </trkpt>
      <trkpt lat="43.64144" lon="3.82505">
        <ele>149.3</ele>
        <time>2017-10-04T11:33:31Z</time>
      </trkpt>
      <trkpt lat="43.64141" lon="3.82514">
        <ele>149.1</ele>
        <time>2017-10-04T11:33:32Z</time>
      </trkpt>
      <trkpt lat="43.64135" lon="3.82529">
        <ele>151.5</ele>
        <time>2017-10-04T11:33:33Z</time>
      </trkpt>
      <trkpt lat="43.64131" lon="3.8254">
        <ele>153.6</ele>
        <time>2017-10-04T11:33:34Z</time>
      </trkpt>
      <trkpt lat="43.64128" lon="3.8255">
        <ele>154.9</ele>
        <time>2017-10-04T11:33:35Z</time>
      </trkpt>
      <trkpt lat="43.64124" lon="3.8256">
        <ele>155.4</ele>
        <time>2017-10-04T11:33:36Z</time>
      </trkpt>
      <trkpt lat="43.64119" lon="3.82568">
        <ele>155.4</ele>
        <time>2017-10-04T11:33:37Z</time>
      </trkpt>
      <trkpt lat="43.64114" lon="3.82577">
        <ele>155.3</ele>
        <time>2017-10-04T11:33:38Z</time>
      </trkpt>
      <trkpt lat="43.6411" lon="3.82586">
        <ele>155</ele>
        <time>2017-10-04T11:33:39Z</time>
      </trkpt>
      <trkpt lat="43.64103" lon="3.82603">
        <ele>154.9</ele>
        <time>2017-10-04T11:33:41Z</time>
      </trkpt>
      <trkpt lat="43.64099" lon="3.82612">
        <ele>154.8</ele>
        <time>2017-10-04T11:33:42Z</time>
      </trkpt>
      <trkpt lat="43.64095" lon="3.8263">
        <ele>154.5</ele>
        <time>2017-10-04T11:33:44Z</time>
      </trkpt>
      <trkpt lat="43.64094" lon="3.8264">
        <ele>154.1</ele>
        <time>2017-10-04T11:33:45Z</time>
      </trkpt>
      <trkpt lat="43.64093" lon="3.8265">
        <ele>153.8</ele>
        <time>2017-10-04T11:33:46Z</time>
      </trkpt>
      <trkpt lat="43.64088" lon="3.82659">
        <ele>153</ele>
        <time>2017-10-04T11:33:47Z</time>
      </trkpt>
      <trkpt lat="43.64082" lon="3.82667">
        <ele>152.2</ele>
        <time>2017-10-04T11:33:48Z</time>
      </trkpt>
      <trkpt lat="43.64078" lon="3.82677">
        <ele>151.3</ele>
        <time>2017-10-04T11:33:49Z</time>
      </trkpt>
      <trkpt lat="43.64074" lon="3.82687">
        <ele>150.5</ele>
        <time>2017-10-04T11:33:50Z</time>
      </trkpt>
      <trkpt lat="43.64072" lon="3.82698">
        <ele>149.3</ele>
        <time>2017-10-04T11:33:51Z</time>
      </trkpt>
      <trkpt lat="43.64069" lon="3.82709">
        <ele>148.4</ele>
        <time>2017-10-04T11:33:52Z</time>
      </trkpt>
      <trkpt lat="43.64063" lon="3.82718">
        <ele>147.6</ele>
        <time>2017-10-04T11:33:53Z</time>
      </trkpt>
      <trkpt lat="43.64056" lon="3.82727">
        <ele>146.8</ele>
        <time>2017-10-04T11:33:54Z</time>
      </trkpt>
      <trkpt lat="43.6405" lon="3.82735">
        <ele>146.3</ele>
        <time>2017-10-04T11:33:55Z</time>
      </trkpt>
      <trkpt lat="43.64044" lon="3.82743">
        <ele>145.9</ele>
        <time>2017-10-04T11:33:56Z</time>
      </trkpt>
      <trkpt lat="43.64038" lon="3.82761">
        <ele>145.1</ele>
        <time>2017-10-04T11:33:58Z</time>
      </trkpt>
      <trkpt lat="43.64033" lon="3.82769">
        <ele>144.4</ele>
        <time>2017-10-04T11:33:59Z</time>
      </trkpt>
      <trkpt lat="43.64026" lon="3.82781">
        <ele>143.6</ele>
        <time>2017-10-04T11:34:01Z</time>
      </trkpt>
      <trkpt lat="43.64018" lon="3.82791">
        <ele>141.5</ele>
        <time>2017-10-04T11:34:04Z</time>
      </trkpt>
      <trkpt lat="43.64005" lon="3.82793">
        <ele>139.8</ele>
        <time>2017-10-04T11:34:06Z</time>
      </trkpt>
      <trkpt lat="43.63997" lon="3.82794">
        <ele>139</ele>
        <time>2017-10-04T11:34:07Z</time>
      </trkpt>
      <trkpt lat="43.63989" lon="3.82794">
        <ele>138.1</ele>
        <time>2017-10-04T11:34:08Z</time>
      </trkpt>
      <trkpt lat="43.63982" lon="3.82795">
        <ele>137.1</ele>
        <time>2017-10-04T11:34:09Z</time>
      </trkpt>
      <trkpt lat="43.63974" lon="3.82796">
        <ele>135.9</ele>
        <time>2017-10-04T11:34:10Z</time>
      </trkpt>
      <trkpt lat="43.63966" lon="3.82798">
        <ele>134.9</ele>
        <time>2017-10-04T11:34:11Z</time>
      </trkpt>
      <trkpt lat="43.63959" lon="3.82802">
        <ele>133.7</ele>
        <time>2017-10-04T11:34:12Z</time>
      </trkpt>
      <trkpt lat="43.63952" lon="3.82806">
        <ele>132.9</ele>
        <time>2017-10-04T11:34:13Z</time>
      </trkpt>
      <trkpt lat="43.63946" lon="3.82811">
        <ele>132</ele>
        <time>2017-10-04T11:34:14Z</time>
      </trkpt>
      <trkpt lat="43.63937" lon="3.82813">
        <ele>131.1</ele>
        <time>2017-10-04T11:34:16Z</time>
      </trkpt>
      <trkpt lat="43.63928" lon="3.8282">
        <ele>129.4</ele>
        <time>2017-10-04T11:34:19Z</time>
      </trkpt>
      <trkpt lat="43.63919" lon="3.82818">
        <ele>128.5</ele>
        <time>2017-10-04T11:34:21Z</time>
      </trkpt>
      <trkpt lat="43.63911" lon="3.82811">
        <ele>128.2</ele>
        <time>2017-10-04T11:34:24Z</time>
      </trkpt>
      <trkpt lat="43.63905" lon="3.82802">
        <ele>127.8</ele>
        <time>2017-10-04T11:34:27Z</time>
      </trkpt>
      <trkpt lat="43.63896" lon="3.82796">
        <ele>127.5</ele>
        <time>2017-10-04T11:34:30Z</time>
      </trkpt>
      <trkpt lat="43.63889" lon="3.82785">
        <ele>126.7</ele>
        <time>2017-10-04T11:34:33Z</time>
      </trkpt>
      <trkpt lat="43.63884" lon="3.82774">
        <ele>125.5</ele>
        <time>2017-10-04T11:34:35Z</time>
      </trkpt>
      <trkpt lat="43.63876" lon="3.82776">
        <ele>125.3</ele>
        <time>2017-10-04T11:34:38Z</time>
      </trkpt>
      <trkpt lat="43.63866" lon="3.82785">
        <ele>124.7</ele>
        <time>2017-10-04T11:34:40Z</time>
      </trkpt>
      <trkpt lat="43.63854" lon="3.82794">
        <ele>123.5</ele>
        <time>2017-10-04T11:34:42Z</time>
      </trkpt>
      <trkpt lat="43.63847" lon="3.82798">
        <ele>123</ele>
        <time>2017-10-04T11:34:43Z</time>
      </trkpt>
      <trkpt lat="43.63839" lon="3.82799">
        <ele>122.7</ele>
        <time>2017-10-04T11:34:44Z</time>
      </trkpt>
      <trkpt lat="43.63826" lon="3.82797">
        <ele>122.1</ele>
        <time>2017-10-04T11:34:46Z</time>
      </trkpt>
      <trkpt lat="43.63816" lon="3.82803">
        <ele>121.1</ele>
        <time>2017-10-04T11:34:48Z</time>
      </trkpt>
      <trkpt lat="43.63804" lon="3.82806">
        <ele>120.8</ele>
        <time>2017-10-04T11:34:50Z</time>
      </trkpt>
      <trkpt lat="43.63791" lon="3.82812">
        <ele>120.5</ele>
        <time>2017-10-04T11:34:52Z</time>
      </trkpt>
      <trkpt lat="43.63783" lon="3.82818">
        <ele>120.4</ele>
        <time>2017-10-04T11:34:54Z</time>
      </trkpt>
      <trkpt lat="43.63777" lon="3.82824">
        <ele>120.5</ele>
        <time>2017-10-04T11:34:58Z</time>
      </trkpt>
      <trkpt lat="43.63776" lon="3.82828">
        <ele>123.2</ele>
        <time>2017-10-04T11:36:17Z</time>
      </trkpt>
      <trkpt lat="43.63777" lon="3.82839">
        <ele>123.8</ele>
        <time>2017-10-04T11:36:19Z</time>
      </trkpt>
      <trkpt lat="43.63771" lon="3.82845">
        <ele>124.8</ele>
        <time>2017-10-04T11:36:23Z</time>
      </trkpt>
      <trkpt lat="43.63766" lon="3.82847">
        <ele>126.1</ele>
        <time>2017-10-04T11:36:37Z</time>
      </trkpt>
      <trkpt lat="43.63763" lon="3.82858">
        <ele>126.2</ele>
        <time>2017-10-04T11:36:49Z</time>
      </trkpt>
      <trkpt lat="43.63769" lon="3.82857">
        <ele>126.4</ele>
        <time>2017-10-04T11:37:51Z</time>
      </trkpt>
    </trkseg>
  </trk>
</gpx>